HV6608 / F-HTVB 7700 Squawk Report (15th of February, 2020)

Aircraft B738 Reg No. F-HTVB Age 4 years old
Model 737 Jet engines 2 First flight 06-03-16
Registered 15-03-16 Rollout N/A Delivered 15-03-16
Construction No. 62161 Line No. 5816 Series 8K2
ADSHEX 39CEA1 Airline name Transavia Owner N/A
Airfield based Amsterdam-Schiphol~Noord-Holland~PH First tracked N/A

Flight history for F-HTVB

Route Flight No Date Playback
???? HV51 2020-03-18 23:25:00
Queen Alia Intl (AMM) - Schiphol (AMS) HV6506 2020-03-15 23:42:00
Schiphol (AMS) - Queen Alia Intl (AMM) HV6505 2020-03-15 18:44:00
Makedonia (SKG) - Schiphol (AMS) HV5808 2020-03-14 21:55:00
Schiphol (AMS) - Makedonia (SKG) HV5807 2020-03-14 17:51:00
Barcelona–El Prat (BCN) - Schiphol (AMS) HV5134 2020-03-14 15:17:00
Schiphol (AMS) - Barcelona–El Prat (BCN) HV5133 2020-03-14 09:36:00
Gran Canaria (LPA) - Schiphol (AMS) HV5662 2020-03-14 06:38:00
Schiphol (AMS) - Gran Canaria (LPA) HV5661 2020-03-13 18:56:00
Capodichino (NAP) - Schiphol (AMS) HV6412 2020-03-13 13:13:00
Schiphol (AMS) - Capodichino (NAP) HV6411 2020-03-13 08:25:00
Gran Canaria (LPA) - Schiphol (AMS) HV5666 2020-03-13 06:22:00
Schiphol (AMS) - Gran Canaria (LPA) HV5665 2020-03-12 19:00:00
Valencia (VLC) - Schiphol (AMS) HV6332 2020-03-12 12:59:00
Schiphol (AMS) - Valencia (VLC) HV6331 2020-03-12 08:19:00
???? HV246 2020-03-11 22:59:00
Schiphol (AMS) - Ioannis Kapodistrias Intl (CFU) HV245 2020-03-11 15:12:00
Salzburg (SZG) - Schiphol (AMS) HV6592 2020-03-11 11:16:00
Schiphol (AMS) - Salzburg (SZG) HV6591 2020-03-11 07:08:00
Orly (ORY) - Schiphol (AMS) HV5194 2020-03-10 21:13:00
Time Lat Lon Altitude Heading Speed Vertical Rate
2020-02-15 23:04:48 GMT 51.457855 5.388641 0 109 11 0
2020-02-15 23:04:45 GMT 51.457890 5.388451 0 101 10 0
2020-02-15 23:04:36 GMT 51.457958 5.387736 0 118 12 0
2020-02-15 23:04:25 GMT 51.458336 5.386827 0 126 20 0
2020-02-15 23:04:17 GMT 51.458809 5.385780 0 126 18 0
2020-02-15 23:04:06 GMT 51.459240 5.384808 0 126 14 0
2020-02-15 23:03:55 GMT 51.459621 5.383949 0 126 14 0
2020-02-15 23:03:45 GMT 51.459938 5.383148 0 92 12 0
2020-02-15 23:03:35 GMT 51.459705 5.382462 0 36 15 0
2020-02-15 23:03:27 GMT 51.459160 5.381832 0 36 25 0
2020-02-15 23:03:24 GMT 51.458874 5.381519 0 36 28 0
2020-02-15 23:03:14 GMT 51.457821 5.380325 0 33 29 0
2020-02-15 23:03:04 GMT 51.455601 5.377826 0 33 30 0
2020-02-15 23:02:55 GMT 51.455601 5.377826 0 33 30 0
2020-02-15 23:02:44 GMT 51.454445 5.376530 0 36 30 0
2020-02-15 23:02:34 GMT 51.453300 5.375247 0 36 30 0
2020-02-15 23:02:23 GMT 51.452087 5.373892 0 36 29 0
2020-02-15 23:02:13 GMT 51.451069 5.372753 0 33 28 0
2020-02-15 23:02:03 GMT 51.450027 5.371591 0 33 26 0
2020-02-15 23:01:53 GMT 51.449078 5.370541 0 36 18 0
2020-02-15 23:01:43 GMT 51.448509 5.369892 0 28 13 0
2020-02-15 23:01:31 GMT 51.447887 5.369883 0 317 13 0
2020-02-15 23:01:22 GMT 51.447521 5.370477 0 306 12 0
2020-02-15 23:01:12 GMT 51.447361 5.371275 0 236 11 0
2020-02-15 23:01:02 GMT 51.447868 5.371971 0 216 23 0
2020-02-15 23:00:51 GMT 51.449196 5.373440 0 216 67 0
2020-02-15 23:00:41 GMT 51.452454 5.377140 200 216 120 -192
2020-02-15 23:00:30 GMT 51.457306 5.382558 225 215 132 -384
2020-02-15 23:00:21 GMT 51.462067 5.387903 350 215 129 -896
2020-02-15 23:00:17 GMT 51.463669 5.389685 400 216 130 -768
2020-02-15 23:00:08 GMT 51.468933 5.395549 525 216 131 -640
2020-02-15 23:00:00 GMT 51.472343 5.399399 600 216 129 -896
2020-02-15 22:59:55 GMT 51.474533 5.401917 675 216 130 -768
2020-02-15 22:59:50 GMT 51.477264 5.405051 750 215 124 -768
2020-02-15 22:59:47 GMT 51.478546 5.406535 750 216 126 -512
2020-02-15 22:59:39 GMT 51.482632 5.411148 825 215 124 -768
2020-02-15 22:59:36 GMT 51.483627 5.412325 850 215 124 -832
2020-02-15 22:59:30 GMT 51.486923 5.415889 925 215 122 -576
2020-02-15 22:59:27 GMT 51.488358 5.417480 975 216 121 -512
2020-02-15 22:59:21 GMT 51.491150 5.420609 1,025 217 115 -640
2020-02-15 22:59:18 GMT 51.492455 5.422211 1,050 216 114 -640
2020-02-15 22:59:15 GMT 51.494179 5.424118 1,100 215 117 -896
2020-02-15 22:59:10 GMT 51.495899 5.426102 1,175 216 117 -384
2020-02-15 22:59:06 GMT 51.499020 5.429611 1,200 215 117 -448
2020-02-15 22:59:00 GMT 51.500740 5.431519 1,225 214 116 -576
2020-02-15 22:58:56 GMT 51.501904 5.432816 1,250 214 116 -512
2020-02-15 22:58:53 GMT 51.503494 5.434447 1,300 215 117 -640
2020-02-15 22:58:49 GMT 51.504959 5.436080 1,350 215 115 -768
2020-02-15 22:58:46 GMT 51.506195 5.437490 1,375 216 114 -768
2020-02-15 22:58:43 GMT 51.507771 5.439224 1,425 217 111 -896
2020-02-15 22:58:39 GMT 51.510727 5.442761 1,475 217 111 -512
2020-02-15 22:58:36 GMT 51.510727 5.442761 1,500 217 111 -448
2020-02-15 22:58:32 GMT 51.512333 5.444641 1,525 217 111 -512
2020-02-15 22:58:29 GMT 51.513565 5.446175 1,550 217 110 -704
2020-02-15 22:58:24 GMT 51.515717 5.448699 1,625 216 111 -384
2020-02-15 22:58:19 GMT 51.517593 5.450852 2,500 169 170 0
2020-02-15 22:58:16 GMT 51.520935 5.454563 1,675 215 120 -512
2020-02-15 22:58:12 GMT 51.520935 5.454563 1,700 215 121 -512
2020-02-15 22:58:09 GMT 51.522015 5.455780 1,725 216 123 -704
2020-02-15 22:58:06 GMT 51.523453 5.457384 1,875 215 124 -1024
2020-02-15 22:58:03 GMT 51.527042 5.461349 1,875 215 130 -704
2020-02-15 22:57:59 GMT 51.527042 5.461349 1,900 215 130 -704
2020-02-15 22:57:56 GMT 51.528484 5.462875 1,925 215 133 -768
2020-02-15 22:57:53 GMT 51.530022 5.464554 1,950 214 139 -384
2020-02-15 22:57:49 GMT 51.532162 5.466843 1,975 215 143 -256
2020-02-15 22:57:45 GMT 51.535675 5.470672 2,050 214 150 -1152
2020-02-15 22:57:42 GMT 51.535675 5.470672 2,425 213 150 -1344
2020-02-15 22:57:39 GMT 51.537888 5.473022 2,125 212 150 -1664
2020-02-15 22:57:36 GMT 51.539474 5.474532 2,250 212 152 -1664
2020-02-15 22:57:33 GMT 51.541672 5.476610 2,325 213 154 -1344
2020-02-15 22:57:28 GMT 51.545883 5.480842 2,400 213 160 -384
2020-02-15 22:57:22 GMT 51.547993 5.483017 2,425 212 161 -64
2020-02-15 22:57:18 GMT 51.550644 5.485611 2,425 209 161 -64
2020-02-15 22:57:15 GMT 51.552414 5.486908 2,425 200 163 0
2020-02-15 22:57:11 GMT 51.555626 5.488586 2,450 182 166 -256
2020-02-15 22:57:08 GMT 51.557583 5.488968 2,450 179 167 -320
2020-02-15 22:57:05 GMT 51.560097 5.489120 2,450 175 167 -320
2020-02-15 22:57:01 GMT 51.563168 5.488586 2,500 169 169 -64
2020-02-15 22:56:58 GMT 51.567867 5.487289 2,500 169 169 128
2020-02-15 22:56:52 GMT 51.571243 5.486335 2,500 169 171 -192
2020-02-15 22:56:49 GMT 51.572433 5.485964 2,500 169 171 -384
2020-02-15 22:56:46 GMT 51.574448 5.485370 2,525 169 171 -448
2020-02-15 22:56:43 GMT 51.577103 5.484627 2,550 169 171 -576
2020-02-15 22:56:40 GMT 51.581635 5.483291 2,600 169 171 -640
2020-02-15 22:56:37 GMT 51.581635 5.483291 2,600 169 170 -576
2020-02-15 22:56:34 GMT 51.583649 5.482697 2,625 169 170 -576
2020-02-15 22:56:31 GMT 51.587189 5.481644 2,675 168 172 -640
2020-02-15 22:56:28 GMT 51.588818 5.481110 2,675 169 172 -768
2020-02-15 22:56:25 GMT 51.591339 5.480322 2,750 169 170 -704
2020-02-15 22:56:21 GMT 51.594170 5.479507 2,900 159 178 -384
2020-02-15 22:56:18 GMT 51.596966 5.478592 2,850 168 170 -1088
2020-02-15 22:56:15 GMT 51.599430 5.477829 2,900 167 170 -960
2020-02-15 22:56:11 GMT 51.602131 5.476837 2,925 166 170 -960
2020-02-15 22:56:07 GMT 51.604706 5.475794 3,000 161 174 -768
2020-02-15 22:56:04 GMT 51.607178 5.474532 3,025 156 181 -320
2020-02-15 22:56:00 GMT 51.610462 5.472336 3,025 155 183 -256
2020-02-15 22:55:57 GMT 51.612854 5.470449 3,075 149 189 -640
2020-02-15 22:55:54 GMT 51.614796 5.468521 3,100 140 198 -576
2020-02-15 22:55:51 GMT 51.617260 5.465546 3,150 129 209 -768
2020-02-15 22:55:47 GMT 51.619858 5.461022 3,225 119 220 -768
2020-02-15 22:55:44 GMT 51.621452 5.457153 3,350 102 240 -1152
2020-02-15 22:55:41 GMT 51.623062 5.451817 3,275 109 232 -832
2020-02-15 22:55:37 GMT 51.624245 5.445633 3,325 102 240 -1152
2020-02-15 22:55:34 GMT 51.624664 5.440979 3,375 93 250 -1152
2020-02-15 22:55:30 GMT 51.624802 5.430832 3,500 82 260 -1216
2020-02-15 22:55:27 GMT 51.624481 5.427914 3,550 77 264 -1088
2020-02-15 22:55:24 GMT 51.623547 5.421066 3,600 68 271 -896
2020-02-15 22:55:21 GMT 51.622147 5.415221 3,650 63 273 -768
2020-02-15 22:55:18 GMT 51.618622 5.405273 3,700 46 278 -896
2020-02-15 22:55:15 GMT 51.618622 5.405273 4,225 46 278 -896
2020-02-15 22:55:09 GMT 51.613220 5.395994 3,800 40 275 -1088
2020-02-15 22:55:06 GMT 51.610703 5.392654 3,825 38 274 -1088
2020-02-15 22:55:03 GMT 51.604340 5.385305 3,950 34 271 -1088
2020-02-15 22:55:00 GMT 51.604340 5.385305 3,975 34 271 -1024
2020-02-15 22:54:57 GMT 51.601433 5.382080 4,050 34 270 -960
2020-02-15 22:54:54 GMT 51.598454 5.378799 4,075 34 270 -960
2020-02-15 22:54:51 GMT 51.595753 5.375748 4,100 34 270 -960
2020-02-15 22:54:48 GMT 51.592075 5.371704 4,150 34 269 -1024
2020-02-15 22:54:45 GMT 51.588165 5.367432 4,250 34 267 -1600
2020-02-15 22:54:42 GMT 51.585159 5.364075 4,375 34 264 -1344
2020-02-15 22:54:39 GMT 51.582916 5.361625 4,400 34 264 -1472
2020-02-15 22:54:36 GMT 51.579460 5.357819 4,450 34 264 -1280
2020-02-15 22:54:33 GMT 51.575691 5.353775 4,525 33 268 -320
2020-02-15 22:54:30 GMT 51.573715 5.351604 4,525 33 267 -384
2020-02-15 22:54:27 GMT 51.570568 5.348206 4,550 33 269 -512
2020-02-15 22:54:24 GMT 51.566803 5.344181 4,600 33 269 -704
2020-02-15 22:54:21 GMT 51.561352 5.338287 4,800 34 270 -640
2020-02-15 22:54:15 GMT 51.558048 5.334702 4,700 34 272 -512
2020-02-15 22:54:12 GMT 51.554947 5.331338 4,700 34 276 -576
2020-02-15 22:54:09 GMT 51.551605 5.327701 4,750 34 276 -640
2020-02-15 22:54:06 GMT 51.545013 5.320575 4,800 34 278 -576
2020-02-15 22:54:00 GMT 51.542454 5.317764 4,825 34 280 -256
2020-02-15 22:53:57 GMT 51.538605 5.313597 4,825 34 282 -64
2020-02-15 22:53:54 GMT 51.536545 5.311370 4,825 34 287 -320
2020-02-15 22:53:51 GMT 51.532196 5.306545 4,850 34 289 -448
2020-02-15 22:53:45 GMT 51.525970 5.299790 4,900 34 298 -448
2020-02-15 22:53:41 GMT 51.521412 5.294800 4,950 34 297 -384
2020-02-15 22:53:38 GMT 51.518143 5.291179 4,950 33 301 -640
2020-02-15 22:53:35 GMT 51.511215 5.283966 5,000 30 304 -384
2020-02-15 22:53:32 GMT 51.511215 5.283966 5,000 29 305 -192
2020-02-15 22:53:29 GMT 51.504089 5.277372 5,000 28 307 0
2020-02-15 22:53:26 GMT 51.504089 5.277372 5,000 27 308 0
2020-02-15 22:53:23 GMT 51.499763 5.273666 5,000 26 312 -128
2020-02-15 22:53:20 GMT 51.495941 5.270691 5,025 25 314 -128
2020-02-15 22:53:16 GMT 51.490540 5.266534 5,025 25 322 -192
2020-02-15 22:53:13 GMT 51.486633 5.263443 5,050 25 324 -256
2020-02-15 22:53:10 GMT 51.483307 5.260892 5,050 25 326 -320
2020-02-15 22:53:07 GMT 51.478210 5.256958 5,075 26 332 -384
2020-02-15 22:53:04 GMT 51.474564 5.254063 5,100 26 336 -512
2020-02-15 22:53:01 GMT 51.470901 5.251160 5,100 26 342 -512
2020-02-15 22:52:58 GMT 51.465965 5.247269 5,150 26 342 -512
2020-02-15 22:52:55 GMT 51.453781 5.237509 5,200 26 351 -576
2020-02-15 22:52:50 GMT 51.453781 5.237509 5,200 26 355 -640
2020-02-15 22:52:47 GMT 51.445576 5.230942 5,275 26 363 -832
2020-02-15 22:52:44 GMT 51.440689 5.227117 5,300 26 364 -832
2020-02-15 22:52:41 GMT 51.440689 5.227117 5,350 26 370 -832
2020-02-15 22:52:38 GMT 51.436386 5.223776 5,375 26 373 -448
2020-02-15 22:52:35 GMT 51.431984 5.220337 5,400 25 379 -320
2020-02-15 22:52:32 GMT 51.427185 5.216576 5,400 25 383 -256
2020-02-15 22:52:29 GMT 51.423889 5.213978 5,400 25 384 -256
2020-02-15 22:52:26 GMT 51.417553 5.209122 5,425 25 386 -256
2020-02-15 22:52:23 GMT 51.413910 5.206332 5,425 25 389 -128
2020-02-15 22:52:20 GMT 51.404160 5.198834 5,450 25 390 0
2020-02-15 22:52:14 GMT 51.398232 5.194244 5,450 25 390 0
2020-02-15 22:52:11 GMT 51.392227 5.189590 5,450 25 389 0
2020-02-15 22:52:08 GMT 51.388733 5.186883 5,450 25 389 -256
2020-02-15 22:52:05 GMT 51.377930 5.178495 5,475 25 389 -576
2020-02-15 22:52:02 GMT 51.377930 5.178495 5,500 25 389 -832
2020-02-15 22:51:56 GMT 51.368626 5.171280 5,575 25 389 -896
2020-02-15 22:51:53 GMT 51.359081 5.163879 5,625 25 389 -832
2020-02-15 22:51:50 GMT 51.359081 5.163879 5,650 25 388 -832
2020-02-15 22:51:47 GMT 51.354053 5.160065 5,675 25 388 -768
2020-02-15 22:51:44 GMT 51.349400 5.156403 5,700 25 389 -704
2020-02-15 22:51:41 GMT 51.344467 5.152588 5,750 25 389 -576
2020-02-15 22:51:37 GMT 51.338791 5.148208 5,775 25 390 -512
2020-02-15 22:51:34 GMT 51.334038 5.144501 5,800 25 391 -512
2020-02-15 22:51:31 GMT 51.329147 5.140686 5,825 25 394 -512
2020-02-15 22:51:28 GMT 51.324215 5.136948 5,900 25 394 -960
2020-02-15 22:51:24 GMT 51.316910 5.131358 6,000 24 395 -1856
2020-02-15 22:51:21 GMT 51.312561 5.128166 6,100 24 396 -2304
2020-02-15 22:51:18 GMT 51.307175 5.124207 6,175 24 396 -2624
2020-02-15 22:51:15 GMT 51.302197 5.120544 6,325 24 397 -2880
2020-02-15 22:51:12 GMT 51.298416 5.117773 6,425 24 398 -2944
2020-02-15 22:51:09 GMT 51.292419 5.113393 6,550 24 399 -2880
2020-02-15 22:51:06 GMT 51.287201 5.109608 6,725 24 400 -3136
2020-02-15 22:51:03 GMT 51.277267 5.102407 7,075 24 402 -3392
2020-02-15 22:51:00 GMT 51.271317 5.098176 7,175 24 402 -3392
2020-02-15 22:50:57 GMT 51.266956 5.095062 7,325 23 403 -3328
2020-02-15 22:50:54 GMT 51.266956 5.095062 7,500 23 406 -3072
2020-02-15 22:50:51 GMT 51.261749 5.091347 7,650 23 408 -3072
2020-02-15 22:50:48 GMT 51.256668 5.087814 7,700 23 408 -3136
2020-02-15 22:50:45 GMT 51.246002 5.080360 8,075 23 411 -3520
2020-02-15 22:50:39 GMT 51.240097 5.076277 8,300 23 411 -3520
2020-02-15 22:50:33 GMT 51.229202 5.068588 8,675 24 414 -3712
2020-02-15 22:50:30 GMT 51.224316 5.065002 8,925 25 416 -3584
2020-02-15 22:50:27 GMT 51.218403 5.060577 9,050 25 416 -3584
2020-02-15 22:50:24 GMT 51.214073 5.057220 9,150 26 418 -3520
2020-02-15 22:50:21 GMT 51.209557 5.053635 9,450 26 419 -3968
2020-02-15 22:50:18 GMT 51.204529 5.049667 9,475 26 419 -4160
2020-02-15 22:50:15 GMT 51.198898 5.045323 9,775 26 418 -4288
2020-02-15 22:50:12 GMT 51.194427 5.041809 9,950 26 419 -3712
2020-02-15 22:50:08 GMT 51.187408 5.036341 10,300 26 419 -3008
2020-02-15 22:50:05 GMT 51.182007 5.032109 10,375 26 419 -2944
2020-02-15 22:50:02 GMT 51.176422 5.027804 10,450 26 420 -2752
2020-02-15 22:49:59 GMT 51.169895 5.022659 10,650 26 422 -2368
2020-02-15 22:49:56 GMT 51.161003 5.015564 10,800 26 422 -2624
2020-02-15 22:49:53 GMT 51.161003 5.015564 10,900 26 422 -3072
2020-02-15 22:49:50 GMT 51.154449 5.010359 11,025 26 422 -3136
2020-02-15 22:49:47 GMT 51.150970 5.007539 11,250 26 423 -3136
2020-02-15 22:49:44 GMT 51.144058 5.001984 11,300 26 422 -3072
2020-02-15 22:49:41 GMT 51.139729 4.998474 11,525 26 423 -3200
2020-02-15 22:49:38 GMT 51.135269 4.994919 11,650 26 423 -3264
2020-02-15 22:49:35 GMT 51.128448 4.989426 11,850 26 423 -3200
2020-02-15 22:49:31 GMT 51.122272 4.984436 12,050 26 423 -3072
2020-02-15 22:49:28 GMT 51.117828 4.980815 12,175 26 423 -2880
2020-02-15 22:49:25 GMT 51.111740 4.975842 12,350 26 425 -2624
2020-02-15 22:49:22 GMT 51.107609 4.972534 12,625 26 425 -2624
2020-02-15 22:49:19 GMT 51.100479 4.966860 12,525 26 426 -2624
2020-02-15 22:49:16 GMT 51.096340 4.963531 12,675 26 427 -2688
2020-02-15 22:49:13 GMT 51.086014 4.955354 12,975 26 430 -2752
2020-02-15 22:49:10 GMT 51.080292 4.950825 13,100 26 431 -2752
2020-02-15 22:49:07 GMT 51.080292 4.950825 13,300 26 432 -2560
2020-02-15 22:49:04 GMT 51.073517 4.945481 13,325 26 432 -2496
2020-02-15 22:49:01 GMT 51.070038 4.942703 13,350 26 433 -2432
2020-02-15 22:48:58 GMT 51.064686 4.938431 13,450 27 433 -2496
2020-02-15 22:48:55 GMT 51.058262 4.933167 13,650 29 435 -2816
2020-02-15 22:48:52 GMT 51.051727 4.927145 13,725 31 437 -2880
2020-02-15 22:48:49 GMT 51.048206 4.923553 13,900 33 441 -2816
2020-02-15 22:48:46 GMT 51.043785 4.918900 14,000 34 443 -2752
2020-02-15 22:48:43 GMT 51.037685 4.912338 14,200 34 444 -2688
2020-02-15 22:48:40 GMT 51.031631 4.905841 14,425 34 445 -2624
2020-02-15 22:48:37 GMT 51.026367 4.900199 14,475 34 447 -2496
2020-02-15 22:48:34 GMT 51.022881 4.896469 14,525 34 447 -2496
2020-02-15 22:48:31 GMT 51.017120 4.890252 15,175 34 449 -2880
2020-02-15 22:48:28 GMT 51.012081 4.884796 14,975 34 450 -2944
2020-02-15 22:48:25 GMT 51.007507 4.879934 15,000 34 452 -2944
2020-02-15 22:48:22 GMT 51.002335 4.874367 15,125 34 452 -3008
2020-02-15 22:48:19 GMT 50.997482 4.869170 15,200 33 453 -3072
2020-02-15 22:48:16 GMT 50.991394 4.862712 15,575 33 457 -3392
2020-02-15 22:48:10 GMT 50.981636 4.852448 15,850 33 459 -3008
2020-02-15 22:48:07 GMT 50.975922 4.846381 15,950 33 458 -3456
2020-02-15 22:48:04 GMT 50.969627 4.839783 16,125 33 458 -3776
2020-02-15 22:48:01 GMT 50.965302 4.835246 16,350 33 457 -4160
2020-02-15 22:47:58 GMT 50.960644 4.830322 16,475 33 456 -4224
2020-02-15 22:47:55 GMT 50.954311 4.823685 16,775 33 455 -4096
2020-02-15 22:47:52 GMT 50.949692 4.818767 17,125 33 454 -3904
2020-02-15 22:47:49 GMT 50.943138 4.811859 17,200 33 454 -4160
2020-02-15 22:47:45 GMT 50.935970 4.804230 17,500 34 452 -4672
2020-02-15 22:47:42 GMT 50.931129 4.799042 17,625 35 494 -3456
2020-02-15 22:47:39 GMT 50.926983 4.794617 17,825 34 452 -4544
2020-02-15 22:47:36 GMT 50.920990 4.788183 18,150 35 453 -4480
2020-02-15 22:47:33 GMT 50.911484 4.777527 18,450 36 455 -4224
2020-02-15 22:47:30 GMT 50.911484 4.777527 18,550 37 455 -4224
2020-02-15 22:47:27 GMT 50.906593 4.771729 18,675 38 457 -3968
2020-02-15 22:47:24 GMT 50.901535 4.765394 18,975 39 458 -3904
2020-02-15 22:47:21 GMT 50.895813 4.757971 19,175 40 459 -3840
2020-02-15 22:47:18 GMT 50.891785 4.752478 19,325 34 507 -2176
2020-02-15 22:47:15 GMT 50.881504 4.737778 19,575 41 467 -3200
2020-02-15 22:47:12 GMT 50.881504 4.737778 19,675 41 468 -3136
2020-02-15 22:47:09 GMT 50.876862 4.731322 20,400 39 469 -3328
2020-02-15 22:47:06 GMT 50.873428 4.726719 20,050 38 470 -3456
2020-02-15 22:47:03 GMT 50.868095 4.719925 20,225 35 469 -3584
2020-02-15 22:47:00 GMT 50.862167 4.712838 20,450 35 473 -3648
2020-02-15 22:46:57 GMT 50.857544 4.707642 20,500 35 469 -3456
2020-02-15 22:46:54 GMT 50.845005 4.693680 20,825 35 473 -3584
2020-02-15 22:46:51 GMT 50.841339 4.689603 21,025 35 474 -3712
2020-02-15 22:46:48 GMT 50.835251 4.682774 21,400 35 477 -3392
2020-02-15 22:46:45 GMT 50.835251 4.682774 21,300 35 480 -2880
2020-02-15 22:46:42 GMT 50.830109 4.677048 21,400 35 481 -2624
2020-02-15 22:46:39 GMT 50.824474 4.670792 21,475 35 484 -2304
2020-02-15 22:46:36 GMT 50.819641 4.665329 21,625 35 487 -2624
2020-02-15 22:46:33 GMT 50.812500 4.657312 21,850 35 491 -3392
2020-02-15 22:46:30 GMT 50.800873 4.644248 22,650 34 499 -3072
2020-02-15 22:46:24 GMT 50.793705 4.636307 22,300 35 495 -3840
2020-02-15 22:46:21 GMT 50.791100 4.633331 22,625 35 496 -3840
2020-02-15 22:46:18 GMT 50.784073 4.625541 22,725 35 498 -3200
2020-02-15 22:46:14 GMT 50.776749 4.617450 22,775 35 498 -3200
2020-02-15 22:46:11 GMT 50.770523 4.610546 23,000 34 499 -3072
2020-02-15 22:46:08 GMT 50.760746 4.599838 23,300 34 501 -3200
2020-02-15 22:46:05 GMT 50.755997 4.594574 23,400 34 501 -3392
2020-02-15 22:45:59 GMT 50.749760 4.587708 23,775 34 502 -3520
2020-02-15 22:45:56 GMT 50.744221 4.581604 23,850 34 503 -3264
2020-02-15 22:45:53 GMT 50.737564 4.574280 23,975 34 503 -3264
2020-02-15 22:45:50 GMT 50.731464 4.567566 24,225 34 504 -3584
2020-02-15 22:45:47 GMT 50.720573 4.555664 24,425 34 504 -4032
2020-02-15 22:45:44 GMT 50.720573 4.555664 24,575 34 504 -3712
2020-02-15 22:45:41 GMT 50.713394 4.547746 25,000 34 506 -3072
2020-02-15 22:45:38 GMT 50.709732 4.543737 24,925 34 506 -3072
2020-02-15 22:45:35 GMT 50.704559 4.538022 25,075 34 507 -2496
2020-02-15 22:45:32 GMT 50.698551 4.531403 25,175 34 507 -1664
2020-02-15 22:45:29 GMT 50.686214 4.517899 25,250 34 508 -640
2020-02-15 22:45:26 GMT 50.686214 4.517899 25,275 34 507 -576
2020-02-15 22:45:23 GMT 50.679199 4.510185 25,325 34 507 -576
2020-02-15 22:45:20 GMT 50.675354 4.505953 25,350 34 507 -512
2020-02-15 22:45:17 GMT 50.667847 4.497745 25,375 34 507 -448
2020-02-15 22:45:14 GMT 50.663918 4.493408 25,400 34 507 -512
2020-02-15 22:45:11 GMT 50.658051 4.486975 25,425 34 507 -512
2020-02-15 22:45:08 GMT 50.650360 4.478591 25,475 34 505 -576
2020-02-15 22:45:05 GMT 50.645737 4.473532 25,500 34 506 -576
2020-02-15 22:44:59 GMT 50.629375 4.455476 25,550 34 507 -512
2020-02-15 22:44:53 GMT 50.622345 4.447800 25,600 35 509 -640
2020-02-15 22:44:50 GMT 50.611954 4.436308 25,625 35 511 -640
2020-02-15 22:44:47 GMT 50.611954 4.436308 25,650 34 512 -640
2020-02-15 22:44:44 GMT 50.604950 4.428647 25,675 35 514 -640
2020-02-15 22:44:41 GMT 50.599136 4.422214 25,725 35 515 -704
2020-02-15 22:44:38 GMT 50.594135 4.416727 25,750 34 518 -768
2020-02-15 22:44:35 GMT 50.587601 4.409493 25,775 34 520 -768
2020-02-15 22:44:32 GMT 50.582775 4.404256 25,800 34 520 -704
2020-02-15 22:44:29 GMT 50.570488 4.390820 25,875 34 524 -768
2020-02-15 22:44:26 GMT 50.564621 4.384412 25,925 34 529 -384
2020-02-15 22:44:23 GMT 50.564621 4.384412 25,925 34 528 -512
2020-02-15 22:44:20 GMT 50.558212 4.377401 25,975 34 529 -320
2020-02-15 22:44:17 GMT 50.552284 4.371000 25,975 34 529 -192
2020-02-15 22:44:14 GMT 50.540417 4.358083 26,000 34 528 -128
2020-02-15 22:44:11 GMT 50.540417 4.358083 26,000 34 528 -64
2020-02-15 22:44:08 GMT 50.535095 4.352321 26,000 34 528 0
2020-02-15 22:44:05 GMT 50.530060 4.346900 26,000 34 528 0
2020-02-15 22:44:02 GMT 50.521515 4.337595 26,000 34 528 64
2020-02-15 22:43:59 GMT 50.515411 4.330998 26,000 34 528 64
2020-02-15 22:43:56 GMT 50.504379 4.319000 26,000 34 528 -64
2020-02-15 22:43:50 GMT 50.498749 4.312929 26,000 34 528 -64
2020-02-15 22:43:47 GMT 50.484596 4.297659 26,000 34 527 64
2020-02-15 22:43:44 GMT 50.484596 4.297659 26,000 34 527 64
2020-02-15 22:43:41 GMT 50.479385 4.292017 26,000 34 527 64
2020-02-15 22:43:38 GMT 50.474171 4.286301 26,000 34 527 0
2020-02-15 22:43:35 GMT 50.467621 4.279319 26,000 34 527 0
2020-02-15 22:43:32 GMT 50.463409 4.274766 26,000 34 526 -64
2020-02-15 22:43:29 GMT 50.454208 4.264791 26,000 34 526 -64
2020-02-15 22:43:25 GMT 50.447495 4.257499 26,000 34 526 0
2020-02-15 22:43:22 GMT 50.442699 4.252303 26,000 34 526 0
2020-02-15 22:43:19 GMT 50.435852 4.244770 26,000 34 526 0
2020-02-15 22:43:16 GMT 50.430923 4.239461 26,000 34 526 0
2020-02-15 22:43:13 GMT 50.422852 4.230676 26,000 34 525 0
2020-02-15 22:43:10 GMT 50.416958 4.224243 26,000 34 525 0
2020-02-15 22:43:07 GMT 50.410904 4.217666 26,000 34 525 64
2020-02-15 22:43:04 GMT 50.406811 4.213183 26,000 34 525 0
2020-02-15 22:43:01 GMT 50.400925 4.206824 26,000 34 525 64
2020-02-15 22:42:58 GMT 50.394054 4.199301 26,000 34 525 0
2020-02-15 22:42:55 GMT 50.389072 4.193957 26,000 34 525 0
2020-02-15 22:42:52 GMT 50.382385 4.186658 26,000 34 525 0
2020-02-15 22:42:49 GMT 50.374008 4.177624 26,000 34 525 0
2020-02-15 22:42:46 GMT 50.370987 4.174371 26,000 34 526 0
2020-02-15 22:42:43 GMT 50.364212 4.166999 25,975 34 525 0
2020-02-15 22:42:40 GMT 50.357025 4.159265 25,975 34 525 0
2020-02-15 22:42:37 GMT 50.352814 4.154711 25,975 34 526 0
2020-02-15 22:42:34 GMT 50.346523 4.147933 26,000 34 526 0
2020-02-15 22:42:31 GMT 50.340637 4.141557 26,000 34 526 0
2020-02-15 22:42:28 GMT 50.334869 4.135341 26,000 34 526 0
2020-02-15 22:42:25 GMT 50.328278 4.128185 26,000 34 525 0
2020-02-15 22:42:22 GMT 50.315872 4.114886 26,000 34 525 0
2020-02-15 22:42:19 GMT 50.315872 4.114886 26,000 34 525 0
2020-02-15 22:42:16 GMT 50.303467 4.101587 26,000 34 525 0
2020-02-15 22:42:13 GMT 50.303467 4.101587 26,000 34 526 0
2020-02-15 22:42:10 GMT 50.298248 4.095949 26,000 34 526 0
2020-02-15 22:42:07 GMT 50.292568 4.089809 26,000 34 526 0
2020-02-15 22:42:04 GMT 50.287857 4.084746 26,000 34 526 0
2020-02-15 22:42:01 GMT 50.279251 4.075494 26,000 34 526 0
2020-02-15 22:41:58 GMT 50.275345 4.071325 26,000 34 526 0
2020-02-15 22:41:55 GMT 50.268631 4.064074 26,000 34 526 0
2020-02-15 22:41:52 GMT 50.260849 4.055690 26,000 34 526 0
2020-02-15 22:41:48 GMT 50.254536 4.048907 26,000 34 526 -64
2020-02-15 22:41:45 GMT 50.247742 4.041558 26,000 34 526 -64
2020-02-15 22:41:42 GMT 50.234024 4.026851 26,000 34 526 0
2020-02-15 22:41:39 GMT 50.234024 4.026851 26,000 34 526 0
2020-02-15 22:41:36 GMT 50.230099 4.022629 26,000 34 527 0
2020-02-15 22:41:33 GMT 50.225906 4.018101 26,000 34 527 -64
2020-02-15 22:41:30 GMT 50.218693 4.010307 26,000 34 527 0
2020-02-15 22:41:27 GMT 50.212269 4.003403 26,000 34 527 0
2020-02-15 22:41:24 GMT 50.206867 3.997613 25,975 34 528 0
2020-02-15 22:41:21 GMT 50.198673 3.988779 26,000 34 527 64
2020-02-15 22:41:18 GMT 50.193329 3.983050 26,000 34 528 0
2020-02-15 22:41:15 GMT 50.187038 3.976308 26,000 34 529 0
2020-02-15 22:41:12 GMT 50.180195 3.968959 26,000 34 529 0
2020-02-15 22:41:06 GMT 50.169907 3.957973 26,000 34 529 0
2020-02-15 22:41:03 GMT 50.164085 3.951663 26,000 34 529 0
2020-02-15 22:41:00 GMT 50.153008 3.939861 26,000 34 529 64
2020-02-15 22:40:57 GMT 50.145744 3.932066 26,000 34 529 0
2020-02-15 22:40:54 GMT 50.145744 3.932066 26,000 34 529 0
2020-02-15 22:40:51 GMT 50.138809 3.924649 26,000 34 530 0
2020-02-15 22:40:48 GMT 50.133957 3.919445 26,000 34 530 0
2020-02-15 22:40:45 GMT 50.127914 3.913012 26,000 34 530 0
2020-02-15 22:40:42 GMT 50.121956 3.906679 26,000 34 530 0
2020-02-15 22:40:39 GMT 50.115601 3.899857 26,000 34 529 -64
2020-02-15 22:40:36 GMT 50.109375 3.893208 26,000 34 529 -64
2020-02-15 22:40:33 GMT 50.104111 3.887642 26,000 34 529 -64
2020-02-15 22:40:29 GMT 50.094353 3.877135 26,000 34 529 -64
2020-02-15 22:40:23 GMT 50.084064 3.866222 26,000 34 528 -64
2020-02-15 22:40:20 GMT 50.076195 3.857834 26,000 34 528 -64
2020-02-15 22:40:16 GMT 50.068375 3.849446 26,000 34 528 0
2020-02-15 22:40:10 GMT 50.058086 3.838534 26,000 34 529 64
2020-02-15 22:40:07 GMT 50.051010 3.831037 26,000 34 529 0
2020-02-15 22:40:04 GMT 50.045563 3.825246 26,000 34 529 0
2020-02-15 22:40:01 GMT 50.038303 3.817526 26,000 34 529 0
2020-02-15 22:39:58 GMT 50.033691 3.812627 26,000 34 529 0
2020-02-15 22:39:55 GMT 50.026703 3.805173 26,000 34 529 0
2020-02-15 22:39:52 GMT 50.022263 3.800474 26,000 34 529 0
2020-02-15 22:39:49 GMT 50.015213 3.792958 26,000 34 529 0
2020-02-15 22:39:46 GMT 50.008530 3.785946 26,000 34 529 0
2020-02-15 22:39:43 GMT 50.002598 3.779594 26,000 34 530 0
2020-02-15 22:39:40 GMT 49.995209 3.771780 26,000 34 530 0
2020-02-15 22:39:37 GMT 49.990261 3.766529 26,000 34 530 0
2020-02-15 22:39:33 GMT 49.983673 3.759637 26,000 34 530 0
2020-02-15 22:39:30 GMT 49.976482 3.751980 26,000 34 530 0
2020-02-15 22:39:27 GMT 49.969406 3.744556 26,000 34 529 0
2020-02-15 22:39:24 GMT 49.958885 3.733422 26,000 34 530 0
2020-02-15 22:39:18 GMT 49.951309 3.725377 26,000 34 529 0
2020-02-15 22:39:15 GMT 49.943893 3.717610 26,000 34 529 0
2020-02-15 22:39:12 GMT 49.939774 3.713234 26,000 34 530 0
2020-02-15 22:39:08 GMT 49.926178 3.698923 26,000 34 529 -64
2020-02-15 22:39:05 GMT 49.920135 3.692490 26,000 34 529 64
2020-02-15 22:39:02 GMT 49.920135 3.692490 26,000 34 530 0
2020-02-15 22:38:57 GMT 49.902184 3.673665 26,000 34 530 0
2020-02-15 22:38:54 GMT 49.902184 3.673665 26,000 34 530 0
2020-02-15 22:38:50 GMT 49.887611 3.658299 26,000 34 530 0
2020-02-15 22:38:44 GMT 49.884659 3.655267 26,000 34 530 0
2020-02-15 22:38:41 GMT 49.877651 3.647906 26,000 34 530 0
2020-02-15 22:38:38 GMT 49.872623 3.642562 26,000 34 530 64
2020-02-15 22:38:35 GMT 49.866711 3.636400 26,000 34 530 0
2020-02-15 22:38:32 GMT 49.858337 3.627584 26,000 34 530 0
2020-02-15 22:38:28 GMT 49.842911 3.611394 26,000 34 530 0
2020-02-15 22:38:25 GMT 49.842911 3.611394 26,000 34 530 0
2020-02-15 22:38:18 GMT 49.830551 3.598456 26,000 34 530 0
2020-02-15 22:38:15 GMT 49.824463 3.592096 26,000 34 530 0
2020-02-15 22:38:12 GMT 49.817596 3.584868 26,000 34 530 64
2020-02-15 22:38:09 GMT 49.806427 3.573159 26,000 34 530 0
2020-02-15 22:38:06 GMT 49.806427 3.573159 26,000 34 530 -64
2020-02-15 22:38:03 GMT 49.798325 3.564702 26,000 34 530 0
2020-02-15 22:37:57 GMT 49.786789 3.552559 26,000 34 530 0
2020-02-15 22:37:54 GMT 49.781612 3.547174 26,000 34 530 0
2020-02-15 22:37:51 GMT 49.775932 3.541235 26,000 34 530 0
2020-02-15 22:37:48 GMT 49.769943 3.534923 26,000 34 530 0
2020-02-15 22:37:44 GMT 49.755264 3.519559 26,000 34 530 0
2020-02-15 22:37:40 GMT 49.755264 3.519559 26,000 34 531 -64
2020-02-15 22:37:37 GMT 49.747421 3.511361 26,000 34 531 0
2020-02-15 22:37:34 GMT 49.741440 3.505084 26,000 34 531 0
2020-02-15 22:37:31 GMT 49.733150 3.496325 26,000 34 531 64
2020-02-15 22:37:28 GMT 49.729286 3.492316 26,000 34 531 0
2020-02-15 22:37:25 GMT 49.722702 3.485340 26,000 34 531 0
2020-02-15 22:37:22 GMT 49.717510 3.479919 26,000 34 531 0
2020-02-15 22:37:19 GMT 49.710388 3.472496 26,000 34 531 0
2020-02-15 22:37:15 GMT 49.703018 3.464741 26,000 34 531 0
2020-02-15 22:37:12 GMT 49.695396 3.456759 26,000 34 531 0
2020-02-15 22:37:08 GMT 49.687904 3.448890 26,000 34 531 0
2020-02-15 22:37:04 GMT 49.679569 3.440205 26,000 34 531 -64
2020-02-15 22:36:56 GMT 49.662907 3.422761 26,000 34 531 0
2020-02-15 22:36:53 GMT 49.657040 3.416600 26,000 34 531 0
2020-02-15 22:36:50 GMT 49.650520 3.409770 26,000 34 531 0
2020-02-15 22:36:47 GMT 49.646660 3.405762 26,000 34 531 0
2020-02-15 22:36:44 GMT 49.640671 3.399546 26,000 34 531 0
2020-02-15 22:36:41 GMT 49.632462 3.390915 26,000 33 531 0
2020-02-15 22:36:37 GMT 49.624313 3.382453 26,000 34 531 0
2020-02-15 22:36:34 GMT 49.620075 3.377999 26,000 34 532 0
2020-02-15 22:36:31 GMT 49.613327 3.371021 26,000 34 532 0
2020-02-15 22:36:28 GMT 49.605412 3.362781 26,000 34 532 0
2020-02-15 22:36:25 GMT 49.600021 3.357191 26,000 34 532 0
2020-02-15 22:36:21 GMT 49.587677 3.344372 26,000 33 531 0
2020-02-15 22:36:18 GMT 49.587677 3.344372 26,000 34 532 0
2020-02-15 22:36:15 GMT 49.581577 3.338062 26,000 33 531 0
2020-02-15 22:36:12 GMT 49.573246 3.329377 26,000 33 531 64
2020-02-15 22:36:09 GMT 49.568024 3.324015 26,000 33 531 0
2020-02-15 22:36:06 GMT 49.562862 3.318613 26,000 33 531 -64
2020-02-15 22:36:03 GMT 49.554794 3.310282 26,000 33 531 0
2020-02-15 22:36:00 GMT 49.539448 3.294340 26,000 33 531 0
2020-02-15 22:35:56 GMT 49.539448 3.294340 26,000 33 531 64
2020-02-15 22:35:52 GMT 49.533302 3.288030 26,000 33 531 128
2020-02-15 22:35:49 GMT 49.527020 3.281497 25,975 33 531 -64
2020-02-15 22:35:46 GMT 49.521835 3.276094 26,000 33 531 -64
2020-02-15 22:35:43 GMT 49.516823 3.270957 25,975 33 531 64
2020-02-15 22:35:39 GMT 49.506912 3.260771 26,000 33 531 64
2020-02-15 22:35:36 GMT 49.501419 3.255061 26,000 33 531 64
2020-02-15 22:35:33 GMT 49.495331 3.248701 26,000 33 531 -64
2020-02-15 22:35:30 GMT 49.488705 3.241858 26,000 33 531 0
2020-02-15 22:35:26 GMT 49.481537 3.234509 26,000 33 531 0
2020-02-15 22:35:23 GMT 49.475967 3.228752 26,000 33 531 0
2020-02-15 22:35:20 GMT 49.470016 3.222608 26,000 33 531 -64
2020-02-15 22:35:17 GMT 49.463333 3.215669 26,000 33 531 -128
2020-02-15 22:35:14 GMT 49.456375 3.208514 26,000 33 531 -64
2020-02-15 22:35:11 GMT 49.451111 3.203093 26,000 33 531 0
2020-02-15 22:35:08 GMT 49.443787 3.195504 26,000 33 531 64
2020-02-15 22:35:05 GMT 49.437546 3.189079 26,000 33 531 0
2020-02-15 22:35:02 GMT 49.432159 3.183578 26,000 33 531 64
2020-02-15 22:34:59 GMT 49.426666 3.177936 26,000 33 530 64
2020-02-15 22:34:56 GMT 49.419525 3.170612 26,000 33 530 0
2020-02-15 22:34:53 GMT 49.412918 3.163773 26,000 33 530 0
2020-02-15 22:34:49 GMT 49.403561 3.154160 26,000 33 530 0
2020-02-15 22:34:45 GMT 49.395721 3.146104 26,000 33 530 0
2020-02-15 22:34:42 GMT 49.389175 3.139484 26,000 33 530 0
2020-02-15 22:34:39 GMT 49.385330 3.135470 26,000 33 530 0
2020-02-15 22:34:36 GMT 49.378284 3.128285 26,000 33 530 0
2020-02-15 22:34:33 GMT 49.373108 3.123005 26,000 33 530 0
2020-02-15 22:34:30 GMT 49.359756 3.109348 26,000 33 530 0
2020-02-15 22:34:27 GMT 49.359756 3.109348 26,000 33 530 0
2020-02-15 22:34:23 GMT 49.351913 3.101314 26,000 33 530 0
2020-02-15 22:34:19 GMT 49.338528 3.087736 26,000 33 530 0
2020-02-15 22:34:16 GMT 49.338528 3.087736 26,000 33 530 0
2020-02-15 22:34:13 GMT 49.332321 3.081383 26,000 33 530 0
2020-02-15 22:34:10 GMT 49.320099 3.068918 26,000 33 530 0
2020-02-15 22:34:07 GMT 49.320099 3.068918 26,000 33 530 0
2020-02-15 22:34:04 GMT 49.313782 3.062509 26,000 33 528 0
2020-02-15 22:34:01 GMT 49.308517 3.057157 26,000 33 528 0
2020-02-15 22:33:58 GMT 49.303520 3.052031 26,000 33 528 0
2020-02-15 22:33:55 GMT 49.295471 3.043847 26,000 33 528 0
2020-02-15 22:33:52 GMT 49.288788 3.037015 26,000 33 528 0
2020-02-15 22:33:49 GMT 49.282387 3.030492 26,000 33 527 0
2020-02-15 22:33:46 GMT 49.278030 3.026029 26,000 33 527 0
2020-02-15 22:33:43 GMT 49.265625 3.013423 26,000 33 528 0
2020-02-15 22:33:37 GMT 49.260460 3.008158 26,000 33 527 0
2020-02-15 22:33:34 GMT 49.253757 3.001291 26,000 33 526 0
2020-02-15 22:33:31 GMT 49.247818 2.995183 26,000 33 526 0
2020-02-15 22:33:28 GMT 49.235184 2.982210 26,000 33 526 0
2020-02-15 22:33:25 GMT 49.229416 2.976379 26,000 33 526 0
2020-02-15 22:33:22 GMT 49.229416 2.976379 26,000 33 526 0
2020-02-15 22:33:19 GMT 49.222427 2.969200 26,000 33 526 0
2020-02-15 22:33:16 GMT 49.217167 2.963851 26,000 33 526 0
2020-02-15 22:33:13 GMT 49.211117 2.957635 26,000 33 526 0
2020-02-15 22:33:10 GMT 49.205383 2.951731 26,000 33 526 0
2020-02-15 22:33:07 GMT 49.192356 2.938409 26,000 33 526 0
2020-02-15 22:33:04 GMT 49.185280 2.931181 26,000 33 526 0
2020-02-15 22:33:01 GMT 49.185280 2.931181 26,000 33 525 64
2020-02-15 22:32:55 GMT 49.168148 2.913690 26,000 33 525 0
2020-02-15 22:32:52 GMT 49.168148 2.913690 26,000 33 525 0
2020-02-15 22:32:49 GMT 49.157860 2.903209 26,000 33 525 0
2020-02-15 22:32:46 GMT 49.148361 2.893524 26,000 33 525 0
2020-02-15 22:32:43 GMT 49.148361 2.893524 26,000 33 525 64
2020-02-15 22:32:40 GMT 49.145233 2.890390 26,000 33 525 64
2020-02-15 22:32:37 GMT 49.136448 2.881454 26,000 33 525 0
2020-02-15 22:32:33 GMT 49.130081 2.874967 26,000 33 525 0
2020-02-15 22:32:30 GMT 49.125134 2.869961 26,000 33 525 0
2020-02-15 22:32:27 GMT 49.118179 2.862924 26,000 33 525 0
2020-02-15 22:32:24 GMT 49.111027 2.855650 26,000 33 524 0
2020-02-15 22:32:21 GMT 49.104744 2.849362 26,000 33 524 0
2020-02-15 22:32:18 GMT 49.099823 2.844332 26,000 33 524 0
2020-02-15 22:32:15 GMT 49.093849 2.838303 26,000 33 523 0
2020-02-15 22:32:12 GMT 49.086914 2.831304 26,000 33 523 -64
2020-02-15 22:32:09 GMT 49.079929 2.824209 26,000 33 523 -64
2020-02-15 22:32:06 GMT 49.068375 2.812500 26,000 33 522 0
2020-02-15 22:32:03 GMT 49.064850 2.808958 26,000 33 522 0
2020-02-15 22:31:57 GMT 49.057526 2.801514 26,000 33 522 0
2020-02-15 22:31:54 GMT 49.051395 2.795298 26,000 33 522 0
2020-02-15 22:31:48 GMT 49.039150 2.782866 26,000 33 522 64
2020-02-15 22:31:45 GMT 49.033287 2.777011 26,000 33 522 0
2020-02-15 22:31:42 GMT 49.021179 2.764681 26,000 33 522 0
2020-02-15 22:31:39 GMT 49.021179 2.764681 26,000 33 522 64
2020-02-15 22:31:36 GMT 49.016247 2.759737 25,975 33 521 64
2020-02-15 22:31:33 GMT 49.007904 2.751301 26,000 33 522 -64
2020-02-15 22:31:30 GMT 49.003693 2.747075 26,000 33 521 0
2020-02-15 22:31:27 GMT 48.997581 2.740872 26,000 33 521 0
2020-02-15 22:31:24 GMT 48.989944 2.733138 26,000 33 521 64
2020-02-15 22:31:21 GMT 48.984917 2.728079 26,000 33 521 64
2020-02-15 22:31:18 GMT 48.978607 2.721652 26,000 33 521 0
2020-02-15 22:31:15 GMT 48.966064 2.708997 26,000 33 522 0
2020-02-15 22:31:12 GMT 48.966064 2.708997 26,000 33 522 0
2020-02-15 22:31:09 GMT 48.960938 2.703834 26,000 33 521 0
2020-02-15 22:31:06 GMT 48.947769 2.690638 26,000 33 521 0
2020-02-15 22:31:03 GMT 48.947769 2.690638 26,000 33 521 -64
2020-02-15 22:31:00 GMT 48.943268 2.686087 26,000 33 521 -64
2020-02-15 22:30:57 GMT 48.937271 2.680030 26,000 33 520 0
2020-02-15 22:30:54 GMT 48.931229 2.673974 26,000 33 520 128
2020-02-15 22:30:50 GMT 48.922913 2.665558 25,975 33 520 -64
2020-02-15 22:30:47 GMT 48.911179 2.653762 25,975 33 520 64
2020-02-15 22:30:44 GMT 48.911179 2.653762 25,975 33 520 0
2020-02-15 22:30:41 GMT 48.904846 2.647416 25,975 33 520 0
2020-02-15 22:30:38 GMT 48.898727 2.641296 25,975 33 520 -64
2020-02-15 22:30:35 GMT 48.891998 2.634550 25,975 33 520 64
2020-02-15 22:30:32 GMT 48.887203 2.629708 26,000 33 520 -64
2020-02-15 22:30:29 GMT 48.875336 2.617854 26,000 33 520 -64
2020-02-15 22:30:23 GMT 48.868351 2.610771 26,000 33 520 -64
2020-02-15 22:30:20 GMT 48.860298 2.602748 26,000 33 519 0
2020-02-15 22:30:16 GMT 48.847000 2.589463 26,000 33 519 64
2020-02-15 22:30:10 GMT 48.843201 2.585660 26,000 33 519 64
2020-02-15 22:30:07 GMT 48.830460 2.572897 26,000 33 519 0
2020-02-15 22:30:04 GMT 48.830460 2.572897 26,000 33 519 0
2020-02-15 22:30:01 GMT 48.825432 2.567910 26,000 33 519 64
2020-02-15 22:29:58 GMT 48.817051 2.559525 26,000 33 520 0
2020-02-15 22:29:55 GMT 48.812813 2.555261 26,000 33 520 64
2020-02-15 22:29:52 GMT 48.805599 2.548105 26,000 33 520 64
2020-02-15 22:29:49 GMT 48.795868 2.538335 26,000 33 519 64
2020-02-15 22:29:43 GMT 48.789726 2.532276 25,975 33 520 0
2020-02-15 22:29:40 GMT 48.782410 2.524954 25,975 33 520 0
2020-02-15 22:29:37 GMT 48.774876 2.517459 26,000 33 520 0
2020-02-15 22:29:34 GMT 48.768768 2.511292 26,000 33 520 0
2020-02-15 22:29:30 GMT 48.761536 2.504108 26,000 33 520 -64
2020-02-15 22:29:27 GMT 48.755493 2.498122 26,000 33 520 -64
2020-02-15 22:29:24 GMT 48.751598 2.494258 26,000 33 520 0
2020-02-15 22:29:21 GMT 48.745129 2.487897 26,000 33 520 0
2020-02-15 22:29:18 GMT 48.738331 2.481103 26,000 33 520 0
2020-02-15 22:29:14 GMT 48.722946 2.465797 26,000 33 520 0
2020-02-15 22:29:11 GMT 48.722946 2.465797 26,000 33 520 0
2020-02-15 22:29:08 GMT 48.718033 2.460938 26,000 33 520 0
2020-02-15 22:29:05 GMT 48.709259 2.452275 26,000 33 520 0
2020-02-15 22:29:02 GMT 48.705460 2.448472 26,000 33 520 0
2020-02-15 22:28:59 GMT 48.700012 2.443120 26,000 33 520 0
2020-02-15 22:28:56 GMT 48.694016 2.437134 26,000 33 520 0
2020-02-15 22:28:53 GMT 48.688473 2.431592 26,000 33 520 0
2020-02-15 22:28:49 GMT 48.679630 2.422847 26,000 33 520 0
2020-02-15 22:28:46 GMT 48.673622 2.416848 26,000 33 520 0
2020-02-15 22:28:43 GMT 48.667152 2.410487 26,000 33 521 0
2020-02-15 22:28:39 GMT 48.660049 2.403400 26,000 33 520 0
2020-02-15 22:28:36 GMT 48.654491 2.397911 26,000 33 521 0
2020-02-15 22:28:33 GMT 48.648148 2.391639 26,000 33 521 64
2020-02-15 22:28:30 GMT 48.635468 2.379033 26,000 33 521 0
2020-02-15 22:28:27 GMT 48.629425 2.373047 26,000 33 521 0
2020-02-15 22:28:24 GMT 48.629425 2.373047 26,000 33 521 0
2020-02-15 22:28:21 GMT 48.623486 2.367192 26,000 33 521 -64
2020-02-15 22:28:18 GMT 48.610519 2.354314 26,000 33 521 -64
2020-02-15 22:28:12 GMT 48.606586 2.350424 26,000 33 521 -64
2020-02-15 22:28:09 GMT 48.599327 2.343268 26,000 33 522 0
2020-02-15 22:28:06 GMT 48.584106 2.328186 26,000 33 521 64
2020-02-15 22:28:02 GMT 48.584106 2.328186 26,000 33 521 64
2020-02-15 22:27:59 GMT 48.578144 2.322307 26,000 33 522 64
2020-02-15 22:27:56 GMT 48.572388 2.316636 26,000 33 522 0
2020-02-15 22:27:51 GMT 48.555862 2.300298 26,000 33 523 0
2020-02-15 22:27:48 GMT 48.555862 2.300298 26,000 33 522 0
2020-02-15 22:27:44 GMT 48.543835 2.288481 26,000 33 522 -64
2020-02-15 22:27:38 GMT 48.531418 2.276212 26,000 33 522 0
2020-02-15 22:27:35 GMT 48.531418 2.276212 26,000 33 522 0
2020-02-15 22:27:32 GMT 48.524052 2.268966 26,000 33 523 0
2020-02-15 22:27:29 GMT 48.517345 2.262389 26,000 33 523 0
2020-02-15 22:27:26 GMT 48.512604 2.257690 26,000 33 523 0
2020-02-15 22:27:23 GMT 48.505142 2.250366 26,000 33 523 0
2020-02-15 22:27:20 GMT 48.491776 2.237197 26,000 33 523 -64
2020-02-15 22:27:16 GMT 48.491776 2.237197 26,000 33 523 -64
2020-02-15 22:27:13 GMT 48.485504 2.231070 26,000 33 523 0
2020-02-15 22:27:10 GMT 48.479645 2.225295 26,000 33 523 0
2020-02-15 22:27:07 GMT 48.474609 2.220295 26,000 33 523 0
2020-02-15 22:27:03 GMT 48.466507 2.212337 26,000 33 523 0
2020-02-15 22:27:00 GMT 48.460236 2.206210 26,000 33 523 0
2020-02-15 22:26:57 GMT 48.454456 2.200518 26,000 33 517 0
2020-02-15 22:26:54 GMT 48.446541 2.192784 26,000 33 523 0
2020-02-15 22:26:51 GMT 48.443436 2.189730 26,000 33 523 0
2020-02-15 22:26:48 GMT 48.429428 2.175997 26,000 33 523 0
2020-02-15 22:26:42 GMT 48.418377 2.165174 26,000 33 523 0
2020-02-15 22:26:35 GMT 48.406040 2.153031 26,000 33 523 0
2020-02-15 22:26:32 GMT 48.402924 2.149940 26,000 33 523 0
2020-02-15 22:26:29 GMT 48.398438 2.145574 26,000 33 523 0
2020-02-15 22:26:26 GMT 48.392990 2.140221 26,000 33 523 0
2020-02-15 22:26:23 GMT 48.384998 2.132432 26,000 33 523 0
2020-02-15 22:26:20 GMT 48.378296 2.125854 26,000 32 523 0
2020-02-15 22:26:16 GMT 48.372009 2.119711 26,000 32 523 0
2020-02-15 22:26:13 GMT 48.356918 2.105009 26,000 32 523 0
2020-02-15 22:26:10 GMT 48.356918 2.105009 26,000 32 523 0
2020-02-15 22:26:07 GMT 48.351761 2.099979 26,000 32 523 0
2020-02-15 22:26:04 GMT 48.347809 2.096135 26,000 32 523 0
2020-02-15 22:26:01 GMT 48.339706 2.088247 26,000 32 523 0
2020-02-15 22:25:58 GMT 48.334538 2.083210 26,000 32 523 0
2020-02-15 22:25:55 GMT 48.328537 2.077332 26,000 33 522 0
2020-02-15 22:25:52 GMT 48.322388 2.071357 26,000 33 522 0
2020-02-15 22:25:49 GMT 48.316589 2.065711 26,000 33 522 0
2020-02-15 22:25:46 GMT 48.311401 2.060659 26,000 33 522 0
2020-02-15 22:25:43 GMT 48.304459 2.053880 26,000 33 522 0
2020-02-15 22:25:40 GMT 48.292778 2.042517 26,000 33 522 0
2020-02-15 22:25:34 GMT 48.286606 2.036555 26,000 33 522 0
2020-02-15 22:25:31 GMT 48.279606 2.029724 26,000 33 522 0
2020-02-15 22:25:27 GMT 48.271503 2.021846 26,000 33 522 0
2020-02-15 22:25:24 GMT 48.266373 2.016836 26,000 33 522 0
2020-02-15 22:25:21 GMT 48.259460 2.010075 26,000 33 522 0
2020-02-15 22:25:17 GMT 48.251587 2.002399 26,000 32 522 64
2020-02-15 22:25:14 GMT 48.245201 1.996259 26,000 32 522 64
2020-02-15 22:25:10 GMT 48.237030 1.988314 26,000 32 522 0
2020-02-15 22:25:07 GMT 48.226582 1.978190 25,975 33 521 0
2020-02-15 22:25:04 GMT 48.218903 1.970745 26,000 33 521 0
2020-02-15 22:25:01 GMT 48.218903 1.970745 26,000 33 521 -64
2020-02-15 22:24:57 GMT 48.210846 1.962867 26,000 32 519 -64
2020-02-15 22:24:54 GMT 48.206612 1.958747 26,000 33 518 0
2020-02-15 22:24:51 GMT 48.198372 1.950724 26,000 32 519 0
2020-02-15 22:24:48 GMT 48.191715 1.944291 26,000 32 518 0
2020-02-15 22:24:45 GMT 48.184685 1.937425 26,000 32 518 0
2020-02-15 22:24:42 GMT 48.180264 1.933160 26,000 32 518 0
2020-02-15 22:24:39 GMT 48.174442 1.927522 26,000 33 517 0
2020-02-15 22:24:36 GMT 48.168732 1.921974 26,000 33 517 0
2020-02-15 22:24:33 GMT 48.163101 1.916480 26,000 32 516 0
2020-02-15 22:24:30 GMT 48.156986 1.910565 26,000 32 517 0
2020-02-15 22:24:27 GMT 48.150749 1.904579 26,000 32 517 -64
2020-02-15 22:24:24 GMT 48.145432 1.899399 26,000 32 517 -64
2020-02-15 22:24:21 GMT 48.133709 1.888099 26,000 32 517 0
2020-02-15 22:24:18 GMT 48.126801 1.881409 26,000 32 517 0
2020-02-15 22:24:15 GMT 48.126801 1.881409 26,000 32 517 0
2020-02-15 22:24:12 GMT 48.121399 1.876190 26,000 32 517 0
2020-02-15 22:24:09 GMT 48.114990 1.869942 26,000 32 517 0
2020-02-15 22:24:06 GMT 48.108994 1.864105 26,000 32 517 0
2020-02-15 22:24:03 GMT 48.103081 1.858450 26,000 32 517 0
2020-02-15 22:24:00 GMT 48.098049 1.853591 26,000 32 516 0
2020-02-15 22:23:57 GMT 48.091022 1.846830 26,000 32 516 -64
2020-02-15 22:23:54 GMT 48.085144 1.841103 26,000 32 516 0
2020-02-15 22:23:51 GMT 48.077011 1.833308 26,000 32 516 0
2020-02-15 22:23:48 GMT 48.072876 1.829361 26,000 32 516 0
2020-02-15 22:23:45 GMT 48.065872 1.822563 26,000 32 516 0
2020-02-15 22:23:41 GMT 48.059052 1.816040 26,000 32 516 0
2020-02-15 22:23:38 GMT 48.053055 1.810204 26,000 32 517 0
2020-02-15 22:23:35 GMT 48.047123 1.804504 26,000 32 517 0
2020-02-15 22:23:31 GMT 48.038929 1.796546 26,000 32 517 0
2020-02-15 22:23:28 GMT 48.032085 1.789997 26,000 32 517 0
2020-02-15 22:23:25 GMT 48.024872 1.783025 26,000 32 517 0
2020-02-15 22:23:22 GMT 48.020683 1.779010 26,000 32 517 0
2020-02-15 22:23:19 GMT 48.012676 1.771264 26,000 32 517 0
2020-02-15 22:23:15 GMT 48.005413 1.764292 26,000 32 517 64
2020-02-15 22:23:12 GMT 48.000504 1.759598 26,000 32 516 64
2020-02-15 22:23:09 GMT 47.996010 1.755277 26,000 32 517 0
2020-02-15 22:23:06 GMT 47.988605 1.748094 26,000 32 517 0
2020-02-15 22:23:03 GMT 47.983578 1.743305 26,000 32 517 0
2020-02-15 22:23:00 GMT 47.977528 1.737460 26,000 32 517 0
2020-02-15 22:22:56 GMT 47.966995 1.727325 26,000 32 517 0
2020-02-15 22:22:53 GMT 47.957153 1.717918 26,000 32 517 0
2020-02-15 22:22:50 GMT 47.957153 1.717918 26,000 32 517 0
2020-02-15 22:22:46 GMT 47.945938 1.707069 26,000 32 517 0
2020-02-15 22:22:40 GMT 47.936188 1.697740 26,000 32 517 -64
2020-02-15 22:22:36 GMT 47.920990 1.683174 26,000 32 517 -64
2020-02-15 22:22:32 GMT 47.920990 1.683174 26,000 32 516 0
2020-02-15 22:22:29 GMT 47.908630 1.671401 26,000 32 516 0
2020-02-15 22:22:26 GMT 47.908630 1.671401 26,000 32 516 64
2020-02-15 22:22:23 GMT 47.900299 1.663399 26,000 32 516 64
2020-02-15 22:22:20 GMT 47.896454 1.659828 26,000 32 517 0
2020-02-15 22:22:17 GMT 47.890102 1.653724 26,000 32 517 0
2020-02-15 22:22:14 GMT 47.884888 1.648724 26,000 32 518 64
2020-02-15 22:22:11 GMT 47.877365 1.641563 26,000 32 518 0
2020-02-15 22:22:06 GMT 47.861519 1.626470 26,000 32 518 0
2020-02-15 22:22:03 GMT 47.856400 1.621582 26,000 32 518 0
2020-02-15 22:22:00 GMT 47.848206 1.613793 26,000 32 518 0
2020-02-15 22:21:56 GMT 47.848206 1.613793 26,000 32 519 0
2020-02-15 22:21:53 GMT 47.837036 1.603111 26,000 32 519 -64
2020-02-15 22:21:46 GMT 47.827209 1.593722 26,000 32 519 0
2020-02-15 22:21:43 GMT 47.821060 1.587868 26,000 32 519 0
2020-02-15 22:21:40 GMT 47.816025 1.583061 26,000 32 519 64
2020-02-15 22:21:35 GMT 47.804901 1.572487 26,000 32 519 0
2020-02-15 22:21:32 GMT 47.798954 1.566819 26,000 32 519 -64
2020-02-15 22:21:29 GMT 47.794903 1.563016 26,000 32 519 0
2020-02-15 22:21:26 GMT 47.779541 1.548438 26,000 32 519 0
2020-02-15 22:21:23 GMT 47.775490 1.544565 26,000 32 519 0
2020-02-15 22:21:20 GMT 47.768555 1.537949 26,000 32 519 -64
2020-02-15 22:21:17 GMT 47.768555 1.537949 26,000 32 519 0
2020-02-15 22:21:14 GMT 47.763203 1.532874 26,000 32 519 0
2020-02-15 22:21:10 GMT 47.750931 1.521263 26,000 32 519 0
2020-02-15 22:21:07 GMT 47.739319 1.510198 26,000 32 519 0
2020-02-15 22:21:02 GMT 47.739319 1.510198 26,000 32 519 0
2020-02-15 22:20:59 GMT 47.733948 1.505127 26,000 32 519 -64
2020-02-15 22:20:56 GMT 47.727776 1.499282 26,000 32 519 0
2020-02-15 22:20:53 GMT 47.718750 1.490776 26,000 32 519 0
2020-02-15 22:20:50 GMT 47.714310 1.486519 26,000 32 519 0
2020-02-15 22:20:47 GMT 47.706024 1.478691 26,000 32 520 0
2020-02-15 22:20:44 GMT 47.702450 1.475267 26,000 32 520 0
2020-02-15 22:20:41 GMT 47.697327 1.470383 26,000 32 520 0
2020-02-15 22:20:38 GMT 47.691238 1.464615 26,000 32 520 0
2020-02-15 22:20:35 GMT 47.682854 1.456674 26,000 32 519 -64
2020-02-15 22:20:32 GMT 47.670181 1.444702 26,000 32 519 0
2020-02-15 22:20:29 GMT 47.670181 1.444702 26,000 32 519 0
2020-02-15 22:20:24 GMT 47.655899 1.431181 26,000 32 520 0
2020-02-15 22:20:21 GMT 47.655899 1.431181 26,000 32 520 0
2020-02-15 22:20:18 GMT 47.649353 1.424927 26,000 32 521 0
2020-02-15 22:20:15 GMT 47.644169 1.419983 26,000 32 521 -64
2020-02-15 22:20:12 GMT 47.637093 1.413293 26,000 32 522 0
2020-02-15 22:20:09 GMT 47.632736 1.409134 26,000 32 522 0
2020-02-15 22:20:06 GMT 47.625412 1.402199 26,000 32 522 0
2020-02-15 22:20:02 GMT 47.615536 1.392869 26,000 32 522 0
2020-02-15 22:19:58 GMT 47.607391 1.385193 26,000 32 522 0
2020-02-15 22:19:53 GMT 47.599548 1.377823 26,000 32 522 0
2020-02-15 22:19:50 GMT 47.591400 1.370132 26,000 32 522 64
2020-02-15 22:19:47 GMT 47.586441 1.365474 26,000 32 522 0
2020-02-15 22:19:44 GMT 47.580345 1.359699 26,000 32 522 0
2020-02-15 22:19:41 GMT 47.573219 1.353009 26,000 32 522 0
2020-02-15 22:19:38 GMT 47.568420 1.348503 26,000 32 522 0
2020-02-15 22:19:35 GMT 47.558929 1.339628 26,000 32 522 0
2020-02-15 22:19:32 GMT 47.549881 1.331062 26,000 32 522 0
2020-02-15 22:19:26 GMT 47.543747 1.325294 26,000 32 522 0
2020-02-15 22:19:23 GMT 47.538666 1.320557 26,000 32 522 0
2020-02-15 22:19:20 GMT 47.531837 1.314134 26,000 32 522 0
2020-02-15 22:19:17 GMT 47.525436 1.308060 26,000 32 522 0
2020-02-15 22:19:14 GMT 47.519119 1.302155 26,000 32 522 0
2020-02-15 22:19:11 GMT 47.513309 1.296668 26,000 32 522 0
2020-02-15 22:19:08 GMT 47.508003 1.291739 26,000 32 522 0
2020-02-15 22:19:05 GMT 47.501671 1.285753 26,000 32 522 0
2020-02-15 22:19:02 GMT 47.489243 1.274132 26,000 32 522 0
2020-02-15 22:18:59 GMT 47.481216 1.266518 26,000 32 522 -64
2020-02-15 22:18:55 GMT 47.481216 1.266518 26,000 32 521 64
2020-02-15 22:18:51 GMT 47.472157 1.258005 26,000 32 521 64
2020-02-15 22:18:45 GMT 47.459728 1.246385 26,000 32 521 0
2020-02-15 22:18:42 GMT 47.453396 1.240469 26,000 32 521 0
2020-02-15 22:18:39 GMT 47.448212 1.235550 26,000 32 521 -64
2020-02-15 22:18:36 GMT 47.435520 1.223638 26,000 32 521 0
2020-02-15 22:18:33 GMT 47.435520 1.223638 26,000 32 521 0
2020-02-15 22:18:30 GMT 47.431236 1.219694 26,000 32 521 64
2020-02-15 22:18:27 GMT 47.423630 1.212547 26,000 32 521 64
2020-02-15 22:18:23 GMT 47.415970 1.205397 26,000 32 521 0
2020-02-15 22:18:20 GMT 47.409077 1.198989 26,000 32 521 0
2020-02-15 22:18:16 GMT 47.402435 1.192772 26,000 32 521 0
2020-02-15 22:18:13 GMT 47.395626 1.186453 26,000 32 521 0
2020-02-15 22:18:10 GMT 47.388130 1.179410 26,000 32 521 0
2020-02-15 22:18:06 GMT 47.380821 1.172579 26,000 32 521 0
2020-02-15 22:18:02 GMT 47.372589 1.164894 26,000 32 521 -64
2020-02-15 22:17:59 GMT 47.367180 1.159903 26,000 32 520 0
2020-02-15 22:17:56 GMT 47.361919 1.154973 26,000 32 520 -64
2020-02-15 22:17:53 GMT 47.354279 1.147865 26,000 32 520 -64
2020-02-15 22:17:50 GMT 47.343979 1.138184 26,000 32 518 -64
2020-02-15 22:17:47 GMT 47.343979 1.138184 26,000 32 518 0
2020-02-15 22:17:43 GMT 47.332314 1.127296 26,000 32 518 0
2020-02-15 22:17:39 GMT 47.327240 1.122577 26,000 32 518 64
2020-02-15 22:17:36 GMT 47.319260 1.115112 26,000 32 518 64
2020-02-15 22:17:31 GMT 47.305222 1.102013 26,000 32 518 0
2020-02-15 22:17:25 GMT 47.298019 1.095337 26,000 32 516 -64
2020-02-15 22:17:21 GMT 47.289963 1.087784 26,000 32 517 64
2020-02-15 22:17:17 GMT 47.276047 1.074875 26,000 32 516 64
2020-02-15 22:17:11 GMT 47.267944 1.067322 26,000 32 516 -64
2020-02-15 22:17:08 GMT 47.262726 1.062447 26,000 32 516 -64
2020-02-15 22:17:05 GMT 47.257412 1.057505 26,000 32 514 -64
2020-02-15 22:17:02 GMT 47.251877 1.052353 26,000 32 514 0
2020-02-15 22:16:59 GMT 47.245605 1.046585 26,000 32 514 64
2020-02-15 22:16:56 GMT 47.239380 1.040817 26,000 32 514 128
2020-02-15 22:16:53 GMT 47.234276 1.036025 26,000 32 514 128
2020-02-15 22:16:50 GMT 47.221191 1.023912 25,975 32 514 -64
2020-02-15 22:16:47 GMT 47.221191 1.023912 26,000 32 514 -192
2020-02-15 22:16:44 GMT 47.215607 1.018630 26,000 32 514 -128
2020-02-15 22:16:41 GMT 47.209259 1.012802 26,000 32 514 128
2020-02-15 22:16:38 GMT 47.194893 0.999474 26,000 32 514 64
2020-02-15 22:16:34 GMT 47.194893 0.999474 26,000 32 514 64
2020-02-15 22:16:31 GMT 47.189678 0.994685 26,000 32 514 0
2020-02-15 22:16:28 GMT 47.183762 0.989182 26,000 32 514 0
2020-02-15 22:16:25 GMT 47.170898 0.977234 26,000 32 514 -64
2020-02-15 22:16:22 GMT 47.170898 0.977234 26,000 32 514 0
2020-02-15 22:16:18 GMT 47.163563 0.970459 26,000 32 514 64
2020-02-15 22:16:15 GMT 47.157806 0.965149 26,000 32 514 64
2020-02-15 22:16:12 GMT 47.144577 0.952927 26,000 32 513 0
2020-02-15 22:16:06 GMT 47.138535 0.947365 26,000 32 513 0
2020-02-15 22:16:03 GMT 47.133957 0.943108 26,000 32 512 -64
2020-02-15 22:16:00 GMT 47.127319 0.936996 26,000 32 512 0
2020-02-15 22:15:57 GMT 47.122101 0.932190 26,000 32 511 0
2020-02-15 22:15:54 GMT 47.113983 0.924753 26,000 32 511 0
2020-02-15 22:15:49 GMT 47.105713 0.917084 26,000 32 510 0
2020-02-15 22:15:46 GMT 47.098248 0.910175 26,000 32 509 0
2020-02-15 22:15:43 GMT 47.092941 0.905273 26,000 32 509 0
2020-02-15 22:15:39 GMT 47.084793 0.897789 26,000 32 508 0
2020-02-15 22:15:35 GMT 47.077534 0.891090 26,000 32 508 64
2020-02-15 22:15:29 GMT 47.065804 0.880244 26,000 32 508 -64
2020-02-15 22:15:26 GMT 47.060635 0.875455 26,000 32 507 -64
2020-02-15 22:15:23 GMT 47.053574 0.869019 26,000 32 506 0
2020-02-15 22:15:20 GMT 47.046844 0.862770 26,000 32 506 0
2020-02-15 22:15:17 GMT 47.033867 0.850807 26,000 32 507 64
2020-02-15 22:15:13 GMT 47.033867 0.850807 25,975 32 506 64
2020-02-15 22:15:09 GMT 47.025116 0.842778 25,975 32 506 0
2020-02-15 22:15:06 GMT 47.021072 0.839012 26,000 32 506 -64
2020-02-15 22:15:03 GMT 47.013290 0.831871 26,000 32 506 0
2020-02-15 22:15:00 GMT 47.008163 0.827133 26,000 32 507 0
2020-02-15 22:14:56 GMT 46.998825 0.818619 26,000 32 507 -64
2020-02-15 22:14:53 GMT 46.993652 0.813812 26,000 32 507 0
2020-02-15 22:14:49 GMT 46.985916 0.806740 26,000 32 507 0
2020-02-15 22:14:46 GMT 46.979866 0.801157 26,000 32 507 0
2020-02-15 22:14:42 GMT 46.972885 0.794819 26,000 32 507 0
2020-02-15 22:14:39 GMT 46.967159 0.789537 26,000 32 508 0
2020-02-15 22:14:36 GMT 46.954285 0.777763 26,000 32 508 0
2020-02-15 22:14:30 GMT 46.941277 0.765874 26,000 32 508 0
2020-02-15 22:14:27 GMT 46.941277 0.765874 26,000 32 508 0
2020-02-15 22:14:23 GMT 46.932816 0.758125 25,975 32 508 0
2020-02-15 22:14:20 GMT 46.927914 0.753690 26,000 32 509 0
2020-02-15 22:14:17 GMT 46.922058 0.748306 26,000 32 509 0
2020-02-15 22:14:14 GMT 46.916138 0.742915 26,000 32 509 0
2020-02-15 22:14:11 GMT 46.911762 0.738901 26,000 31 510 0
2020-02-15 22:14:08 GMT 46.904846 0.732651 26,000 31 510 -64
2020-02-15 22:14:05 GMT 46.898167 0.726506 26,000 31 510 0
2020-02-15 22:14:02 GMT 46.892258 0.721184 26,000 31 510 -64
2020-02-15 22:13:59 GMT 46.887039 0.716446 26,000 32 510 -64
2020-02-15 22:13:56 GMT 46.873730 0.704322 26,000 32 510 0
2020-02-15 22:13:53 GMT 46.873730 0.704322 26,000 31 510 0
2020-02-15 22:13:50 GMT 46.865387 0.696761 26,000 32 510 -64
2020-02-15 22:13:46 GMT 46.860508 0.692276 26,000 32 510 0
2020-02-15 22:13:42 GMT 46.852081 0.684586 26,000 32 510 64
2020-02-15 22:13:39 GMT 46.846802 0.679813 26,000 32 510 128
2020-02-15 22:13:36 GMT 46.832382 0.666683 26,000 32 510 0
2020-02-15 22:13:32 GMT 46.832382 0.666683 26,000 32 510 0
2020-02-15 22:13:29 GMT 46.826851 0.661652 26,000 32 510 -64
2020-02-15 22:13:26 GMT 46.820660 0.656021 26,000 32 510 0
2020-02-15 22:13:22 GMT 46.809952 0.646251 26,000 32 510 64
2020-02-15 22:13:19 GMT 46.805740 0.642365 26,000 32 511 0
2020-02-15 22:13:16 GMT 46.799850 0.637001 26,000 32 511 -64
2020-02-15 22:13:13 GMT 46.794823 0.632401 26,000 32 511 -64
2020-02-15 22:13:09 GMT 46.786743 0.625015 26,000 32 510 0
2020-02-15 22:13:06 GMT 46.778503 0.617579 26,000 32 510 0
2020-02-15 22:13:03 GMT 46.773594 0.613106 26,000 32 510 0
2020-02-15 22:12:59 GMT 46.765915 0.606057 26,000 31 510 -64
2020-02-15 22:12:56 GMT 46.760792 0.601433 26,000 31 510 0
2020-02-15 22:12:53 GMT 46.747620 0.589485 26,000 31 510 128
2020-02-15 22:12:49 GMT 46.741611 0.583992 26,000 32 509 0
2020-02-15 22:12:46 GMT 46.741611 0.583992 26,000 31 510 0
2020-02-15 22:12:43 GMT 46.733734 0.576849 26,000 31 508 0
2020-02-15 22:12:39 GMT 46.727509 0.571222 26,000 31 508 -64
2020-02-15 22:12:36 GMT 46.720505 0.564925 26,000 31 508 0
2020-02-15 22:12:33 GMT 46.714142 0.559097 26,000 31 508 64
2020-02-15 22:12:29 GMT 46.704838 0.550690 26,000 31 508 0
2020-02-15 22:12:25 GMT 46.698647 0.545128 26,000 31 508 0
2020-02-15 22:12:22 GMT 46.693359 0.540340 26,000 31 508 0
2020-02-15 22:12:18 GMT 46.685577 0.533306 26,000 31 508 0
2020-02-15 22:12:15 GMT 46.678070 0.526588 26,000 31 508 0
2020-02-15 22:12:12 GMT 46.672989 0.521985 26,000 31 508 0
2020-02-15 22:12:09 GMT 46.665268 0.515053 26,000 31 508 0
2020-02-15 22:12:05 GMT 46.658386 0.508855 26,000 31 508 0
2020-02-15 22:12:02 GMT 46.653118 0.504066 26,000 31 508 0
2020-02-15 22:11:58 GMT 46.642548 0.494591 26,000 31 508 0
2020-02-15 22:11:55 GMT 46.632248 0.485274 26,000 31 508 0
2020-02-15 22:11:52 GMT 46.632248 0.485274 26,000 31 508 64
2020-02-15 22:11:49 GMT 46.624466 0.478307 26,000 31 508 0
2020-02-15 22:11:45 GMT 46.612011 0.467056 26,000 31 507 -64
2020-02-15 22:11:42 GMT 46.606796 0.462456 26,000 31 507 0
2020-02-15 22:11:36 GMT 46.600708 0.456937 26,000 31 507 -64
2020-02-15 22:11:33 GMT 46.594646 0.451469 26,000 31 507 -64
2020-02-15 22:11:30 GMT 46.587059 0.444672 26,000 31 507 64
2020-02-15 22:11:27 GMT 46.580795 0.439051 26,000 31 507 128
2020-02-15 22:11:24 GMT 46.575932 0.434647 26,000 31 507 64
2020-02-15 22:11:21 GMT 46.571640 0.430744 26,000 31 506 0
2020-02-15 22:11:18 GMT 46.564270 0.424112 26,000 31 506 -64
2020-02-15 22:11:14 GMT 46.556427 0.417068 26,000 31 506 0
2020-02-15 22:11:11 GMT 46.551773 0.412791 26,000 31 506 0
2020-02-15 22:11:07 GMT 46.543625 0.405489 26,000 31 506 -64
2020-02-15 22:11:04 GMT 46.536667 0.399192 26,000 31 506 -64
2020-02-15 22:11:00 GMT 46.528637 0.391937 26,000 31 506 0
2020-02-15 22:10:57 GMT 46.521652 0.385689 26,000 31 506 0
2020-02-15 22:10:54 GMT 46.517578 0.381976 26,000 31 505 64
2020-02-15 22:10:50 GMT 46.508881 0.374138 26,000 31 505 0
2020-02-15 22:10:47 GMT 46.503113 0.368980 26,000 31 505 -64
2020-02-15 22:10:44 GMT 46.488647 0.355917 26,000 31 504 -128
2020-02-15 22:10:40 GMT 46.488647 0.355917 26,000 31 504 64
2020-02-15 22:10:37 GMT 46.483154 0.351013 26,000 31 504 128
2020-02-15 22:10:34 GMT 46.477009 0.345520 26,000 31 504 64
2020-02-15 22:10:30 GMT 46.469887 0.339134 26,000 31 504 0
2020-02-15 22:10:24 GMT 46.456806 0.327393 26,000 31 505 64
2020-02-15 22:10:20 GMT 46.450333 0.321618 26,000 31 505 -64
2020-02-15 22:10:17 GMT 46.444096 0.315994 26,000 31 505 -64
2020-02-15 22:10:14 GMT 46.436138 0.308853 26,000 31 505 -64
2020-02-15 22:10:10 GMT 46.429199 0.302673 26,000 31 505 0
2020-02-15 22:10:06 GMT 46.420761 0.295090 26,000 31 505 0
2020-02-15 22:10:03 GMT 46.415886 0.290726 26,000 31 505 64
2020-02-15 22:09:59 GMT 46.399780 0.276306 26,000 31 506 0
2020-02-15 22:09:55 GMT 46.399780 0.276306 26,000 31 506 -64
2020-02-15 22:09:52 GMT 46.394943 0.271979 26,000 31 506 -64
2020-02-15 22:09:49 GMT 46.388466 0.266144 26,000 31 506 -64
2020-02-15 22:09:46 GMT 46.381531 0.259895 26,000 31 506 64
2020-02-15 22:09:43 GMT 46.374252 0.253422 26,000 31 506 64
2020-02-15 22:09:39 GMT 46.368484 0.248264 26,000 31 506 128
2020-02-15 22:09:35 GMT 46.360069 0.240669 25,975 31 507 -64
2020-02-15 22:09:31 GMT 46.341541 0.224052 26,000 31 507 64
2020-02-15 22:09:27 GMT 46.341541 0.224052 25,975 31 507 64
2020-02-15 22:09:24 GMT 46.337540 0.220482 26,000 31 507 0
2020-02-15 22:09:21 GMT 46.332092 0.215573 25,975 31 507 -64
2020-02-15 22:09:17 GMT 46.323807 0.208191 26,000 31 507 0
2020-02-15 22:09:14 GMT 46.317616 0.202629 25,975 31 508 64
2020-02-15 22:09:11 GMT 46.311237 0.196930 26,000 31 508 -128
2020-02-15 22:09:07 GMT 46.304253 0.190681 26,000 31 508 -192
2020-02-15 22:09:04 GMT 46.292290 0.179970 26,000 31 508 128
2020-02-15 22:09:01 GMT 46.292290 0.179970 26,000 31 508 128
2020-02-15 22:08:57 GMT 46.283493 0.172142 25,975 31 509 0
2020-02-15 22:08:53 GMT 46.276337 0.165867 26,000 31 511 0
2020-02-15 22:08:47 GMT 46.263245 0.154278 26,000 31 512 128
2020-02-15 22:08:44 GMT 46.258354 0.149895 26,000 31 512 0
2020-02-15 22:08:40 GMT 46.246536 0.139473 26,000 31 513 -64
2020-02-15 22:08:37 GMT 46.236938 0.130943 26,000 31 513 0
2020-02-15 22:08:34 GMT 46.236938 0.130943 26,000 31 513 0
2020-02-15 22:08:31 GMT 46.231495 0.126068 26,000 31 513 0
2020-02-15 22:08:26 GMT 46.222916 0.118438 26,000 31 513 64
2020-02-15 22:08:23 GMT 46.210312 0.107185 26,000 31 514 -64
2020-02-15 22:08:20 GMT 46.210312 0.107185 26,000 31 513 -64
2020-02-15 22:08:15 GMT 46.199417 0.097504 26,000 31 514 -128
2020-02-15 22:08:11 GMT 46.189590 0.088761 26,000 31 514 -64
2020-02-15 22:08:07 GMT 46.181122 0.081259 26,000 31 514 64
2020-02-15 22:08:03 GMT 46.174026 0.074962 26,000 31 514 0
2020-02-15 22:08:00 GMT 46.169857 0.071274 26,000 31 514 0
2020-02-15 22:07:56 GMT 46.160477 0.062970 26,000 31 514 -64
2020-02-15 22:07:53 GMT 46.149841 0.053558 26,000 31 514 -64
2020-02-15 22:07:50 GMT 46.149841 0.053558 26,000 31 514 -64
2020-02-15 22:07:46 GMT 46.140343 0.045113 26,000 31 514 0
2020-02-15 22:07:43 GMT 46.134384 0.039859 26,000 31 514 0
2020-02-15 22:07:40 GMT 46.129589 0.035637 26,000 31 514 0
2020-02-15 22:07:35 GMT 46.113098 0.021102 26,000 30 513 0
2020-02-15 22:07:28 GMT 46.104637 0.013939 26,000 28 511 0
2020-02-15 22:07:24 GMT 46.096252 0.007235 26,000 27 511 0
2020-02-15 22:07:21 GMT 46.089935 0.002546 26,000 26 511 0
2020-02-15 22:07:18 GMT 46.083435 -0.002211 26,000 26 510 0
2020-02-15 22:07:14 GMT 46.069771 -0.011879 26,000 26 510 0
2020-02-15 22:07:11 GMT 46.061417 -0.017819 26,000 26 510 0
2020-02-15 22:07:07 GMT 46.061417 -0.017819 26,000 26 510 0
2020-02-15 22:07:03 GMT 46.049973 -0.025858 26,000 26 510 0
2020-02-15 22:07:00 GMT 46.043655 -0.030346 26,000 26 510 0
2020-02-15 22:06:56 GMT 46.036579 -0.035294 26,000 26 510 0
2020-02-15 22:06:52 GMT 46.028709 -0.040855 26,000 26 509 0
2020-02-15 22:06:49 GMT 46.022614 -0.045181 26,000 26 509 0
2020-02-15 22:06:46 GMT 46.015320 -0.050309 26,000 26 509 64
2020-02-15 22:06:42 GMT 46.007675 -0.055669 26,000 26 509 0
2020-02-15 22:06:39 GMT 46.000488 -0.060693 26,000 26 509 0
2020-02-15 22:06:35 GMT 45.993191 -0.065849 26,000 26 510 64
2020-02-15 22:06:32 GMT 45.985886 -0.070942 26,000 26 509 64
2020-02-15 22:06:29 GMT 45.979645 -0.075325 26,000 26 509 0
2020-02-15 22:06:25 GMT 45.964325 -0.086149 26,000 26 509 0
2020-02-15 22:06:22 GMT 45.964325 -0.086149 26,000 26 509 0
2020-02-15 22:06:19 GMT 45.957859 -0.090637 26,000 26 509 0
2020-02-15 22:06:15 GMT 45.950459 -0.095856 26,000 26 509 -64
2020-02-15 22:06:11 GMT 45.936260 -0.105812 26,000 26 509 -64
2020-02-15 22:06:08 GMT 45.936260 -0.105812 26,000 26 509 0
2020-02-15 22:06:04 GMT 45.920803 -0.116661 26,000 26 508 0
2020-02-15 22:05:58 GMT 45.904976 -0.127716 26,000 26 508 -64
2020-02-15 22:05:54 GMT 45.904976 -0.127716 26,000 26 508 0
2020-02-15 22:05:51 GMT 45.899250 -0.131767 26,000 26 508 0
2020-02-15 22:05:48 GMT 45.892731 -0.136299 26,000 26 508 0
2020-02-15 22:05:43 GMT 45.883530 -0.142755 26,025 26 507 -64
2020-02-15 22:05:40 GMT 45.876251 -0.147835 26,025 26 507 -64
2020-02-15 22:05:37 GMT 45.870667 -0.151732 26,025 26 507 64
2020-02-15 22:05:34 GMT 45.855286 -0.162517 26,000 26 507 256
2020-02-15 22:05:30 GMT 45.855286 -0.162517 25,975 26 507 448
2020-02-15 22:05:27 GMT 45.847504 -0.168010 25,950 26 507 640
2020-02-15 22:05:23 GMT 45.840454 -0.172966 25,900 26 507 960
2020-02-15 22:05:18 GMT 45.831482 -0.179198 25,825 26 506 1344
2020-02-15 22:05:14 GMT 45.820953 -0.186500 25,675 26 505 1600
2020-02-15 22:05:11 GMT 45.814270 -0.191189 25,625 25 504 1344
2020-02-15 22:05:07 GMT 45.798752 -0.202041 25,400 26 504 1344
2020-02-15 22:05:03 GMT 45.798752 -0.202041 25,425 26 504 1536
2020-02-15 22:05:00 GMT 45.793388 -0.205788 25,375 26 503 1472
2020-02-15 22:04:56 GMT 45.784824 -0.211761 25,325 26 503 1408
2020-02-15 22:04:53 GMT 45.777096 -0.217117 25,200 26 501 1408
2020-02-15 22:04:50 GMT 45.771881 -0.220757 25,125 25 500 1280
2020-02-15 22:04:47 GMT 45.762756 -0.227142 25,125 25 500 1280
2020-02-15 22:04:42 GMT 45.754349 -0.232991 24,975 25 498 960
2020-02-15 22:04:39 GMT 45.748234 -0.237236 24,925 25 497 1088
2020-02-15 22:04:36 GMT 45.741898 -0.241565 24,850 25 495 1856
2020-02-15 22:04:33 GMT 45.735619 -0.245956 24,650 25 497 3008
2020-02-15 22:04:30 GMT 45.721329 -0.255913 24,500 25 499 3008
2020-02-15 22:04:26 GMT 45.721329 -0.255913 24,400 25 500 2688
2020-02-15 22:04:23 GMT 45.714298 -0.260788 24,250 25 500 2048
2020-02-15 22:04:19 GMT 45.705776 -0.266693 24,150 25 499 1344
2020-02-15 22:04:16 GMT 45.700470 -0.270371 24,100 25 498 1280
2020-02-15 22:04:12 GMT 45.693420 -0.275261 24,025 25 497 1472
2020-02-15 22:04:09 GMT 45.685959 -0.280419 23,925 25 496 1408
2020-02-15 22:04:06 GMT 45.679550 -0.284841 23,850 25 495 1280
2020-02-15 22:04:00 GMT 45.667786 -0.292946 23,725 25 493 1280
2020-02-15 22:03:56 GMT 45.658249 -0.299583 23,625 25 492 1280
2020-02-15 22:03:52 GMT 45.651810 -0.304000 23,500 25 490 1408
2020-02-15 22:03:48 GMT 45.637527 -0.313914 23,400 25 489 1536
2020-02-15 22:03:40 GMT 45.626827 -0.321281 23,250 25 486 1024
2020-02-15 22:03:36 GMT 45.616909 -0.328148 23,200 25 484 832
2020-02-15 22:03:32 GMT 45.610931 -0.332269 23,150 25 483 1216
2020-02-15 22:03:27 GMT 45.601597 -0.338722 23,050 25 482 1408
2020-02-15 22:03:24 GMT 45.595871 -0.342653 22,975 25 481 1408
2020-02-15 22:03:19 GMT 45.585999 -0.349503 22,850 25 479 1984
2020-02-15 22:03:15 GMT 45.569427 -0.360901 22,550 25 479 2048
2020-02-15 22:03:07 GMT 45.561310 -0.366501 22,425 25 479 1856
2020-02-15 22:03:04 GMT 45.555359 -0.370588 22,325 25 478 1856
2020-02-15 22:02:57 GMT 45.541729 -0.380033 22,075 25 474 1472
2020-02-15 22:02:54 GMT 45.534374 -0.385057 22,025 25 474 1472
2020-02-15 22:02:47 GMT 45.514915 -0.398522 21,750 25 470 1600
2020-02-15 22:02:44 GMT 45.514915 -0.398522 21,750 25 470 1600
2020-02-15 22:02:39 GMT 45.506302 -0.404417 21,650 25 468 1472
2020-02-15 22:02:34 GMT 45.494617 -0.412523 21,475 25 465 1856
2020-02-15 22:02:29 GMT 45.486969 -0.417742 21,350 25 462 1856
2020-02-15 22:02:23 GMT 45.475113 -0.425921 21,200 25 462 1920
2020-02-15 22:02:20 GMT 45.458084 -0.437557 20,750 25 457 2240
2020-02-15 22:02:15 GMT 45.458084 -0.437557 20,850 25 459 2176
2020-02-15 22:02:12 GMT 45.454468 -0.440042 20,775 25 458 2368
2020-02-15 22:02:09 GMT 45.448437 -0.444209 20,650 25 458 2368
2020-02-15 22:02:05 GMT 45.439728 -0.450178 20,500 25 457 2112
2020-02-15 22:02:02 GMT 45.433914 -0.454191 20,400 25 457 1792
2020-02-15 22:01:56 GMT 45.422367 -0.462163 20,150 25 453 2560
2020-02-15 22:01:52 GMT 45.414642 -0.467522 20,100 25 453 2560
2020-02-15 22:01:45 GMT 45.400860 -0.476967 19,725 25 451 2240
2020-02-15 22:01:41 GMT 45.395142 -0.480913 19,650 25 450 2368
2020-02-15 22:01:36 GMT 45.382660 -0.489428 19,325 25 449 2688
2020-02-15 22:01:33 GMT 45.379761 -0.491442 19,250 25 449 2688
2020-02-15 22:01:30 GMT 45.375027 -0.494720 19,125 25 449 2688
2020-02-15 22:01:27 GMT 45.362316 -0.503428 18,875 25 447 2752
2020-02-15 22:01:24 GMT 45.356415 -0.507464 18,775 25 447 2752
2020-02-15 22:01:20 GMT 45.356415 -0.507464 18,675 25 447 2688
2020-02-15 22:01:15 GMT 45.345512 -0.514951 18,400 25 446 2816
2020-02-15 22:01:12 GMT 45.340027 -0.518646 18,275 25 446 3008
2020-02-15 22:01:09 GMT 45.335953 -0.521458 18,150 25 446 3072
2020-02-15 22:01:05 GMT 45.327122 -0.527545 18,050 25 446 3072
2020-02-15 22:01:02 GMT 45.320976 -0.531765 17,750 25 446 2624
2020-02-15 22:00:57 GMT 45.312515 -0.537480 17,600 25 445 2368
2020-02-15 22:00:54 GMT 45.298958 -0.546771 17,275 25 442 2560
2020-02-15 22:00:50 GMT 45.298958 -0.546771 17,275 25 442 2560
2020-02-15 22:00:46 GMT 45.292969 -0.550886 17,175 25 441 2624
2020-02-15 22:00:41 GMT 45.282669 -0.557883 16,950 25 439 2368
2020-02-15 22:00:34 GMT 45.270283 -0.566265 16,625 25 436 2688
2020-02-15 22:00:30 GMT 45.258457 -0.574371 16,350 25 434 2752
2020-02-15 22:00:24 GMT 45.250500 -0.579797 16,150 25 434 2752
2020-02-15 22:00:20 GMT 45.244080 -0.584172 15,975 25 433 2944
2020-02-15 22:00:16 GMT 45.237648 -0.588572 15,800 25 432 2944
2020-02-15 22:00:13 GMT 45.232361 -0.592215 15,675 25 432 2880
2020-02-15 22:00:10 GMT 45.224442 -0.597643 15,450 25 430 2880
2020-02-15 22:00:03 GMT 45.213684 -0.604967 15,225 25 429 3008
2020-02-15 21:59:59 GMT 45.206226 -0.610009 15,050 25 429 3072
2020-02-15 21:59:56 GMT 45.201874 -0.613011 14,825 25 428 2944
2020-02-15 21:59:53 GMT 45.197205 -0.616150 14,700 25 428 2816
2020-02-15 21:59:50 GMT 45.189194 -0.621643 14,500 25 426 2752
2020-02-15 21:59:44 GMT 45.178162 -0.629098 14,175 25 424 3264
2020-02-15 21:59:39 GMT 45.171543 -0.633590 13,975 25 424 3328
2020-02-15 21:59:33 GMT 45.159760 -0.641588 13,625 25 424 2944
2020-02-15 21:59:29 GMT 45.154449 -0.645251 13,475 25 424 2880
2020-02-15 21:59:25 GMT 45.146221 -0.650806 13,300 25 420 3136
2020-02-15 21:59:22 GMT 45.141724 -0.653817 13,225 25 422 3008
2020-02-15 21:59:18 GMT 45.134956 -0.658443 12,950 25 421 3008
2020-02-15 21:59:13 GMT 45.125931 -0.664607 12,700 25 420 2944
2020-02-15 21:59:09 GMT 45.118290 -0.669764 12,475 25 420 3200
2020-02-15 21:59:02 GMT 45.105927 -0.678144 12,175 25 419 2944
2020-02-15 21:58:59 GMT 45.100708 -0.681741 11,975 25 418 2688
2020-02-15 21:58:53 GMT 45.089100 -0.689593 11,650 25 416 2944
2020-02-15 21:58:48 GMT 45.083004 -0.693679 11,475 25 415 2816
2020-02-15 21:58:42 GMT 45.070267 -0.702340 11,250 25 415 2560
2020-02-15 21:58:39 GMT 45.064659 -0.706140 11,025 25 413 2368
2020-02-15 21:58:32 GMT 45.052185 -0.714634 10,725 25 411 2688
2020-02-15 21:58:28 GMT 45.047810 -0.717595 10,600 25 409 2688
2020-02-15 21:58:21 GMT 45.035110 -0.726275 10,350 25 407 2368
2020-02-15 21:58:17 GMT 45.028255 -0.730993 10,125 25 405 2304
2020-02-15 21:58:12 GMT 45.019833 -0.736687 9,925 25 403 2816
2020-02-15 21:58:08 GMT 45.013000 -0.741381 9,725 25 402 2752
2020-02-15 21:58:01 GMT 45.002190 -0.748678 9,475 25 399 2112
2020-02-15 21:57:58 GMT 44.995789 -0.753087 9,350 25 397 2176
2020-02-15 21:57:51 GMT 44.985535 -0.760018 9,100 25 395 2560
2020-02-15 21:57:47 GMT 44.979191 -0.764354 8,925 25 394 2560
2020-02-15 21:57:40 GMT 44.966492 -0.772967 8,575 25 391 2752
2020-02-15 21:57:37 GMT 44.962292 -0.775742 8,450 25 390 2944
2020-02-15 21:57:31 GMT 44.952702 -0.782173 8,175 25 388 2688
2020-02-15 21:57:27 GMT 44.945435 -0.786961 8,000 24 386 2240
2020-02-15 21:57:20 GMT 44.935432 -0.793494 7,775 24 383 2368
2020-02-15 21:57:16 GMT 44.928772 -0.797751 7,600 24 381 2560
2020-02-15 21:57:11 GMT 44.919296 -0.803898 7,350 24 379 2624
2020-02-15 21:57:07 GMT 44.912155 -0.808541 7,150 25 377 2624
2020-02-15 21:57:00 GMT 44.902752 -0.814730 6,900 25 375 2560
2020-02-15 21:56:56 GMT 44.896606 -0.818749 6,725 25 372 2624
2020-02-15 21:56:49 GMT 44.886318 -0.825582 6,500 25 370 2688
2020-02-15 21:56:46 GMT 44.880592 -0.829401 6,275 25 367 2112
2020-02-15 21:56:38 GMT 44.867294 -0.838558 6,025 26 358 1856
2020-02-15 21:56:35 GMT 44.864998 -0.840186 5,975 27 358 1920
2020-02-15 21:56:29 GMT 44.849899 -0.851048 5,775 25 345 896
2020-02-15 21:56:25 GMT 44.849899 -0.851048 5,750 25 343 896
2020-02-15 21:56:18 GMT 44.839954 -0.857001 5,600 16 332 1728
2020-02-15 21:56:15 GMT 44.835617 -0.858895 5,500 9 326 1792
2020-02-15 21:56:09 GMT 44.825180 -0.860988 5,350 358 312 768
2020-02-15 21:56:05 GMT 44.820122 -0.860886 5,300 353 304 512
2020-02-15 21:55:55 GMT 44.806530 -0.856666 5,225 340 284 960
2020-02-15 21:55:47 GMT 44.798058 -0.850905 4,875 326 270 3328
2020-02-15 21:55:44 GMT 44.794739 -0.847778 4,700 320 269 3712
2020-02-15 21:55:38 GMT 44.788284 -0.839081 4,225 307 264 4032
2020-02-15 21:55:34 GMT 44.786140 -0.834961 4,025 301 264 3904
2020-02-15 21:55:26 GMT 44.781693 -0.821751 3,575 285 258 2752
2020-02-15 21:55:23 GMT 44.781017 -0.817745 3,475 280 254 2624
2020-02-15 21:55:16 GMT 44.780087 -0.806356 3,200 266 243 1856
2020-02-15 21:55:13 GMT 44.780228 -0.801348 3,100 263 239 1664
2020-02-15 21:55:06 GMT 44.781830 -0.789969 2,875 250 224 1856
2020-02-15 21:55:02 GMT 44.783020 -0.785388 2,800 245 220 1984
2020-02-15 21:54:55 GMT 44.786186 -0.777149 2,550 229 204 1600
2020-02-15 21:54:52 GMT 44.788185 -0.773464 2,450 228 200 1408
2020-02-15 21:54:44 GMT 44.793823 -0.764988 2,300 227 186 832
2020-02-15 21:54:35 GMT 44.798660 -0.757923 2,125 226 171 1344
2020-02-15 21:54:28 GMT 44.802338 -0.752694 1,850 225 156 768
2020-02-15 21:54:25 GMT 44.804306 -0.749948 1,950 225 151 1088
2020-02-15 21:54:22 GMT 44.805645 -0.748075 1,900 225 148 1472
2020-02-15 21:54:15 GMT 44.808884 -0.743539 1,700 225 142 1792
2020-02-15 21:54:12 GMT 44.810211 -0.741708 1,625 225 138 1984
2020-02-15 21:54:04 GMT 44.814056 -0.736411 1,350 225 137 2752
We lost coverage of the aircraft here for a total of 54 minutes
2020-02-15 20:59:37 GMT 44.849262 -0.685842 275 226 137 -704
2020-02-15 20:59:28 GMT 44.852989 -0.680549 375 225 133 -768
2020-02-15 20:59:19 GMT 44.857224 -0.674587 500 226 132 -640
2020-02-15 20:59:08 GMT 44.861710 -0.668139 625 225 130 -640
2020-02-15 20:58:59 GMT 44.865837 -0.662328 725 226 128 -704
2020-02-15 20:58:48 GMT 44.869839 -0.656567 825 226 127 -704
2020-02-15 20:58:38 GMT 44.874168 -0.650337 925 226 127 -640
2020-02-15 20:58:28 GMT 44.878265 -0.644375 1,050 226 128 -576
2020-02-15 20:58:18 GMT 44.882446 -0.638384 1,175 225 131 -832
2020-02-15 20:58:08 GMT 44.886971 -0.632049 1,300 226 138 -704
2020-02-15 20:57:58 GMT 44.891556 -0.625371 1,425 226 146 -832
2020-02-15 20:57:48 GMT 44.896362 -0.618570 1,550 226 154 -832
2020-02-15 20:57:38 GMT 44.901962 -0.610545 1,725 226 162 -832
2020-02-15 20:57:27 GMT 44.907120 -0.603267 1,850 224 171 -896
2020-02-15 20:57:17 GMT 44.913116 -0.595289 2,000 224 178 -1024
2020-02-15 20:57:07 GMT 44.918720 -0.586630 2,175 237 180 -960
2020-02-15 20:56:56 GMT 44.923141 -0.575442 2,575 197 177 -192
2020-02-15 20:56:47 GMT 44.926682 -0.565796 2,475 233 177 -960
2020-02-15 20:56:37 GMT 44.932617 -0.558145 2,575 200 177 -256
2020-02-15 20:56:25 GMT 44.941956 -0.556117 2,575 175 184 0
2020-02-15 20:56:15 GMT 44.959221 -0.562178 2,725 162 188 -1088
2020-02-15 20:56:06 GMT 44.959221 -0.562178 2,850 162 190 -1024
2020-02-15 20:55:55 GMT 44.967407 -0.565927 3,000 161 192 -768
2020-02-15 20:55:46 GMT 44.975933 -0.569949 3,150 161 198 -896
2020-02-15 20:55:34 GMT 44.985214 -0.574428 3,300 161 203 -704
2020-02-15 20:55:25 GMT 44.993820 -0.578482 3,375 161 210 -768
2020-02-15 20:55:15 GMT 45.003662 -0.583060 3,450 161 219 128
2020-02-15 20:55:12 GMT 45.006546 -0.584433 3,450 161 221 -320
2020-02-15 20:55:04 GMT 45.013409 -0.587702 3,500 161 226 -576
2020-02-15 20:54:55 GMT 45.023071 -0.592346 3,625 160 232 -640
2020-02-15 20:54:46 GMT 45.032913 -0.597147 3,725 161 240 -704
2020-02-15 20:54:34 GMT 45.045685 -0.603398 3,850 160 248 -640
2020-02-15 20:54:25 GMT 45.054565 -0.607714 3,975 160 253 -960
2020-02-15 20:54:20 GMT 45.059402 -0.610076 4,050 160 255 -960
2020-02-15 20:54:15 GMT 45.065826 -0.613158 4,175 161 258 -1472
2020-02-15 20:54:12 GMT 45.068523 -0.614497 4,225 160 259 -1472
2020-02-15 20:54:03 GMT 45.079971 -0.620074 4,450 160 263 -1344
2020-02-15 20:53:55 GMT 45.088852 -0.624390 4,625 160 266 -1344
2020-02-15 20:53:52 GMT 45.092312 -0.626087 4,675 161 268 -1344
2020-02-15 20:53:44 GMT 45.102180 -0.630843 4,900 161 271 -1664
2020-02-15 20:53:34 GMT 45.112930 -0.636030 5,025 161 280 -64
2020-02-15 20:53:31 GMT 45.116730 -0.637796 5,025 161 283 0
2020-02-15 20:53:24 GMT 45.131836 -0.644978 5,175 161 293 -1152
2020-02-15 20:53:20 GMT 45.131836 -0.644978 5,225 161 294 -704
2020-02-15 20:53:11 GMT 45.142914 -0.650155 5,250 161 293 0
2020-02-15 20:53:00 GMT 45.156097 -0.656302 5,250 161 289 0
2020-02-15 20:52:54 GMT 45.165344 -0.660618 5,275 161 289 -448
2020-02-15 20:52:51 GMT 45.168846 -0.662261 5,275 161 290 -512
2020-02-15 20:52:40 GMT 45.182053 -0.668466 5,400 161 298 -704
2020-02-15 20:52:30 GMT 45.195786 -0.675005 5,500 161 304 -768
2020-02-15 20:52:19 GMT 45.209747 -0.681545 5,650 161 314 -704
2020-02-15 20:52:10 GMT 45.223591 -0.688119 5,775 161 322 -896
2020-02-15 20:51:59 GMT 45.238300 -0.695153 5,925 161 331 -896
2020-02-15 20:51:49 GMT 45.253525 -0.702522 6,100 160 340 -960
2020-02-15 20:51:38 GMT 45.268841 -0.709958 6,275 160 349 -1088
2020-02-15 20:51:29 GMT 45.285038 -0.717796 6,450 161 357 -1216
2020-02-15 20:51:18 GMT 45.301193 -0.725567 6,700 161 366 -1856
2020-02-15 20:51:07 GMT 45.317963 -0.733664 7,175 161 366 -3328
2020-02-15 20:50:57 GMT 45.334076 -0.741446 7,600 161 369 -1984
2020-02-15 20:50:47 GMT 45.351151 -0.749817 7,950 161 367 -2048
2020-02-15 20:50:37 GMT 45.367344 -0.757655 8,300 161 369 -2048
2020-02-15 20:50:31 GMT 45.377335 -0.762438 8,500 161 372 -1984
2020-02-15 20:50:27 GMT 45.384426 -0.765827 8,650 161 374 -1984
2020-02-15 20:50:20 GMT 45.394436 -0.770584 8,850 161 374 -1984
2020-02-15 20:50:16 GMT 45.401001 -0.773732 8,975 161 374 -1984
2020-02-15 20:50:11 GMT 45.411118 -0.778525 9,175 161 374 -1984
2020-02-15 20:50:05 GMT 45.419174 -0.782318 9,350 161 372 -1920
2020-02-15 20:49:58 GMT 45.430889 -0.787800 9,575 161 372 -1984
2020-02-15 20:49:54 GMT 45.436340 -0.790362 9,675 161 372 -1984
2020-02-15 20:49:50 GMT 45.443642 -0.793762 9,875 161 373 -1920
2020-02-15 20:49:44 GMT 45.453465 -0.798385 10,000 161 374 -1920
2020-02-15 20:49:39 GMT 45.462170 -0.802538 10,175 161 377 -1984
2020-02-15 20:49:34 GMT 45.470535 -0.806514 10,350 160 380 -1984
2020-02-15 20:49:28 GMT 45.479233 -0.810699 10,525 160 383 -1984
2020-02-15 20:49:23 GMT 45.488113 -0.815081 10,700 160 386 -1856
2020-02-15 20:49:19 GMT 45.496902 -0.819397 10,875 160 389 -1984
2020-02-15 20:49:13 GMT 45.505695 -0.823774 11,050 160 393 -2304
2020-02-15 20:49:08 GMT 45.514069 -0.827898 11,300 160 397 -2560
2020-02-15 20:49:05 GMT 45.521118 -0.831430 11,425 160 397 -2560
2020-02-15 20:48:59 GMT 45.530743 -0.836234 11,725 160 405 -2816
2020-02-15 20:48:54 GMT 45.543091 -0.842351 11,975 160 402 -2752
2020-02-15 20:48:47 GMT 45.549911 -0.845746 11,975 160 402 -2752
2020-02-15 20:48:44 GMT 45.562271 -0.851909 12,475 160 404 -2944
2020-02-15 20:48:37 GMT 45.567657 -0.854530 12,625 160 404 -2816
2020-02-15 20:48:34 GMT 45.575432 -0.858376 12,850 160 404 -3584
2020-02-15 20:48:31 GMT 45.579155 -0.860229 13,025 160 402 -4672
2020-02-15 20:48:27 GMT 45.587311 -0.864302 13,350 160 401 -4672
2020-02-15 20:48:23 GMT 45.593540 -0.867371 13,950 161 403 -3776
2020-02-15 20:48:20 GMT 45.597961 -0.869499 14,025 160 406 -2944
2020-02-15 20:48:16 GMT 45.607368 -0.874100 14,025 160 406 -2944
2020-02-15 20:48:10 GMT 45.616489 -0.878632 14,275 160 412 -2880
2020-02-15 20:48:03 GMT 45.637665 -0.888955 14,900 161 416 -3968
2020-02-15 20:47:58 GMT 45.637665 -0.888955 15,000 161 416 -4032
2020-02-15 20:47:52 GMT 45.648788 -0.894314 15,750 161 418 -4096
2020-02-15 20:47:49 GMT 45.654385 -0.897034 15,625 161 419 -3904
2020-02-15 20:47:46 GMT 45.660324 -0.899874 15,825 161 420 -3840
2020-02-15 20:47:42 GMT 45.667793 -0.903488 16,075 161 420 -3968
2020-02-15 20:47:39 GMT 45.673470 -0.906303 16,475 161 422 -3968
2020-02-15 20:47:31 GMT 45.692459 -0.915416 17,000 146 480 -4160
2020-02-15 20:47:28 GMT 45.692459 -0.915416 17,000 161 425 -3776
2020-02-15 20:47:22 GMT 45.705826 -0.921822 17,375 161 428 -3648
2020-02-15 20:47:18 GMT 45.716949 -0.927109 17,600 161 431 -3584
2020-02-15 20:47:08 GMT 45.732010 -0.934441 18,375 159 437 -3776
2020-02-15 20:47:05 GMT 45.736588 -0.936785 18,375 158 438 -3712
2020-02-15 20:46:58 GMT 45.751774 -0.945511 18,850 156 444 -3456
2020-02-15 20:46:50 GMT 45.766621 -0.955055 19,300 151 454 -3520
2020-02-15 20:46:46 GMT 45.777794 -0.963020 19,650 151 455 -3648
2020-02-15 20:46:40 GMT 45.783195 -0.967140 19,950 150 455 -3840
2020-02-15 20:46:37 GMT 45.788689 -0.971603 20,025 148 458 -3584
2020-02-15 20:46:34 GMT 45.794037 -0.976108 20,200 148 458 -3456
2020-02-15 20:46:29 GMT 45.802505 -0.983745 20,425 147 463 -2880
2020-02-15 20:46:25 GMT 45.811157 -0.991650 20,675 147 466 -3264
2020-02-15 20:46:19 GMT 45.821686 -1.001297 21,000 147 467 -3648
2020-02-15 20:46:16 GMT 45.826218 -1.005517 21,175 147 470 -3648
2020-02-15 20:46:13 GMT 45.831982 -1.010811 21,350 147 471 -3584
2020-02-15 20:46:08 GMT 45.841415 -1.019518 21,675 147 472 -3712
2020-02-15 20:46:04 GMT 45.849152 -1.026619 21,925 147 474 -3840
2020-02-15 20:45:58 GMT 45.859215 -1.035873 22,300 147 476 -3968
2020-02-15 20:45:54 GMT 45.868011 -1.043902 22,600 147 477 -4224
2020-02-15 20:45:47 GMT 45.881653 -1.056473 23,125 147 479 -3840
2020-02-15 20:45:43 GMT 45.887611 -1.061966 23,225 147 480 -3776
2020-02-15 20:45:39 GMT 45.897583 -1.071234 23,650 147 482 -3904
2020-02-15 20:45:33 GMT 45.906883 -1.079819 23,925 146 484 -4032
2020-02-15 20:45:28 GMT 45.916397 -1.088718 24,250 146 487 -3904
2020-02-15 20:45:24 GMT 45.924435 -1.096161 24,775 146 490 -3776
2020-02-15 20:45:21 GMT 45.929260 -1.100709 24,750 146 490 -3776
2020-02-15 20:45:18 GMT 45.934753 -1.105868 24,950 146 492 -4224
2020-02-15 20:45:15 GMT 45.946686 -1.117035 25,475 146 495 -4096
2020-02-15 20:45:12 GMT 45.946686 -1.117035 25,425 146 493 -4480
2020-02-15 20:45:06 GMT 45.957951 -1.127678 25,825 146 496 -3776
2020-02-15 20:45:02 GMT 45.965927 -1.135209 26,100 146 496 -3840
2020-02-15 20:44:56 GMT 45.983463 -1.151711 26,700 146 495 -3904
2020-02-15 20:44:50 GMT 45.988258 -1.156242 26,850 146 495 -3904
2020-02-15 20:44:46 GMT 45.996868 -1.164413 27,150 146 496 -3840
2020-02-15 20:44:41 GMT 46.005482 -1.172516 27,425 146 497 -3840
2020-02-15 20:44:37 GMT 46.014221 -1.180762 27,725 146 498 -3712
2020-02-15 20:44:31 GMT 46.025620 -1.191347 28,075 147 500 -3840
2020-02-15 20:44:24 GMT 46.039215 -1.204008 28,675 147 502 -4544
2020-02-15 20:44:20 GMT 46.046265 -1.210439 28,850 147 502 -4480
2020-02-15 20:44:16 GMT 46.053680 -1.217339 29,150 147 503 -4480
2020-02-15 20:44:13 GMT 46.059952 -1.223100 29,375 147 503 -4544
2020-02-15 20:44:09 GMT 46.067001 -1.229531 29,650 147 503 -4480
2020-02-15 20:44:05 GMT 46.076019 -1.237838 30,000 147 504 -4608
2020-02-15 20:44:02 GMT 46.081596 -1.243034 30,225 147 503 -4992
2020-02-15 20:43:58 GMT 46.091370 -1.252098 30,575 147 504 -4544
2020-02-15 20:43:54 GMT 46.096390 -1.256729 31,000 147 503 -4992
2020-02-15 20:43:50 GMT 46.115341 -1.274347 31,400 146 503 -3456
2020-02-15 20:43:46 GMT 46.115341 -1.274347 31,375 146 504 -3136
2020-02-15 20:43:43 GMT 46.120834 -1.279505 31,575 147 506 -3008
2020-02-15 20:43:40 GMT 46.132782 -1.290626 31,750 147 507 -2816
2020-02-15 20:43:36 GMT 46.132782 -1.290626 31,850 147 506 -3328
2020-02-15 20:43:33 GMT 46.138870 -1.296320 32,125 147 504 -4096
2020-02-15 20:43:30 GMT 46.144409 -1.301344 32,250 147 503 -4032
2020-02-15 20:43:27 GMT 46.151276 -1.307641 32,475 147 501 -3776
2020-02-15 20:43:24 GMT 46.155167 -1.311258 32,600 147 501 -3712
2020-02-15 20:43:21 GMT 46.162216 -1.317689 32,825 147 499 -3520
2020-02-15 20:43:18 GMT 46.168671 -1.323585 32,900 147 499 -3456
2020-02-15 20:43:15 GMT 46.175163 -1.329483 33,200 148 496 -3072
2020-02-15 20:43:09 GMT 46.184967 -1.338322 33,450 148 494 -3072
2020-02-15 20:43:05 GMT 46.193115 -1.345557 33,675 148 488 -3200
2020-02-15 20:43:02 GMT 46.200256 -1.351854 34,425 147 481 -4032
2020-02-15 20:42:59 GMT 46.213150 -1.363060 34,850 146 480 -4224
2020-02-15 20:42:54 GMT 46.213150 -1.363060 34,275 147 480 -4160
2020-02-15 20:42:51 GMT 46.220444 -1.369540 34,550 144 480 -4160
2020-02-15 20:42:46 GMT 46.228409 -1.377645 35,700 115 493 -2624
2020-02-15 20:42:43 GMT 46.233490 -1.383339 35,025 138 482 -3520
2020-02-15 20:42:40 GMT 46.240402 -1.391914 35,875 136 483 -3328
2020-02-15 20:42:36 GMT 46.250656 -1.406786 35,700 115 493 -2624
2020-02-15 20:42:33 GMT 46.250656 -1.406786 35,800 126 488 -2816
2020-02-15 20:42:28 GMT 46.257141 -1.418198 35,800 126 488 -2816
2020-02-15 20:42:23 GMT 46.269516 -1.446444 36,150 118 491 -2624
2020-02-15 20:42:18 GMT 46.269516 -1.446444 36,250 114 493 -2624
2020-02-15 20:42:15 GMT 46.273590 -1.458904 36,425 110 493 -2624
2020-02-15 20:42:07 GMT 46.278625 -1.481145 36,725 104 495 -2368
2020-02-15 20:42:04 GMT 46.280457 -1.494141 36,900 95 497 -2496
2020-02-15 20:42:01 GMT 46.281349 -1.504166 37,000 90 498 -2240
2020-02-15 20:41:57 GMT 46.281693 -1.510955 37,100 91 497 -2432
2020-02-15 20:41:52 GMT 46.282104 -1.530114 37,300 90 498 -2176
2020-02-15 20:41:47 GMT 46.282280 -1.547218 37,500 90 498 -2112
2020-02-15 20:41:43 GMT 46.282379 -1.559322 37,625 90 499 -2048
2020-02-15 20:41:40 GMT 46.282471 -1.570978 37,900 90 499 -2048
2020-02-15 20:41:36 GMT 46.282562 -1.581070 37,825 90 500 -1984
2020-02-15 20:41:33 GMT 46.282654 -1.592400 37,950 90 501 -1984
2020-02-15 20:41:27 GMT 46.282887 -1.612793 38,150 91 502 -2048
2020-02-15 20:41:21 GMT 46.283119 -1.633873 38,300 91 503 -2048
2020-02-15 20:41:16 GMT 46.283340 -1.649155 38,500 91 504 -1984
2020-02-15 20:41:12 GMT 46.283630 -1.667450 38,675 91 506 -1920
2020-02-15 20:41:09 GMT 46.283707 -1.674075 38,750 91 506 -1920
2020-02-15 20:41:06 GMT 46.283890 -1.683454 38,825 91 507 -1920
2020-02-15 20:41:03 GMT 46.284096 -1.697182 39,025 91 508 -1856
2020-02-15 20:41:00 GMT 46.284283 -1.708031 40,000 36 450 0
2020-02-15 20:40:52 GMT 46.284794 -1.736526 39,375 91 512 -1792
2020-02-15 20:40:47 GMT 46.284981 -1.750465 39,425 90 513 -1792
2020-02-15 20:40:39 GMT 46.284714 -1.775230 39,675 85 513 -1664
2020-02-15 20:40:34 GMT 46.283661 -1.791843 39,775 80 510 -1408
2020-02-15 20:40:29 GMT 46.281677 -1.808830 39,925 72 505 -384
2020-02-15 20:40:25 GMT 46.279488 -1.821945 39,950 71 505 -192
2020-02-15 20:40:22 GMT 46.277489 -1.832039 39,975 69 502 -256
2020-02-15 20:40:18 GMT 46.274323 -1.844261 39,975 67 501 -256
2020-02-15 20:40:14 GMT 46.270226 -1.857651 40,000 62 496 -128
2020-02-15 20:40:11 GMT 46.267548 -1.865130 40,000 59 491 0
2020-02-15 20:40:08 GMT 46.259766 -1.883552 40,000 57 489 0
2020-02-15 20:40:04 GMT 46.259766 -1.883552 40,000 53 483 0
2020-02-15 20:39:59 GMT 46.253357 -1.895878 40,000 48 476 0
2020-02-15 20:39:56 GMT 46.248779 -1.903582 40,025 46 473 -64
2020-02-15 20:39:52 GMT 46.241592 -1.914033 40,025 41 464 64
2020-02-15 20:39:47 GMT 46.234314 -1.923143 40,000 36 456 64
2020-02-15 20:39:44 GMT 46.229538 -1.928444 40,000 36 457 64
2020-02-15 20:39:41 GMT 46.224602 -1.933731 40,000 36 457 0
2020-02-15 20:39:37 GMT 46.211521 -1.947670 40,000 35 441 0
2020-02-15 20:39:34 GMT 46.211521 -1.947670 40,000 36 457 0
2020-02-15 20:39:31 GMT 46.205425 -1.954193 40,000 36 457 0
2020-02-15 20:39:28 GMT 46.201950 -1.957911 40,000 36 457 0
2020-02-15 20:39:24 GMT 46.193619 -1.966754 40,000 36 456 -64
2020-02-15 20:39:21 GMT 46.189545 -1.971108 40,000 36 456 0
2020-02-15 20:39:18 GMT 46.178284 -1.983101 40,000 36 456 -64
2020-02-15 20:39:14 GMT 46.178284 -1.983101 40,000 36 456 -64
2020-02-15 20:39:11 GMT 46.173347 -1.988388 40,000 36 456 -64
2020-02-15 20:39:06 GMT 46.164642 -1.997703 40,000 35 441 0
2020-02-15 20:39:01 GMT 46.155807 -2.007082 40,000 36 455 64
2020-02-15 20:38:57 GMT 46.149216 -2.014049 40,000 36 454 0
2020-02-15 20:38:53 GMT 46.142487 -2.021283 40,000 36 454 0
2020-02-15 20:38:46 GMT 46.130894 -2.033569 40,000 36 454 0
2020-02-15 20:38:42 GMT 46.124542 -2.040309 40,000 36 454 0
2020-02-15 20:38:39 GMT 46.119579 -2.045586 40,000 36 454 0
2020-02-15 20:38:35 GMT 46.110271 -2.055405 40,000 36 454 0
2020-02-15 20:38:32 GMT 46.107899 -2.057945 40,000 36 454 0
2020-02-15 20:38:26 GMT 46.096260 -2.070236 40,000 36 453 0
2020-02-15 20:38:23 GMT 46.092636 -2.074071 40,000 36 453 0
2020-02-15 20:38:20 GMT 46.086948 -2.080055 40,000 36 453 0
2020-02-15 20:38:14 GMT 46.074146 -2.093582 40,000 36 452 0
2020-02-15 20:38:11 GMT 46.070095 -2.097908 40,000 36 453 0
2020-02-15 20:38:08 GMT 46.065811 -2.102408 40,000 36 452 0
2020-02-15 20:38:05 GMT 46.060833 -2.107658 40,000 36 453 0
2020-02-15 20:38:00 GMT 46.052490 -2.116476 40,000 36 453 0
2020-02-15 20:37:57 GMT 46.047192 -2.122078 40,000 36 452 0
2020-02-15 20:37:53 GMT 46.040543 -2.129137 40,000 36 452 0
2020-02-15 20:37:50 GMT 46.035370 -2.134575 40,000 36 452 0
2020-02-15 20:37:44 GMT 46.019913 -2.150917 40,000 36 452 0
2020-02-15 20:37:37 GMT 46.014267 -2.156871 40,000 36 452 0
2020-02-15 20:37:33 GMT 46.007721 -2.163771 40,000 36 452 0
2020-02-15 20:37:29 GMT 46.001572 -2.170280 40,000 36 452 0
2020-02-15 20:37:23 GMT 45.990372 -2.182059 40,000 36 451 0
2020-02-15 20:37:20 GMT 45.985279 -2.187447 40,000 36 451 0
2020-02-15 20:37:16 GMT 45.977039 -2.196098 40,000 36 450 0
2020-02-15 20:37:12 GMT 45.972988 -2.200356 40,000 36 450 0
2020-02-15 20:37:09 GMT 45.966797 -2.206879 40,000 36 450 0
2020-02-15 20:37:06 GMT 45.950130 -2.224388 40,000 36 450 0
2020-02-15 20:37:00 GMT 45.950130 -2.224388 40,000 36 450 0
2020-02-15 20:36:54 GMT 45.941891 -2.232971 40,000 36 450 0
2020-02-15 20:36:51 GMT 45.937820 -2.237326 40,000 36 450 64
2020-02-15 20:36:48 GMT 45.932163 -2.243202 40,000 36 450 64
2020-02-15 20:36:44 GMT 45.925369 -2.250322 40,000 36 450 0
2020-02-15 20:36:41 GMT 45.920105 -2.255905 40,000 36 450 0
2020-02-15 20:36:38 GMT 45.914795 -2.261442 40,000 36 450 0
2020-02-15 20:36:35 GMT 45.907677 -2.268883 40,000 36 450 -64
2020-02-15 20:36:28 GMT 45.899002 -2.277988 40,000 36 450 64
2020-02-15 20:36:24 GMT 45.891953 -2.285357 40,000 36 450 64
2020-02-15 20:36:18 GMT 45.882164 -2.295662 40,000 36 450 0
2020-02-15 20:36:14 GMT 45.875198 -2.302909 40,000 36 450 -64
2020-02-15 20:36:08 GMT 45.863434 -2.315235 40,000 36 448 0
2020-02-15 20:36:03 GMT 45.856655 -2.322372 40,000 36 450 0
2020-02-15 20:35:57 GMT 45.846817 -2.332652 40,000 36 448 0
2020-02-15 20:35:54 GMT 45.840317 -2.339485 40,000 36 450 0
2020-02-15 20:35:48 GMT 45.831573 -2.348596 40,000 36 449 0
2020-02-15 20:35:43 GMT 45.814758 -2.366180 40,000 36 448 0
2020-02-15 20:35:38 GMT 45.814758 -2.366180 40,000 36 448 0
2020-02-15 20:35:34 GMT 45.808823 -2.372444 40,000 36 447 0
2020-02-15 20:35:28 GMT 45.788956 -2.393211 40,000 36 447 0
2020-02-15 20:35:23 GMT 45.788956 -2.393211 40,000 36 447 0
2020-02-15 20:35:20 GMT 45.783848 -2.398590 40,000 36 446 0
2020-02-15 20:35:17 GMT 45.780354 -2.402229 40,000 36 447 0
2020-02-15 20:35:12 GMT 45.771790 -2.411164 40,000 36 446 0
2020-02-15 20:35:09 GMT 45.766903 -2.416306 40,000 36 446 0
2020-02-15 20:35:06 GMT 45.761993 -2.421481 40,000 36 445 0
2020-02-15 20:35:02 GMT 45.755356 -2.428447 40,000 36 445 0
2020-02-15 20:34:56 GMT 45.745441 -2.438759 40,000 36 445 0
2020-02-15 20:34:53 GMT 45.739017 -2.445488 40,000 36 445 0
2020-02-15 20:34:49 GMT 45.733612 -2.451157 40,000 36 445 0
2020-02-15 20:34:46 GMT 45.722584 -2.462654 40,000 36 444 0
2020-02-15 20:34:43 GMT 45.722584 -2.462654 40,000 36 444 0
2020-02-15 20:34:39 GMT 45.715973 -2.469589 40,000 36 444 0
2020-02-15 20:34:36 GMT 45.704010 -2.481949 40,000 36 443 -64
2020-02-15 20:34:31 GMT 45.704010 -2.481949 40,000 35 443 -64
2020-02-15 20:34:28 GMT 45.696991 -2.489274 40,000 36 443 0
2020-02-15 20:34:22 GMT 45.686691 -2.499993 40,000 36 443 0
2020-02-15 20:34:19 GMT 45.683109 -2.503647 40,000 36 443 -64
2020-02-15 20:34:15 GMT 45.676311 -2.510719 40,000 36 443 -64
2020-02-15 20:34:09 GMT 45.666534 -2.520882 40,000 36 443 0
2020-02-15 20:34:05 GMT 45.659821 -2.527793 40,000 36 443 0
2020-02-15 20:34:02 GMT 45.653267 -2.534615 40,000 36 443 64
2020-02-15 20:33:59 GMT 45.649822 -2.538185 40,000 36 443 64
2020-02-15 20:33:54 GMT 45.641602 -2.546684 40,000 36 443 64
2020-02-15 20:33:48 GMT 45.624451 -2.564484 40,000 36 443 -64
2020-02-15 20:33:43 GMT 45.624451 -2.564484 40,000 36 443 -64
2020-02-15 20:33:39 GMT 45.615738 -2.573480 40,000 36 443 0
2020-02-15 20:33:33 GMT 45.607498 -2.582055 40,000 35 442 0
2020-02-15 20:33:28 GMT 45.598289 -2.591537 40,000 35 442 0
2020-02-15 20:33:22 GMT 45.589783 -2.600343 40,000 35 442 0
2020-02-15 20:33:18 GMT 45.572571 -2.618096 40,000 35 441 0
2020-02-15 20:33:12 GMT 45.572571 -2.618096 40,000 35 441 0
2020-02-15 20:33:07 GMT 45.564354 -2.626556 40,000 35 441 0
2020-02-15 20:33:02 GMT 45.555679 -2.635513 40,000 35 442 0
2020-02-15 20:32:58 GMT 45.547897 -2.643485 40,000 35 441 0
2020-02-15 20:32:51 GMT 45.538239 -2.653466 40,000 35 441 0
2020-02-15 20:32:47 GMT 45.530464 -2.661438 40,000 35 441 0
2020-02-15 20:32:41 GMT 45.521057 -2.671152 40,000 35 442 0
2020-02-15 20:32:37 GMT 45.513840 -2.678571 40,000 35 441 0
2020-02-15 20:32:30 GMT 45.503448 -2.689362 40,000 35 442 0
2020-02-15 20:32:26 GMT 45.496758 -2.696206 40,000 35 441 0
2020-02-15 20:32:23 GMT 45.491547 -2.701590 40,000 35 441 0
2020-02-15 20:32:20 GMT 45.486145 -2.707125 40,000 35 441 0
2020-02-15 20:32:16 GMT 45.478455 -2.715062 40,000 35 441 0
2020-02-15 20:32:12 GMT 45.468887 -2.724936 40,000 35 441 0
2020-02-15 20:32:09 GMT 45.463196 -2.730772 40,000 35 441 0
2020-02-15 20:32:06 GMT 45.463196 -2.730772 40,000 35 441 0
2020-02-15 20:32:01 GMT 45.455093 -2.739146 40,000 35 441 0
2020-02-15 20:31:58 GMT 45.449890 -2.744489 40,000 35 441 0
2020-02-15 20:31:55 GMT 45.445831 -2.748659 40,000 35 441 0
2020-02-15 20:31:49 GMT 45.435013 -2.759792 40,000 35 441 0
2020-02-15 20:31:46 GMT 45.428604 -2.766397 40,000 35 441 0
2020-02-15 20:31:42 GMT 45.423615 -2.771497 40,000 35 441 0
2020-02-15 20:31:39 GMT 45.417946 -2.777330 40,000 35 441 0
2020-02-15 20:31:35 GMT 45.411335 -2.784163 40,000 35 441 64
2020-02-15 20:31:31 GMT 45.406128 -2.789481 40,000 35 441 0
2020-02-15 20:31:28 GMT 45.401001 -2.794778 40,000 35 441 0
2020-02-15 20:31:25 GMT 45.381916 -2.814309 40,000 35 441 0
2020-02-15 20:31:17 GMT 45.381916 -2.814309 40,000 35 441 0
2020-02-15 20:31:14 GMT 45.377632 -2.818730 40,000 35 441 0
2020-02-15 20:31:09 GMT 45.369205 -2.827372 40,000 35 441 0
2020-02-15 20:31:05 GMT 45.361359 -2.835388 40,000 35 441 0
2020-02-15 20:30:59 GMT 45.352249 -2.844674 40,000 35 441 0
2020-02-15 20:30:54 GMT 45.337234 -2.860107 40,000 35 441 0
2020-02-15 20:30:50 GMT 45.337234 -2.860107 40,000 35 441 0
2020-02-15 20:30:44 GMT 45.327118 -2.870374 40,000 35 439 0
2020-02-15 20:30:40 GMT 45.321533 -2.876129 40,000 35 441 0
2020-02-15 20:30:33 GMT 45.309769 -2.888096 40,000 35 439 0
2020-02-15 20:30:24 GMT 45.288162 -2.910200 40,000 35 440 0
2020-02-15 20:30:15 GMT 45.275162 -2.923475 40,000 35 439 0
2020-02-15 20:30:09 GMT 45.270721 -2.928053 40,000 35 439 0
2020-02-15 20:30:04 GMT 45.261475 -2.937469 40,000 35 439 0
2020-02-15 20:29:58 GMT 45.251987 -2.947150 40,000 35 439 0
2020-02-15 20:29:53 GMT 45.241280 -2.958069 40,000 35 439 0
2020-02-15 20:29:49 GMT 45.237137 -2.962222 40,000 35 439 0
2020-02-15 20:29:42 GMT 45.225594 -2.974012 40,000 35 439 0
2020-02-15 20:29:39 GMT 45.220657 -2.979037 40,000 35 439 0
2020-02-15 20:29:31 GMT 45.207577 -2.992301 40,000 35 440 0
2020-02-15 20:29:27 GMT 45.201153 -2.998799 40,000 35 440 0
2020-02-15 20:29:23 GMT 45.193378 -3.006703 40,000 35 440 0
2020-02-15 20:29:20 GMT 45.187683 -3.012477 40,000 35 440 0
2020-02-15 20:29:12 GMT 45.168365 -3.032161 40,000 35 441 0
2020-02-15 20:29:09 GMT 45.160263 -3.040401 40,000 35 441 0
2020-02-15 20:28:59 GMT 45.152039 -3.048706 40,000 35 440 0
2020-02-15 20:28:49 GMT 45.137558 -3.063420 40,000 35 442 0
2020-02-15 20:28:45 GMT 45.131607 -3.069502 40,000 35 442 0
2020-02-15 20:28:41 GMT 45.123779 -3.077414 40,000 35 442 0
2020-02-15 20:28:37 GMT 45.118568 -3.082670 40,000 35 442 0
2020-02-15 20:28:31 GMT 45.106277 -3.095130 40,000 35 442 0
2020-02-15 20:28:20 GMT 45.089630 -3.112008 40,000 35 441 0
2020-02-15 20:28:10 GMT 45.049019 -3.153009 40,000 35 441 0
2020-02-15 20:27:57 GMT 45.049019 -3.153009 40,000 35 441 0
2020-02-15 20:27:48 GMT 45.037033 -3.165174 40,000 35 441 0
2020-02-15 20:27:42 GMT 45.025406 -3.176880 40,000 35 441 0
2020-02-15 20:27:38 GMT 45.020599 -3.181719 40,000 35 441 0
2020-02-15 20:27:34 GMT 45.013874 -3.188514 40,000 35 441 0
2020-02-15 20:27:26 GMT 44.998325 -3.204256 40,000 35 441 0
2020-02-15 20:27:18 GMT 44.978027 -3.224749 40,000 35 441 0
2020-02-15 20:27:13 GMT 44.966400 -3.236455 40,000 35 441 0
2020-02-15 20:27:06 GMT 44.966400 -3.236455 40,000 35 441 0
2020-02-15 20:27:03 GMT 44.960526 -3.242374 40,000 35 441 0
2020-02-15 20:26:57 GMT 44.952164 -3.250776 40,000 35 440 0
2020-02-15 20:26:46 GMT 44.934174 -3.268902 40,000 35 440 0
2020-02-15 20:26:36 GMT 44.917229 -3.285850 40,000 35 441 0
2020-02-15 20:26:28 GMT 44.902176 -3.300934 40,000 35 441 0
2020-02-15 20:26:23 GMT 44.895771 -3.307354 40,000 35 441 0
2020-02-15 20:26:14 GMT 44.878281 -3.324934 40,000 35 442 -64
2020-02-15 20:26:03 GMT 44.862991 -3.340302 40,000 35 441 0
2020-02-15 20:25:54 GMT 44.847244 -3.356062 40,000 35 440 0
2020-02-15 20:25:43 GMT 44.827286 -3.376072 40,000 35 440 64
2020-02-15 20:25:32 GMT 44.811604 -3.391761 40,000 35 441 0
2020-02-15 20:25:23 GMT 44.795822 -3.407570 40,000 35 441 0
2020-02-15 20:25:16 GMT 44.783485 -3.419830 40,000 35 441 0
2020-02-15 20:25:11 GMT 44.773590 -3.429696 40,000 35 441 0
2020-02-15 20:24:59 GMT 44.755966 -3.447287 40,000 35 441 0
2020-02-15 20:24:52 GMT 44.743973 -3.459255 40,000 35 441 0
2020-02-15 20:24:46 GMT 44.732666 -3.470503 40,000 35 441 0
2020-02-15 20:24:40 GMT 44.724133 -3.479049 40,000 35 441 0
2020-02-15 20:24:34 GMT 44.714962 -3.488159 40,000 35 441 0
2020-02-15 20:24:31 GMT 44.709595 -3.493522 40,000 35 441 0
2020-02-15 20:24:19 GMT 44.688892 -3.514084 40,000 35 441 0
2020-02-15 20:24:08 GMT 44.671432 -3.531435 40,000 35 441 0
2020-02-15 20:24:02 GMT 44.661938 -3.540813 40,000 35 441 0
2020-02-15 20:23:59 GMT 44.647064 -3.555581 40,000 35 441 0
2020-02-15 20:23:54 GMT 44.647064 -3.555581 40,000 35 441 0
2020-02-15 20:23:49 GMT 44.639236 -3.563298 40,000 35 440 0
2020-02-15 20:23:38 GMT 44.621796 -3.580562 40,000 35 439 0
2020-02-15 20:23:31 GMT 44.609940 -3.592328 40,000 35 439 0
2020-02-15 20:23:26 GMT 44.601654 -3.600568 40,000 35 439 0
2020-02-15 20:23:23 GMT 44.596672 -3.605525 40,000 35 439 0
2020-02-15 20:23:16 GMT 44.584991 -3.617052 40,000 35 439 0
2020-02-15 20:23:10 GMT 44.574932 -3.626962 40,000 35 439 0
2020-02-15 20:23:07 GMT 44.570206 -3.631635 40,000 35 439 0
2020-02-15 20:23:04 GMT 44.563751 -3.638044 40,000 35 439 0
2020-02-15 20:22:57 GMT 44.551666 -3.649946 40,000 35 439 0
2020-02-15 20:22:47 GMT 44.536743 -3.664660 40,000 35 438 0
2020-02-15 20:22:42 GMT 44.528320 -3.673030 40,000 35 438 0
2020-02-15 20:22:36 GMT 44.518845 -3.682382 40,000 35 438 0
2020-02-15 20:22:26 GMT 44.501953 -3.699057 40,000 35 438 0
2020-02-15 20:22:22 GMT 44.494995 -3.705924 40,000 35 439 0
2020-02-15 20:22:14 GMT 44.482910 -3.717826 40,000 35 439 0
2020-02-15 20:22:05 GMT 44.467163 -3.733324 40,000 35 439 0
2020-02-15 20:21:58 GMT 44.456177 -3.744194 40,000 35 439 0
2020-02-15 20:21:55 GMT 44.450542 -3.749687 40,000 35 439 0
2020-02-15 20:21:52 GMT 44.445145 -3.754970 40,000 35 439 0
2020-02-15 20:21:46 GMT 44.433380 -3.766545 40,000 35 439 0
2020-02-15 20:21:42 GMT 44.428150 -3.771660 40,000 35 438 0
2020-02-15 20:21:36 GMT 44.418503 -3.781193 40,000 35 438 0
2020-02-15 20:21:29 GMT 44.407295 -3.792226 40,000 35 438 0
2020-02-15 20:21:24 GMT 44.398872 -3.800533 40,000 35 438 0
2020-02-15 20:21:16 GMT 44.384033 -3.815133 40,000 35 439 0
2020-02-15 20:21:08 GMT 44.372383 -3.826592 40,000 35 438 0
2020-02-15 20:21:01 GMT 44.360870 -3.837891 40,000 35 438 0
2020-02-15 20:20:52 GMT 44.346035 -3.852450 40,000 35 438 0
2020-02-15 20:20:44 GMT 44.331711 -3.866534 40,000 35 438 0
2020-02-15 20:20:41 GMT 44.326668 -3.871542 40,000 35 438 0
2020-02-15 20:20:31 GMT 44.311771 -3.886146 40,000 35 438 0
2020-02-15 20:20:28 GMT 44.307037 -3.890795 40,000 35 438 -64
2020-02-15 20:20:21 GMT 44.295273 -3.902305 40,000 35 438 0
2020-02-15 20:20:10 GMT 44.277603 -3.919507 40,000 35 438 0
2020-02-15 20:19:59 GMT 44.258423 -3.938206 40,000 35 438 0
2020-02-15 20:19:53 GMT 44.242783 -3.953537 40,000 23 424 0
2020-02-15 20:19:49 GMT 44.242783 -3.953537 40,000 23 424 0
2020-02-15 20:19:43 GMT 44.231735 -3.964233 40,000 35 438 0
2020-02-15 20:19:38 GMT 44.224209 -3.971625 40,000 23 424 0
2020-02-15 20:19:33 GMT 44.213837 -3.981759 40,000 34 438 0
2020-02-15 20:19:28 GMT 44.206612 -3.988774 40,000 34 438 0
2020-02-15 20:19:23 GMT 44.198139 -3.997014 40,000 34 438 0
2020-02-15 20:19:17 GMT 44.189438 -4.005475 40,000 34 438 0
2020-02-15 20:19:13 GMT 44.182076 -4.012626 40,000 34 438 0
2020-02-15 20:19:07 GMT 44.172226 -4.022210 40,000 34 438 0
2020-02-15 20:19:03 GMT 44.164764 -4.029491 40,000 34 438 0
2020-02-15 20:18:58 GMT 44.157120 -4.036901 40,000 34 438 0
2020-02-15 20:18:52 GMT 44.148094 -4.045650 40,000 34 438 0
2020-02-15 20:18:47 GMT 44.139908 -4.053636 40,000 23 424 0
2020-02-15 20:18:43 GMT 44.131519 -4.061802 40,000 34 438 0
2020-02-15 20:18:36 GMT 44.121746 -4.071285 40,000 34 438 0
2020-02-15 20:18:32 GMT 44.113861 -4.078930 40,000 34 438 0
2020-02-15 20:18:27 GMT 44.105499 -4.087110 40,000 34 438 0
2020-02-15 20:18:16 GMT 44.088318 -4.103713 40,000 34 438 0
2020-02-15 20:18:05 GMT 44.070419 -4.121087 40,000 34 438 0
2020-02-15 20:17:56 GMT 44.053986 -4.136991 40,000 34 438 0
2020-02-15 20:17:42 GMT 44.032196 -4.158070 40,000 34 438 0
2020-02-15 20:17:32 GMT 44.014488 -4.175066 40,000 33 438 0
2020-02-15 20:17:24 GMT 44.001362 -4.186445 40,000 29 433 0
2020-02-15 20:17:18 GMT 43.991226 -4.194414 40,000 28 433 -64
2020-02-15 20:17:11 GMT 43.976410 -4.204690 40,000 24 428 0
2020-02-15 20:17:03 GMT 43.963211 -4.212937 40,000 23 425 0
2020-02-15 20:17:00 GMT 43.958359 -4.215876 40,000 23 425 -64
2020-02-15 20:16:50 GMT 43.939541 -4.227448 40,000 23 425 0
2020-02-15 20:16:40 GMT 43.921829 -4.238295 40,000 23 425 0
2020-02-15 20:16:29 GMT 43.902786 -4.249984 40,000 23 425 0
2020-02-15 20:16:20 GMT 43.885445 -4.260603 40,000 23 424 0
2020-02-15 20:16:09 GMT 43.866714 -4.272085 40,000 23 424 0
2020-02-15 20:15:59 GMT 43.848404 -4.283199 40,000 23 424 0
2020-02-15 20:15:47 GMT 43.826836 -4.296374 40,000 23 424 0
2020-02-15 20:15:38 GMT 43.811939 -4.305398 40,000 23 424 0
2020-02-15 20:15:28 GMT 43.790852 -4.318216 40,000 23 422 0
2020-02-15 20:15:14 GMT 43.757446 -4.338514 40,000 23 423 0
2020-02-15 20:15:08 GMT 43.757446 -4.338514 40,000 23 423 0
2020-02-15 20:14:58 GMT 43.739086 -4.349670 40,000 23 422 0
2020-02-15 20:14:47 GMT 43.719498 -4.361572 40,000 23 422 0
2020-02-15 20:14:38 GMT 43.702263 -4.372035 40,000 23 422 0
2020-02-15 20:14:27 GMT 43.684662 -4.382715 40,000 23 422 0
2020-02-15 20:14:15 GMT 43.662872 -4.395936 40,000 23 422 0
2020-02-15 20:14:05 GMT 43.645096 -4.406695 40,000 23 421 0
2020-02-15 20:13:54 GMT 43.625313 -4.418662 40,000 23 421 0
2020-02-15 20:13:51 GMT 43.618004 -4.423043 40,000 23 421 0
2020-02-15 20:13:47 GMT 43.610836 -4.427359 40,000 23 421 0
2020-02-15 20:13:38 GMT 43.596401 -4.436057 40,000 23 419 0
2020-02-15 20:13:35 GMT 43.591141 -4.439243 40,000 23 421 0
2020-02-15 20:13:28 GMT 43.579010 -4.446525 40,000 23 419 0
2020-02-15 20:13:25 GMT 43.573406 -4.449921 40,000 23 421 0
2020-02-15 20:13:22 GMT 43.567356 -4.453517 40,000 23 420 0
2020-02-15 20:13:19 GMT 43.563259 -4.456002 40,000 23 420 0
2020-02-15 20:13:16 GMT 43.557018 -4.459730 40,000 23 420 0
2020-02-15 20:13:12 GMT 43.549896 -4.464046 40,000 23 420 0
2020-02-15 20:13:04 GMT 43.535751 -4.472521 40,000 23 420 0
2020-02-15 20:12:53 GMT 43.517124 -4.483730 40,000 23 420 0
2020-02-15 20:12:45 GMT 43.501995 -4.492754 40,000 23 420 0
2020-02-15 20:12:39 GMT 43.489655 -4.500243 40,000 23 420 0
2020-02-15 20:12:34 GMT 43.483330 -4.504002 40,000 23 420 0
2020-02-15 20:12:28 GMT 43.471783 -4.510999 40,000 23 419 0
2020-02-15 20:12:21 GMT 43.457912 -4.519370 40,000 23 419 0
2020-02-15 20:12:17 GMT 43.443573 -4.528002 40,000 23 419 0
2020-02-15 20:12:05 GMT 43.429886 -4.536307 40,000 23 419 0
2020-02-15 20:11:59 GMT 43.421631 -4.541250 40,000 23 419 0
2020-02-15 20:11:54 GMT 43.411697 -4.547254 40,000 23 419 0
2020-02-15 20:11:50 GMT 43.404144 -4.551806 40,000 23 419 0
2020-02-15 20:11:47 GMT 43.398743 -4.555047 40,000 23 419 0
2020-02-15 20:11:44 GMT 43.393482 -4.558214 40,000 23 420 0
2020-02-15 20:11:40 GMT 43.386032 -4.562661 40,000 23 420 0
2020-02-15 20:11:34 GMT 43.375809 -4.568843 40,000 23 420 0
2020-02-15 20:11:27 GMT 43.362015 -4.577048 40,000 23 420 0
2020-02-15 20:11:23 GMT 43.357079 -4.580056 40,000 23 420 0
2020-02-15 20:11:17 GMT 43.346931 -4.586138 40,000 23 420 64
2020-02-15 20:11:12 GMT 43.336716 -4.592285 40,000 23 420 0
2020-02-15 20:11:08 GMT 43.329845 -4.596340 40,000 23 420 0
2020-02-15 20:11:02 GMT 43.318813 -4.602945 40,000 23 420 0
2020-02-15 20:10:58 GMT 43.312500 -4.606721 40,000 23 420 0
2020-02-15 20:10:53 GMT 43.303070 -4.612342 40,000 23 420 0
2020-02-15 20:10:43 GMT 43.284641 -4.623348 40,000 23 419 -64
2020-02-15 20:10:35 GMT 43.266720 -4.634072 40,025 23 418 0
2020-02-15 20:10:22 GMT 43.248333 -4.645124 40,025 23 416 0
2020-02-15 20:10:11 GMT 43.228134 -4.657181 40,000 23 416 64
2020-02-15 20:09:57 GMT 43.199497 -4.674290 40,000 23 416 0
2020-02-15 20:09:47 GMT 43.185719 -4.682465 40,000 23 416 0
2020-02-15 20:09:41 GMT 43.176548 -4.687892 40,000 23 416 0
2020-02-15 20:09:34 GMT 43.164024 -4.695347 40,000 23 416 0
2020-02-15 20:09:31 GMT 43.158646 -4.698508 40,000 23 416 0
2020-02-15 20:09:22 GMT 43.140888 -4.709015 40,000 23 416 64
2020-02-15 20:09:11 GMT 43.122688 -4.719805 40,000 23 416 64
2020-02-15 20:09:01 GMT 43.104584 -4.730572 40,000 23 416 0
2020-02-15 20:08:50 GMT 43.086411 -4.741303 40,000 23 416 0
2020-02-15 20:08:46 GMT 43.078812 -4.745838 40,000 23 416 0
2020-02-15 20:08:40 GMT 43.067917 -4.752290 40,000 23 415 -64
2020-02-15 20:08:31 GMT 43.051788 -4.761919 40,000 23 415 0
2020-02-15 20:08:25 GMT 43.041222 -4.768132 40,000 23 414 0
2020-02-15 20:08:19 GMT 43.030701 -4.774410 40,000 23 414 64
2020-02-15 20:08:16 GMT 43.023560 -4.778606 40,000 23 414 64
2020-02-15 20:08:10 GMT 43.015060 -4.783696 40,000 23 414 0
2020-02-15 20:08:05 GMT 43.006447 -4.788797 40,000 23 415 64
2020-02-15 20:08:00 GMT 42.997276 -4.794159 40,000 23 415 -64
2020-02-15 20:07:53 GMT 42.985683 -4.801025 40,000 23 415 0
2020-02-15 20:07:50 GMT 42.978699 -4.805113 40,000 23 415 64
2020-02-15 20:07:44 GMT 42.970642 -4.809904 40,000 23 415 64
2020-02-15 20:07:39 GMT 42.961121 -4.815525 40,000 23 415 -64
2020-02-15 20:07:27 GMT 42.939789 -4.828108 40,000 23 415 0
2020-02-15 20:07:24 GMT 42.933289 -4.832004 40,000 23 415 0
2020-02-15 20:07:18 GMT 42.924683 -4.837050 40,000 23 415 -64
2020-02-15 20:07:08 GMT 42.907150 -4.847325 39,975 23 415 128
2020-02-15 20:06:58 GMT 42.888622 -4.858311 40,000 23 416 -64
2020-02-15 20:06:54 GMT 42.881332 -4.862600 40,000 23 416 -64
2020-02-15 20:06:49 GMT 42.867813 -4.870605 40,000 23 416 0
2020-02-15 20:06:36 GMT 42.850124 -4.881003 40,000 23 416 64
2020-02-15 20:06:28 GMT 42.835419 -4.889683 40,000 23 416 64
2020-02-15 20:06:16 GMT 42.814140 -4.902257 40,000 23 416 0
2020-02-15 20:06:07 GMT 42.799255 -4.910951 40,000 23 415 -64
2020-02-15 20:05:56 GMT 42.780109 -4.922130 40,000 23 415 0
2020-02-15 20:05:47 GMT 42.763275 -4.931987 40,000 23 416 128
2020-02-15 20:05:37 GMT 42.745197 -4.942570 40,000 23 415 -64
2020-02-15 20:05:26 GMT 42.726974 -4.953273 40,000 23 412 128
2020-02-15 20:05:22 GMT 42.718689 -4.958142 40,000 23 412 128
2020-02-15 20:05:17 GMT 42.707863 -4.964415 40,025 23 413 0
2020-02-15 20:05:06 GMT 42.691521 -4.973996 40,000 23 413 -64
2020-02-15 20:04:56 GMT 42.673271 -4.984727 40,000 23 412 -64
2020-02-15 20:04:44 GMT 42.652496 -4.996844 40,000 23 412 64
2020-02-15 20:04:39 GMT 42.643665 -5.002037 40,000 23 412 0
2020-02-15 20:04:36 GMT 42.638123 -5.005271 40,000 23 412 0
2020-02-15 20:04:33 GMT 42.632633 -5.008488 40,000 23 412 -64
2020-02-15 20:04:29 GMT 42.625977 -5.012384 40,000 23 412 -64
2020-02-15 20:04:25 GMT 42.619904 -5.015883 40,000 23 412 -64
2020-02-15 20:04:16 GMT 42.584450 -5.036593 40,000 23 405 0
2020-02-15 20:04:05 GMT 42.584450 -5.036593 40,000 23 411 -128
2020-02-15 20:03:55 GMT 42.566757 -5.046907 40,000 23 410 0
2020-02-15 20:03:44 GMT 42.547676 -5.057990 40,000 23 409 64
2020-02-15 20:03:35 GMT 42.531097 -5.067631 40,025 23 408 192
2020-02-15 20:03:24 GMT 42.495491 -5.088267 40,000 23 405 0
2020-02-15 20:03:14 GMT 42.495491 -5.088267 40,000 23 406 64
2020-02-15 20:03:03 GMT 42.477264 -5.098842 40,000 23 405 64
2020-02-15 20:02:54 GMT 42.460556 -5.108518 40,000 23 404 64
2020-02-15 20:02:44 GMT 42.442703 -5.118880 40,000 23 404 0
2020-02-15 20:02:36 GMT 42.430408 -5.126016 40,000 23 404 -64
2020-02-15 20:02:33 GMT 42.425034 -5.129117 40,000 23 404 0
2020-02-15 20:02:27 GMT 42.414440 -5.135278 40,000 23 404 128
2020-02-15 20:02:23 GMT 42.407318 -5.139417 39,975 23 405 -64
2020-02-15 20:02:16 GMT 42.395599 -5.146221 40,000 23 405 0
2020-02-15 20:02:13 GMT 42.390003 -5.149458 40,000 23 405 0
2020-02-15 20:02:02 GMT 42.371895 -5.159870 40,000 23 405 64
2020-02-15 20:01:58 GMT 42.364304 -5.164277 40,000 23 404 192
2020-02-15 20:01:52 GMT 42.354668 -5.169834 40,025 23 405 -64
2020-02-15 20:01:42 GMT 42.337631 -5.179607 40,000 23 403 0
2020-02-15 20:01:36 GMT 42.324596 -5.187080 40,000 23 401 64
2020-02-15 20:01:32 GMT 42.319988 -5.189763 40,000 23 402 64
2020-02-15 20:01:21 GMT 42.301369 -5.200493 40,000 23 401 -128
2020-02-15 20:01:11 GMT 42.284546 -5.210204 40,000 23 401 0
2020-02-15 20:01:02 GMT 42.266968 -5.220316 40,000 23 401 0
2020-02-15 20:00:55 GMT 42.257652 -5.225724 40,000 23 401 0
2020-02-15 20:00:51 GMT 42.250160 -5.230067 40,000 23 401 0
2020-02-15 20:00:46 GMT 42.240429 -5.235688 40,000 23 401 0
2020-02-15 20:00:40 GMT 42.232361 -5.240354 40,000 23 401 0
2020-02-15 20:00:35 GMT 42.223579 -5.245397 40,000 23 401 0
2020-02-15 20:00:30 GMT 42.215385 -5.250123 40,000 23 401 0
2020-02-15 20:00:25 GMT 42.206085 -5.255522 40,000 23 401 0
2020-02-15 20:00:20 GMT 42.197277 -5.260535 40,000 23 401 0
2020-02-15 20:00:15 GMT 42.188324 -5.265697 40,000 23 401 64
2020-02-15 20:00:11 GMT 42.180267 -5.270316 40,000 23 402 -128
2020-02-15 20:00:04 GMT 42.168686 -5.277058 40,000 23 402 64
2020-02-15 20:00:00 GMT 42.163559 -5.279992 40,000 23 402 64
2020-02-15 19:59:54 GMT 42.153378 -5.285829 40,000 23 402 64
2020-02-15 19:59:49 GMT 42.144882 -5.290728 40,000 23 402 0
2020-02-15 19:59:40 GMT 42.128632 -5.300092 40,000 23 403 -64
2020-02-15 19:59:34 GMT 42.119202 -5.305460 40,000 23 403 0
2020-02-15 19:59:29 GMT 42.110737 -5.310293 40,000 23 402 0
2020-02-15 19:59:23 GMT 42.099335 -5.316821 40,000 22 401 0
2020-02-15 19:59:20 GMT 42.093418 -5.320193 40,000 22 401 0
2020-02-15 19:59:14 GMT 42.083691 -5.325750 40,000 23 401 -64
2020-02-15 19:59:09 GMT 42.075867 -5.330221 40,000 23 401 -64
2020-02-15 19:59:03 GMT 42.066238 -5.335735 40,000 23 400 0
2020-02-15 19:58:59 GMT 42.058178 -5.340314 40,000 23 398 0
2020-02-15 19:58:53 GMT 42.047798 -5.346254 40,000 23 398 0
2020-02-15 19:58:48 GMT 42.040859 -5.350214 40,000 23 398 0
2020-02-15 19:58:43 GMT 42.031128 -5.355773 40,000 23 398 64
2020-02-15 19:58:38 GMT 42.023987 -5.359830 40,000 23 399 0
2020-02-15 19:58:33 GMT 42.014091 -5.365544 40,000 23 398 64
2020-02-15 19:58:29 GMT 41.996521 -5.375560 40,000 23 399 0
2020-02-15 19:58:22 GMT 41.996521 -5.375560 40,000 23 399 0
2020-02-15 19:58:18 GMT 41.989059 -5.379805 40,000 23 399 -64
2020-02-15 19:58:11 GMT 41.975037 -5.387836 40,000 23 399 0
2020-02-15 19:58:07 GMT 41.971497 -5.389880 40,000 23 400 64
2020-02-15 19:58:02 GMT 41.961628 -5.395501 40,000 23 400 0
2020-02-15 19:57:58 GMT 41.953621 -5.400100 40,000 23 400 0
2020-02-15 19:57:51 GMT 41.944126 -5.405593 40,000 23 401 64
2020-02-15 19:57:47 GMT 41.936630 -5.409872 40,000 23 401 0
2020-02-15 19:57:41 GMT 41.926388 -5.415749 40,000 23 401 0
2020-02-15 19:57:38 GMT 41.919407 -5.419773 40,000 23 401 -64
2020-02-15 19:57:31 GMT 41.909225 -5.425561 40,000 22 401 0
2020-02-15 19:57:27 GMT 41.902508 -5.429418 40,000 22 401 64
2020-02-15 19:57:21 GMT 41.891380 -5.435677 40,000 22 401 64
2020-02-15 19:57:15 GMT 41.881653 -5.441234 40,000 22 401 64
2020-02-15 19:57:11 GMT 41.874207 -5.445411 40,000 22 401 -64
2020-02-15 19:57:06 GMT 41.867157 -5.449406 40,000 22 401 64
2020-02-15 19:57:01 GMT 41.856651 -5.455351 40,000 22 401 0
2020-02-15 19:56:57 GMT 41.850220 -5.458957 40,000 22 401 64
2020-02-15 19:56:48 GMT 41.830116 -5.470297 40,000 22 401 0
2020-02-15 19:56:40 GMT 41.821335 -5.475249 40,000 23 402 0
2020-02-15 19:56:35 GMT 41.814148 -5.479369 40,000 23 402 0
2020-02-15 19:56:30 GMT 41.804142 -5.485052 40,000 23 402 0
2020-02-15 19:56:26 GMT 41.796974 -5.489204 40,000 23 401 0
2020-02-15 19:56:20 GMT 41.786407 -5.495272 40,000 23 402 -64
2020-02-15 19:56:15 GMT 41.778946 -5.499531 40,000 23 401 0
2020-02-15 19:56:09 GMT 41.769058 -5.505212 40,000 23 401 -64
2020-02-15 19:56:05 GMT 41.762238 -5.509082 40,000 23 401 0
2020-02-15 19:56:00 GMT 41.754227 -5.513639 40,000 22 401 0
2020-02-15 19:55:57 GMT 41.746792 -5.517883 40,000 22 400 64
2020-02-15 19:55:54 GMT 41.744339 -5.519257 40,000 22 401 64
2020-02-15 19:55:49 GMT 41.727329 -5.528806 40,000 22 401 0
2020-02-15 19:55:44 GMT 41.727329 -5.528806 40,000 22 401 0
2020-02-15 19:55:39 GMT 41.715508 -5.535449 40,000 22 401 -64
2020-02-15 19:55:34 GMT 41.709362 -5.538898 40,000 22 400 -64
2020-02-15 19:55:28 GMT 41.698334 -5.545037 40,000 22 400 0
2020-02-15 19:55:24 GMT 41.692337 -5.548345 40,000 22 400 0
2020-02-15 19:55:21 GMT 41.685699 -5.552091 40,000 22 400 0
2020-02-15 19:55:18 GMT 41.680573 -5.554962 40,000 22 400 64
2020-02-15 19:55:14 GMT 41.674683 -5.558252 40,000 22 400 0
2020-02-15 19:55:09 GMT 41.667572 -5.562203 40,000 22 400 0
2020-02-15 19:55:06 GMT 41.660065 -5.566448 40,000 23 401 0
2020-02-15 19:55:00 GMT 41.651230 -5.571504 40,000 23 401 0
2020-02-15 19:54:57 GMT 41.644329 -5.575434 40,000 23 401 0
2020-02-15 19:54:53 GMT 41.638184 -5.578947 40,000 23 401 -64
2020-02-15 19:54:47 GMT 41.624954 -5.586423 40,000 23 401 0
2020-02-15 19:54:39 GMT 41.615326 -5.591849 40,000 23 401 0
2020-02-15 19:54:33 GMT 41.604858 -5.597846 40,000 23 401 0
2020-02-15 19:54:29 GMT 41.599045 -5.601155 40,000 23 400 128
2020-02-15 19:54:24 GMT 41.587723 -5.607626 40,000 25 402 192
2020-02-15 19:54:20 GMT 41.581062 -5.611395 40,000 23 401 -128
2020-02-15 19:54:17 GMT 41.576065 -5.614263 40,000 23 401 0
2020-02-15 19:54:12 GMT 41.570171 -5.617591 40,000 25 402 192
2020-02-15 19:54:06 GMT 41.559322 -5.624170 40,000 26 402 128
2020-02-15 19:54:03 GMT 41.552902 -5.628433 40,000 27 404 -192
2020-02-15 19:53:58 GMT 41.546265 -5.633115 40,000 29 405 0
2020-02-15 19:53:55 GMT 41.535965 -5.640980 40,000 30 406 -64
2020-02-15 19:53:52 GMT 41.535965 -5.640980 40,000 32 407 64
2020-02-15 19:53:45 GMT 41.524319 -5.651124 40,000 35 410 -64
2020-02-15 19:53:42 GMT 41.520267 -5.654893 40,000 36 411 64
2020-02-15 19:53:36 GMT 41.509281 -5.665943 40,000 39 414 0
2020-02-15 19:53:32 GMT 41.504951 -5.670670 40,000 41 416 0
2020-02-15 19:53:27 GMT 41.496853 -5.680187 40,000 42 419 -64
2020-02-15 19:53:22 GMT 41.483955 -5.695836 40,000 42 419 0
2020-02-15 19:53:17 GMT 41.483955 -5.695836 40,000 42 419 0
2020-02-15 19:53:14 GMT 41.479671 -5.701010 40,000 42 419 128
2020-02-15 19:53:11 GMT 41.474087 -5.707845 40,000 42 420 -64
2020-02-15 19:53:05 GMT 41.460262 -5.724516 40,000 42 420 -64
2020-02-15 19:53:01 GMT 41.460262 -5.724516 40,000 42 420 -64
2020-02-15 19:52:56 GMT 41.454025 -5.732054 40,000 42 419 64
2020-02-15 19:52:51 GMT 41.445877 -5.741979 39,975 42 421 64
2020-02-15 19:52:45 GMT 41.438553 -5.750906 40,000 42 420 -128
2020-02-15 19:52:40 GMT 41.430840 -5.760157 40,000 42 420 -64
2020-02-15 19:52:34 GMT 41.422714 -5.770007 40,000 42 419 0
2020-02-15 19:52:31 GMT 41.416260 -5.777810 40,000 42 419 0
2020-02-15 19:52:25 GMT 41.409611 -5.785899 40,000 42 419 -64
2020-02-15 19:52:22 GMT 41.404083 -5.792604 40,000 42 419 -64
2020-02-15 19:52:19 GMT 41.400513 -5.796911 40,025 42 418 0
2020-02-15 19:52:16 GMT 41.394527 -5.804103 40,025 42 418 0
2020-02-15 19:52:12 GMT 41.390945 -5.808382 40,000 42 418 128
2020-02-15 19:52:08 GMT 41.384720 -5.815918 40,000 42 418 0
2020-02-15 19:52:05 GMT 41.380600 -5.820923 40,000 42 418 0
2020-02-15 19:52:02 GMT 41.376022 -5.826477 40,000 42 418 64
2020-02-15 19:51:59 GMT 41.372509 -5.830682 40,000 42 419 0
2020-02-15 19:51:56 GMT 41.368423 -5.835632 40,000 42 419 0
2020-02-15 19:51:52 GMT 41.361420 -5.844116 40,000 42 419 0
2020-02-15 19:51:48 GMT 41.354828 -5.852051 40,000 42 419 -64
2020-02-15 19:51:44 GMT 41.346439 -5.862142 40,000 42 419 0
2020-02-15 19:51:41 GMT 41.340500 -5.869385 40,000 42 418 0
2020-02-15 19:51:37 GMT 41.340500 -5.869385 40,000 42 419 -64
2020-02-15 19:51:32 GMT 41.332352 -5.879211 40,000 42 418 -64
2020-02-15 19:51:28 GMT 41.327122 -5.885551 40,000 42 418 0
2020-02-15 19:51:20 GMT 41.316467 -5.898376 40,000 42 417 0
2020-02-15 19:51:17 GMT 41.302963 -5.914856 40,000 42 417 0
2020-02-15 19:51:11 GMT 41.302963 -5.914856 40,000 42 417 128
2020-02-15 19:51:08 GMT 41.298634 -5.920133 40,000 42 418 64
2020-02-15 19:51:01 GMT 41.288811 -5.932055 40,000 42 418 128
2020-02-15 19:50:58 GMT 41.283268 -5.938859 39,975 42 418 128
2020-02-15 19:50:51 GMT 41.274353 -5.949646 40,000 41 417 -320
2020-02-15 19:50:46 GMT 41.267349 -5.958008 40,025 42 416 0
2020-02-15 19:50:41 GMT 41.259296 -5.967699 40,000 42 416 64
2020-02-15 19:50:37 GMT 41.254211 -5.973755 40,000 42 415 128
2020-02-15 19:50:33 GMT 41.248028 -5.981182 40,000 42 415 0
2020-02-15 19:50:25 GMT 41.235088 -5.996725 40,000 42 414 0
2020-02-15 19:50:21 GMT 41.231598 -6.000916 40,000 42 414 0
2020-02-15 19:50:18 GMT 41.224102 -6.009834 40,000 41 414 0
2020-02-15 19:50:10 GMT 41.215816 -6.019696 40,000 41 415 0
2020-02-15 19:50:07 GMT 41.205643 -6.031921 40,000 42 415 0
2020-02-15 19:50:00 GMT 41.201569 -6.036800 40,000 42 415 -64
2020-02-15 19:49:54 GMT 41.193512 -6.046448 40,000 42 415 0
2020-02-15 19:49:50 GMT 41.186768 -6.054528 40,000 42 415 0
2020-02-15 19:49:45 GMT 41.179085 -6.063766 40,000 42 415 0
2020-02-15 19:49:39 GMT 41.172638 -6.071594 40,000 42 415 -64
2020-02-15 19:49:34 GMT 41.164398 -6.081482 40,000 42 415 64
2020-02-15 19:49:29 GMT 41.157623 -6.089609 40,000 42 415 -64
2020-02-15 19:49:24 GMT 41.150223 -6.098536 40,000 42 416 -64
2020-02-15 19:49:19 GMT 41.144348 -6.105591 40,000 42 414 64
2020-02-15 19:49:16 GMT 41.139496 -6.111389 40,000 42 414 64
2020-02-15 19:49:13 GMT 41.136024 -6.115577 40,000 42 414 64
2020-02-15 19:49:08 GMT 41.128204 -6.125003 40,000 42 415 0
2020-02-15 19:49:04 GMT 41.121048 -6.133606 40,000 42 415 0
2020-02-15 19:48:57 GMT 41.106079 -6.151489 40,000 42 415 -64
2020-02-15 19:48:53 GMT 41.106079 -6.151489 40,000 42 415 64
2020-02-15 19:48:48 GMT 41.099899 -6.158961 40,000 42 415 64
2020-02-15 19:48:44 GMT 41.087036 -6.174377 40,000 42 415 0
2020-02-15 19:48:40 GMT 41.087036 -6.174377 40,000 42 415 64
2020-02-15 19:48:37 GMT 41.084679 -6.177188 40,000 42 416 64
2020-02-15 19:48:32 GMT 41.077332 -6.185974 40,000 42 416 64
2020-02-15 19:48:28 GMT 41.070740 -6.193787 40,000 41 416 0
2020-02-15 19:48:23 GMT 41.062656 -6.203343 40,000 41 416 0
2020-02-15 19:48:18 GMT 41.056549 -6.210571 40,000 41 417 -64
2020-02-15 19:48:15 GMT 41.052246 -6.215637 40,000 41 416 0
2020-02-15 19:48:12 GMT 41.047943 -6.220764 40,000 41 416 0
2020-02-15 19:48:08 GMT 41.041214 -6.228699 40,000 41 416 0
2020-02-15 19:48:04 GMT 41.036404 -6.234367 40,000 41 416 0
2020-02-15 19:48:01 GMT 41.032837 -6.238525 40,000 41 417 0
2020-02-15 19:47:57 GMT 41.026905 -6.245540 40,000 41 417 0
2020-02-15 19:47:54 GMT 41.022575 -6.250596 40,000 40 416 0
2020-02-15 19:47:51 GMT 41.018463 -6.255371 40,000 40 416 64
2020-02-15 19:47:46 GMT 41.010891 -6.263705 40,000 38 414 64
2020-02-15 19:47:42 GMT 41.002991 -6.271851 40,000 35 411 0
2020-02-15 19:47:36 GMT 40.996277 -6.278250 40,000 33 410 0
2020-02-15 19:47:32 GMT 40.990036 -6.283805 40,000 24 399 0
2020-02-15 19:47:27 GMT 40.980057 -6.292053 40,000 30 406 -64
2020-02-15 19:47:22 GMT 40.973740 -6.296875 40,000 26 403 0
2020-02-15 19:47:14 GMT 40.958286 -6.307401 40,000 25 401 64
2020-02-15 19:47:10 GMT 40.953213 -6.310459 40,000 24 400 64
2020-02-15 19:47:06 GMT 40.946732 -6.314331 40,000 23 399 0
2020-02-15 19:47:02 GMT 40.939819 -6.318359 40,000 24 399 0
2020-02-15 19:46:56 GMT 40.928833 -6.324829 40,000 24 399 0
2020-02-15 19:46:53 GMT 40.924538 -6.327376 40,000 24 400 0
2020-02-15 19:46:50 GMT 40.919601 -6.330247 40,000 23 400 0
2020-02-15 19:46:46 GMT 40.905453 -6.338550 40,000 23 400 0
2020-02-15 19:46:42 GMT 40.905453 -6.338550 40,000 23 400 64
2020-02-15 19:46:36 GMT 40.894279 -6.344979 40,000 23 399 64
2020-02-15 19:46:31 GMT 40.887669 -6.348849 40,000 23 399 0
2020-02-15 19:46:25 GMT 40.877106 -6.354980 40,000 23 399 -128
2020-02-15 19:46:21 GMT 40.871098 -6.358462 40,000 23 399 0
2020-02-15 19:46:15 GMT 40.860249 -6.364767 40,000 23 400 -64
2020-02-15 19:46:11 GMT 40.854218 -6.368225 40,000 23 400 0
2020-02-15 19:46:04 GMT 40.835995 -6.378750 40,000 23 400 0
2020-02-15 19:46:01 GMT 40.835995 -6.378750 40,000 23 400 0
2020-02-15 19:45:53 GMT 40.823685 -6.385864 40,000 23 401 0
2020-02-15 19:45:50 GMT 40.816406 -6.390076 40,000 23 402 64
2020-02-15 19:45:45 GMT 40.808296 -6.394730 40,000 23 401 0
2020-02-15 19:45:40 GMT 40.801685 -6.398537 40,000 23 402 0
2020-02-15 19:45:34 GMT 40.790359 -6.405090 40,000 23 401 0
2020-02-15 19:45:31 GMT 40.785534 -6.407838 40,000 23 402 0
2020-02-15 19:45:22 GMT 40.770172 -6.416702 40,000 23 402 0
2020-02-15 19:45:19 GMT 40.764912 -6.419761 40,000 23 403 0
2020-02-15 19:45:14 GMT 40.750671 -6.427979 40,000 23 403 0
2020-02-15 19:45:10 GMT 40.733917 -6.437561 40,000 23 403 0
2020-02-15 19:45:02 GMT 40.733917 -6.437561 40,000 23 402 64
2020-02-15 19:44:59 GMT 40.731354 -6.439087 40,000 23 403 -64
2020-02-15 19:44:54 GMT 40.721199 -6.444917 40,000 23 403 0
2020-02-15 19:44:51 GMT 40.716156 -6.447815 40,000 23 403 -64
2020-02-15 19:44:43 GMT 40.702972 -6.455383 40,000 23 404 0
2020-02-15 19:44:40 GMT 40.698715 -6.457886 40,000 23 404 0
2020-02-15 19:44:33 GMT 40.686329 -6.465080 40,000 23 404 0
2020-02-15 19:44:30 GMT 40.680908 -6.468201 40,000 23 404 0
2020-02-15 19:44:23 GMT 40.668228 -6.475586 40,000 23 406 64
2020-02-15 19:44:19 GMT 40.662781 -6.478760 40,000 23 405 0
2020-02-15 19:44:13 GMT 40.652298 -6.484863 40,000 23 406 0
2020-02-15 19:44:10 GMT 40.645432 -6.488831 40,000 23 406 -64
2020-02-15 19:44:02 GMT 40.632656 -6.496291 40,000 23 406 64
2020-02-15 19:43:58 GMT 40.626465 -6.499911 40,000 23 406 0
2020-02-15 19:43:51 GMT 40.614990 -6.506531 40,000 23 406 0
2020-02-15 19:43:48 GMT 40.597778 -6.516541 40,000 23 408 0
2020-02-15 19:43:42 GMT 40.597778 -6.516541 40,000 23 407 64
2020-02-15 19:43:39 GMT 40.593475 -6.519043 40,000 23 408 0
2020-02-15 19:43:31 GMT 40.580017 -6.526794 39,975 23 408 0
2020-02-15 19:43:28 GMT 40.575485 -6.529419 40,000 23 408 0
2020-02-15 19:43:24 GMT 40.565460 -6.535156 40,000 23 408 0
2020-02-15 19:43:19 GMT 40.557861 -6.539551 40,000 23 409 0
2020-02-15 19:43:11 GMT 40.546234 -6.546204 40,000 23 409 0
2020-02-15 19:43:08 GMT 40.539738 -6.549911 40,000 23 409 0
2020-02-15 19:43:01 GMT 40.522514 -6.559712 40,000 23 410 0
2020-02-15 19:42:58 GMT 40.522514 -6.559712 40,000 23 410 0
2020-02-15 19:42:51 GMT 40.509384 -6.567200 40,000 23 411 -64
2020-02-15 19:42:48 GMT 40.505985 -6.569075 40,000 23 411 0
2020-02-15 19:42:45 GMT 40.500641 -6.572144 40,000 23 412 64
2020-02-15 19:42:42 GMT 40.494816 -6.575442 40,000 23 411 64
2020-02-15 19:42:39 GMT 40.488464 -6.579102 40,000 23 411 64
2020-02-15 19:42:35 GMT 40.483200 -6.582092 40,000 23 412 0
2020-02-15 19:42:31 GMT 40.474503 -6.587036 40,000 23 412 0
2020-02-15 19:42:28 GMT 40.468468 -6.590424 40,000 23 412 0
2020-02-15 19:42:25 GMT 40.465813 -6.591922 40,000 23 412 -64
2020-02-15 19:42:18 GMT 40.451519 -6.600161 40,000 23 412 0
2020-02-15 19:42:15 GMT 40.443054 -6.604980 40,000 23 412 0
2020-02-15 19:42:09 GMT 40.436737 -6.608582 40,000 23 412 0
2020-02-15 19:42:05 GMT 40.429688 -6.612708 40,000 23 412 0
2020-02-15 19:42:00 GMT 40.421036 -6.617615 40,000 23 412 0
2020-02-15 19:41:57 GMT 40.417007 -6.619934 40,000 23 412 0
2020-02-15 19:41:54 GMT 40.410648 -6.623632 40,000 23 412 0
2020-02-15 19:41:50 GMT 40.403366 -6.627808 40,000 23 412 -128
2020-02-15 19:41:47 GMT 40.396225 -6.631897 40,000 23 412 -128
2020-02-15 19:41:42 GMT 40.388256 -6.636491 40,000 23 413 128
2020-02-15 19:41:38 GMT 40.381531 -6.640381 40,000 23 413 320
2020-02-15 19:41:34 GMT 40.375313 -6.643982 39,975 23 414 -128
2020-02-15 19:41:30 GMT 40.367340 -6.648560 40,000 23 414 0
2020-02-15 19:41:27 GMT 40.363312 -6.650879 40,000 23 414 64
2020-02-15 19:41:24 GMT 40.358135 -6.653845 40,000 23 414 128
2020-02-15 19:41:19 GMT 40.349991 -6.658508 40,000 23 414 0
2020-02-15 19:41:16 GMT 40.344776 -6.661460 40,000 23 414 0
2020-02-15 19:41:13 GMT 40.340073 -6.664144 40,000 23 414 0
2020-02-15 19:41:09 GMT 40.331974 -6.668764 40,000 23 413 0
2020-02-15 19:41:06 GMT 40.325691 -6.672322 40,000 23 413 0
2020-02-15 19:41:01 GMT 40.317406 -6.677066 40,000 23 413 0
2020-02-15 19:40:58 GMT 40.313541 -6.679251 40,000 23 413 0
2020-02-15 19:40:55 GMT 40.307144 -6.682922 40,000 23 413 -64
2020-02-15 19:40:52 GMT 40.300873 -6.686523 40,000 23 413 0
2020-02-15 19:40:48 GMT 40.291718 -6.691711 40,000 23 413 0
2020-02-15 19:40:41 GMT 40.274296 -6.701723 40,000 23 413 -64
2020-02-15 19:40:36 GMT 40.274296 -6.701723 40,000 23 413 -64
2020-02-15 19:40:32 GMT 40.267452 -6.705593 40,000 23 414 64
2020-02-15 19:40:29 GMT 40.260178 -6.709717 40,000 23 413 128
2020-02-15 19:40:25 GMT 40.255909 -6.712147 40,000 23 413 -128
2020-02-15 19:40:22 GMT 40.249763 -6.715643 40,000 23 413 -64
2020-02-15 19:40:18 GMT 40.242142 -6.720032 40,000 23 413 0
2020-02-15 19:40:14 GMT 40.235054 -6.724070 40,000 23 414 64
2020-02-15 19:40:11 GMT 40.224930 -6.729858 40,000 23 416 0
2020-02-15 19:40:08 GMT 40.218155 -6.733683 40,000 23 415 0
2020-02-15 19:40:04 GMT 40.218155 -6.733683 40,000 23 415 0
2020-02-15 19:40:01 GMT 40.213593 -6.736305 40,000 23 415 -64
2020-02-15 19:39:58 GMT 40.207169 -6.739990 40,000 23 416 -64
2020-02-15 19:39:54 GMT 40.200989 -6.743469 40,000 23 416 -64
2020-02-15 19:39:51 GMT 40.195950 -6.746355 40,000 23 416 64
2020-02-15 19:39:48 GMT 40.183502 -6.753418 40,000 23 417 -64
2020-02-15 19:39:44 GMT 40.176407 -6.757446 40,000 23 417 -64
2020-02-15 19:39:41 GMT 40.176407 -6.757446 40,000 23 417 0
2020-02-15 19:39:37 GMT 40.169041 -6.761586 40,000 23 418 0
2020-02-15 19:39:34 GMT 40.163548 -6.764707 40,000 23 418 0
2020-02-15 19:39:30 GMT 40.157593 -6.768066 40,000 23 419 0
2020-02-15 19:39:27 GMT 40.152466 -6.770996 40,000 23 419 0
2020-02-15 19:39:23 GMT 40.144882 -6.775194 40,000 23 418 0
2020-02-15 19:39:20 GMT 40.140644 -6.777628 40,000 23 419 0
2020-02-15 19:39:17 GMT 40.127285 -6.785181 40,000 23 419 64
2020-02-15 19:39:13 GMT 40.118683 -6.790039 40,000 23 419 0
2020-02-15 19:39:08 GMT 40.118683 -6.790039 40,000 23 419 -64
2020-02-15 19:39:05 GMT 40.109207 -6.795410 40,000 23 420 -64
2020-02-15 19:38:59 GMT 40.101124 -6.799975 40,000 23 420 0
2020-02-15 19:38:56 GMT 40.098221 -6.801636 40,000 23 420 64
2020-02-15 19:38:53 GMT 40.090897 -6.805786 40,000 23 420 64
2020-02-15 19:38:50 GMT 40.086090 -6.808533 40,000 23 420 0
2020-02-15 19:38:47 GMT 40.080498 -6.811711 40,000 23 420 0
2020-02-15 19:38:44 GMT 40.074123 -6.815331 40,000 23 420 0
2020-02-15 19:38:40 GMT 40.066628 -6.819576 40,000 23 419 0
2020-02-15 19:38:36 GMT 40.062202 -6.822073 40,000 23 420 0
2020-02-15 19:38:32 GMT 40.054382 -6.826505 39,950 23 419 0
2020-02-15 19:38:29 GMT 40.049835 -6.829102 40,000 23 419 64
2020-02-15 19:38:26 GMT 40.043674 -6.832560 40,000 23 419 0
2020-02-15 19:38:22 GMT 40.031158 -6.839661 40,000 23 418 -64
2020-02-15 19:38:15 GMT 40.023937 -6.843733 40,000 23 418 0
2020-02-15 19:38:11 GMT 40.012768 -6.850038 40,000 23 418 0
2020-02-15 19:38:08 GMT 40.007355 -6.853088 40,000 23 418 -64
2020-02-15 19:38:05 GMT 40.007355 -6.853088 40,000 23 418 -64
2020-02-15 19:38:02 GMT 39.998940 -6.857841 40,000 23 418 0
2020-02-15 19:37:59 GMT 39.989410 -6.863220 40,000 23 415 0
2020-02-15 19:37:51 GMT 39.982178 -6.867310 40,000 23 417 0
2020-02-15 19:37:48 GMT 39.976780 -6.870325 40,000 23 417 0
2020-02-15 19:37:43 GMT 39.968960 -6.874757 40,000 23 417 0
2020-02-15 19:37:40 GMT 39.963043 -6.878113 40,000 23 417 0
2020-02-15 19:37:37 GMT 39.957462 -6.881249 40,000 23 416 0
2020-02-15 19:37:34 GMT 39.952972 -6.883789 40,000 23 416 0
2020-02-15 19:37:31 GMT 39.941116 -6.890442 40,000 23 416 -64
2020-02-15 19:37:28 GMT 39.935623 -6.893555 40,000 23 415 0
2020-02-15 19:37:25 GMT 39.927338 -6.898193 40,000 23 415 0
2020-02-15 19:37:20 GMT 39.927338 -6.898193 40,000 23 414 0
2020-02-15 19:37:17 GMT 39.922760 -6.900818 40,000 23 415 0
2020-02-15 19:37:13 GMT 39.913700 -6.905945 40,000 23 414 0
2020-02-15 19:37:08 GMT 39.898808 -6.914368 40,000 23 414 0
2020-02-15 19:37:05 GMT 39.898808 -6.914368 40,000 23 413 0
2020-02-15 19:36:58 GMT 39.887215 -6.920898 40,000 23 412 0
2020-02-15 19:36:54 GMT 39.881954 -6.923828 40,000 23 412 0
2020-02-15 19:36:51 GMT 39.869431 -6.930880 40,000 23 412 0
2020-02-15 19:36:47 GMT 39.869431 -6.930880 40,000 23 412 0
2020-02-15 19:36:44 GMT 39.863846 -6.934045 40,000 23 412 64
2020-02-15 19:36:40 GMT 39.856396 -6.938232 40,000 23 412 0
2020-02-15 19:36:37 GMT 39.838348 -6.948375 39,975 23 412 0
2020-02-15 19:36:30 GMT 39.838348 -6.948375 39,975 23 412 64
2020-02-15 19:36:26 GMT 39.832329 -6.951782 39,975 23 412 128
2020-02-15 19:36:23 GMT 39.828049 -6.954226 39,975 23 412 128
2020-02-15 19:36:19 GMT 39.819992 -6.958704 39,950 23 412 192
2020-02-15 19:36:16 GMT 39.814957 -6.961570 39,950 23 412 192
2020-02-15 19:36:12 GMT 39.808727 -6.965027 39,925 23 411 128
2020-02-15 19:36:09 GMT 39.802628 -6.968506 39,925 23 411 128
2020-02-15 19:36:06 GMT 39.797287 -6.971482 39,925 23 410 192
2020-02-15 19:36:02 GMT 39.791382 -6.974826 39,900 23 410 192
2020-02-15 19:35:58 GMT 39.784561 -6.978647 39,900 23 409 192
2020-02-15 19:35:55 GMT 39.779072 -6.981689 39,900 23 410 320
2020-02-15 19:35:51 GMT 39.764317 -6.990051 39,850 23 410 256
2020-02-15 19:35:45 GMT 39.753662 -6.996082 39,825 23 408 320
2020-02-15 19:35:41 GMT 39.753662 -6.996082 39,825 23 408 320
2020-02-15 19:35:36 GMT 39.744965 -7.000978 39,800 23 408 320
2020-02-15 19:35:33 GMT 39.740799 -7.003307 39,775 23 407 256
2020-02-15 19:35:30 GMT 39.735546 -7.006226 39,775 23 407 256
2020-02-15 19:35:27 GMT 39.729309 -7.009705 39,750 23 407 256
2020-02-15 19:35:23 GMT 39.717068 -7.016541 39,725 23 405 384
2020-02-15 19:35:20 GMT 39.709351 -7.020801 39,700 23 404 512
2020-02-15 19:35:16 GMT 39.709351 -7.020801 39,675 23 405 512
2020-02-15 19:35:13 GMT 39.706871 -7.022217 39,675 23 405 448
2020-02-15 19:35:10 GMT 39.700928 -7.025518 39,650 23 404 384
2020-02-15 19:35:07 GMT 39.694565 -7.029041 39,625 23 404 384
2020-02-15 19:35:04 GMT 39.690262 -7.031429 39,550 23 404 512
2020-02-15 19:35:01 GMT 39.684525 -7.034607 39,575 23 404 576
2020-02-15 19:34:58 GMT 39.673306 -7.040771 39,525 23 404 384
2020-02-15 19:34:54 GMT 39.673306 -7.040771 39,525 22 403 320
2020-02-15 19:34:50 GMT 39.658222 -7.049072 39,475 22 402 576
2020-02-15 19:34:44 GMT 39.655746 -7.050476 39,450 23 403 576
2020-02-15 19:34:40 GMT 39.648560 -7.054417 39,325 23 401 448
2020-02-15 19:34:36 GMT 39.641418 -7.058350 39,375 23 402 448
2020-02-15 19:34:33 GMT 39.636887 -7.060865 39,350 23 402 512
2020-02-15 19:34:30 GMT 39.630665 -7.064270 39,325 23 401 512
2020-02-15 19:34:26 GMT 39.624519 -7.067688 39,250 23 401 384
2020-02-15 19:34:23 GMT 39.619911 -7.070251 39,275 23 401 384
2020-02-15 19:34:20 GMT 39.614792 -7.073059 39,250 23 400 64
2020-02-15 19:34:17 GMT 39.602829 -7.079673 39,275 23 399 0
2020-02-15 19:34:14 GMT 39.602829 -7.079673 39,250 23 397 -64
2020-02-15 19:34:08 GMT 39.594585 -7.084229 39,275 23 396 -64
2020-02-15 19:34:05 GMT 39.587769 -7.088033 39,250 23 396 128
2020-02-15 19:33:59 GMT 39.579346 -7.092690 39,225 23 391 384
2020-02-15 19:33:55 GMT 39.572754 -7.096375 39,200 23 395 128
2020-02-15 19:33:52 GMT 39.561024 -7.102844 39,200 23 393 384
2020-02-15 19:33:48 GMT 39.561024 -7.102844 39,150 23 391 320
2020-02-15 19:33:45 GMT 39.556694 -7.105286 39,175 23 392 256
2020-02-15 19:33:42 GMT 39.550919 -7.108513 39,150 23 392 256
2020-02-15 19:33:39 GMT 39.545105 -7.111797 39,100 23 391 448
2020-02-15 19:33:36 GMT 39.539978 -7.114663 39,100 23 391 384
2020-02-15 19:33:32 GMT 39.534164 -7.117946 39,100 23 390 384
2020-02-15 19:33:29 GMT 39.529678 -7.120454 39,075 23 390 384
2020-02-15 19:33:26 GMT 39.522617 -7.124451 39,050 23 390 640
2020-02-15 19:33:20 GMT 39.514191 -7.129211 38,800 23 390 704
2020-02-15 19:33:17 GMT 39.501526 -7.136277 38,925 23 390 768
2020-02-15 19:33:14 GMT 39.501526 -7.136277 38,900 23 390 768
2020-02-15 19:33:10 GMT 39.497337 -7.138672 38,825 23 390 640
2020-02-15 19:33:07 GMT 39.493286 -7.140934 38,825 23 390 640
2020-02-15 19:33:04 GMT 39.488400 -7.143677 38,800 23 390 512
2020-02-15 19:33:01 GMT 39.483421 -7.146423 38,775 23 390 960
2020-02-15 19:32:57 GMT 39.477322 -7.149841 38,625 23 390 1536
2020-02-15 19:32:54 GMT 39.471039 -7.153381 38,600 23 391 1536
2020-02-15 19:32:49 GMT 39.463730 -7.157471 38,475 23 392 1280
2020-02-15 19:32:46 GMT 39.457722 -7.160828 38,475 23 392 1280
2020-02-15 19:32:43 GMT 39.448975 -7.165773 38,325 23 393 1344
2020-02-15 19:32:37 GMT 39.442291 -7.169475 38,225 23 395 1344
2020-02-15 19:32:34 GMT 39.438171 -7.171753 38,025 23 393 -128
2020-02-15 19:32:30 GMT 39.431980 -7.175232 38,075 23 395 1024
2020-02-15 19:32:27 GMT 39.426682 -7.178132 38,075 23 395 832
2020-02-15 19:32:24 GMT 39.414474 -7.184875 38,000 23 394 192
2020-02-15 19:32:20 GMT 39.409012 -7.187925 38,000 23 393 -64
2020-02-15 19:32:17 GMT 39.409012 -7.187925 38,000 23 392 -64
2020-02-15 19:32:14 GMT 39.403839 -7.190791 38,000 23 392 -128
2020-02-15 19:32:10 GMT 39.397251 -7.194397 38,000 23 393 128
2020-02-15 19:32:06 GMT 39.390594 -7.198120 38,000 23 391 0
2020-02-15 19:32:03 GMT 39.379749 -7.204102 38,000 23 391 0
2020-02-15 19:31:59 GMT 39.379749 -7.204102 38,000 23 391 0
2020-02-15 19:31:56 GMT 39.373810 -7.207389 38,000 23 391 0
2020-02-15 19:31:53 GMT 39.369644 -7.209658 38,000 23 391 0
2020-02-15 19:31:50 GMT 39.363735 -7.212891 38,000 23 391 0
2020-02-15 19:31:46 GMT 39.352524 -7.219092 38,000 23 391 0
2020-02-15 19:31:43 GMT 39.352524 -7.219092 38,000 23 391 0
2020-02-15 19:31:40 GMT 39.348175 -7.221481 38,000 23 391 0
2020-02-15 19:31:37 GMT 39.341251 -7.225281 38,000 23 391 -64
2020-02-15 19:31:34 GMT 39.337944 -7.227173 38,000 23 391 -64
2020-02-15 19:31:31 GMT 39.331429 -7.230774 38,000 23 391 0
2020-02-15 19:31:27 GMT 39.319462 -7.237427 38,000 23 391 0
2020-02-15 19:31:24 GMT 39.319462 -7.237427 38,000 23 391 -64
2020-02-15 19:31:20 GMT 39.314392 -7.240229 38,000 23 391 0
2020-02-15 19:31:17 GMT 39.309643 -7.242859 38,000 23 391 0
2020-02-15 19:31:13 GMT 39.302902 -7.246618 38,000 23 391 64
2020-02-15 19:31:10 GMT 39.294510 -7.251282 38,000 23 391 64
2020-02-15 19:31:07 GMT 39.292881 -7.252197 38,000 23 391 0
2020-02-15 19:31:04 GMT 39.287716 -7.255066 38,000 23 391 -64
2020-02-15 19:31:01 GMT 39.277954 -7.260470 38,000 23 391 0
2020-02-15 19:30:58 GMT 39.277954 -7.260470 38,000 23 391 0
2020-02-15 19:30:55 GMT 39.273750 -7.262817 38,000 23 391 0
2020-02-15 19:30:52 GMT 39.267838 -7.266083 38,000 23 391 0
2020-02-15 19:30:49 GMT 39.263306 -7.268531 38,000 23 391 0
2020-02-15 19:30:46 GMT 39.256989 -7.272054 38,000 23 391 0
2020-02-15 19:30:41 GMT 39.249664 -7.276114 38,000 23 391 0
2020-02-15 19:30:38 GMT 39.244419 -7.278992 38,000 23 391 0
2020-02-15 19:30:35 GMT 39.239639 -7.281607 38,000 23 392 0
2020-02-15 19:30:32 GMT 39.232597 -7.285583 38,000 23 393 0
2020-02-15 19:30:29 GMT 39.229057 -7.287476 38,000 23 392 0
2020-02-15 19:30:26 GMT 39.224991 -7.289787 38,000 23 392 0
2020-02-15 19:30:23 GMT 39.219635 -7.292713 38,000 23 393 -64
2020-02-15 19:30:19 GMT 39.205582 -7.300475 38,000 23 393 128
2020-02-15 19:30:15 GMT 39.205582 -7.300475 38,000 23 393 0
2020-02-15 19:30:11 GMT 39.199722 -7.303699 38,000 23 393 -64
2020-02-15 19:30:08 GMT 39.191631 -7.308167 38,000 23 393 0
2020-02-15 19:30:05 GMT 39.189957 -7.309082 38,000 23 394 -128
2020-02-15 19:30:01 GMT 39.182465 -7.313193 38,000 23 393 -128
2020-02-15 19:29:58 GMT 39.177387 -7.315979 38,000 23 394 64
2020-02-15 19:29:55 GMT 39.172497 -7.318665 38,000 23 395 0
2020-02-15 19:29:52 GMT 39.166634 -7.321960 38,000 23 395 0
2020-02-15 19:29:49 GMT 39.161465 -7.324768 38,000 23 395 0
2020-02-15 19:29:45 GMT 39.154633 -7.328538 38,000 23 395 64
2020-02-15 19:29:41 GMT 39.148087 -7.332120 38,000 23 394 64
2020-02-15 19:29:37 GMT 39.143169 -7.334839 38,000 23 394 0
2020-02-15 19:29:34 GMT 39.137512 -7.337972 38,000 23 395 64
2020-02-15 19:29:30 GMT 39.130463 -7.341853 38,000 23 395 64
2020-02-15 19:29:26 GMT 39.119942 -7.347595 38,000 23 395 0
2020-02-15 19:29:20 GMT 39.105881 -7.355287 38,000 23 396 -64
2020-02-15 19:29:16 GMT 39.105881 -7.355287 38,000 23 396 -64
2020-02-15 19:29:13 GMT 39.096588 -7.360362 38,000 23 396 -64
2020-02-15 19:29:10 GMT 39.096588 -7.360362 38,000 23 396 0
2020-02-15 19:29:07 GMT 39.091873 -7.362989 38,000 23 396 0
2020-02-15 19:29:03 GMT 39.085537 -7.366455 38,000 23 396 0
2020-02-15 19:29:00 GMT 39.074596 -7.372437 38,000 23 396 0
2020-02-15 19:28:54 GMT 39.069199 -7.375366 38,000 23 396 0
2020-02-15 19:28:50 GMT 39.062775 -7.378845 38,000 23 396 -64
2020-02-15 19:28:47 GMT 39.057770 -7.381618 38,000 22 397 0
2020-02-15 19:28:43 GMT 39.051414 -7.385010 38,000 22 397 0
2020-02-15 19:28:39 GMT 39.044666 -7.388733 38,000 22 397 64
2020-02-15 19:28:36 GMT 39.034004 -7.394470 38,000 22 397 -64
2020-02-15 19:28:33 GMT 39.034004 -7.394470 38,000 22 397 -64
2020-02-15 19:28:30 GMT 39.028702 -7.397381 38,000 22 397 0
2020-02-15 19:28:27 GMT 39.023857 -7.400024 38,000 22 397 -64
2020-02-15 19:28:24 GMT 39.019043 -7.402636 38,000 22 397 64
2020-02-15 19:28:21 GMT 39.014874 -7.404846 38,000 22 397 128
2020-02-15 19:28:18 GMT 39.009609 -7.407715 38,000 22 397 128
2020-02-15 19:28:15 GMT 39.004440 -7.410457 38,000 22 398 64
2020-02-15 19:28:12 GMT 38.994530 -7.415833 38,000 22 398 -64
2020-02-15 19:28:06 GMT 38.979675 -7.423832 38,000 22 398 64
2020-02-15 19:28:02 GMT 38.979675 -7.423832 38,000 22 398 192
2020-02-15 19:27:58 GMT 38.975098 -7.426340 38,000 22 398 64
2020-02-15 19:27:55 GMT 38.970016 -7.429086 38,000 23 398 -128
2020-02-15 19:27:52 GMT 38.963478 -7.432617 38,000 22 398 -128
2020-02-15 19:27:49 GMT 38.959942 -7.434570 38,000 22 398 0
2020-02-15 19:27:45 GMT 38.953144 -7.438232 38,000 23 398 0
2020-02-15 19:27:41 GMT 38.946346 -7.441956 38,000 23 397 0
2020-02-15 19:27:38 GMT 38.942047 -7.444312 38,000 23 397 64
2020-02-15 19:27:35 GMT 38.931126 -7.450256 38,000 23 398 0
2020-02-15 19:27:32 GMT 38.931126 -7.450256 38,000 23 398 0
2020-02-15 19:27:28 GMT 38.919525 -7.456672 38,000 23 398 0
2020-02-15 19:27:21 GMT 38.911560 -7.461030 38,000 23 397 64
2020-02-15 19:27:18 GMT 38.907166 -7.463478 38,000 23 397 64
2020-02-15 19:27:15 GMT 38.902027 -7.466309 38,000 23 398 0
2020-02-15 19:27:11 GMT 38.896179 -7.469569 38,000 23 398 0
2020-02-15 19:27:08 GMT 38.891045 -7.472412 38,000 23 398 64
2020-02-15 19:27:05 GMT 38.885056 -7.475778 38,000 23 398 0
2020-02-15 19:27:01 GMT 38.879406 -7.478943 38,000 23 397 0
2020-02-15 19:26:58 GMT 38.872841 -7.482605 38,000 23 397 0
2020-02-15 19:26:54 GMT 38.867523 -7.485511 38,000 23 398 0
2020-02-15 19:26:51 GMT 38.857361 -7.491064 38,000 22 398 0
2020-02-15 19:26:45 GMT 38.850220 -7.494885 38,000 22 398 -64
2020-02-15 19:26:41 GMT 38.844452 -7.497990 38,000 22 398 -64
2020-02-15 19:26:38 GMT 38.838684 -7.501095 38,000 22 399 0
2020-02-15 19:26:35 GMT 38.828896 -7.506409 38,000 22 399 0
2020-02-15 19:26:29 GMT 38.824036 -7.509036 38,000 22 399 0
2020-02-15 19:26:26 GMT 38.819092 -7.511663 38,000 22 400 0
2020-02-15 19:26:22 GMT 38.812134 -7.515425 38,000 22 400 0
2020-02-15 19:26:19 GMT 38.807007 -7.518231 38,000 23 401 0
2020-02-15 19:26:15 GMT 38.801430 -7.521240 38,000 23 402 0
2020-02-15 19:26:12 GMT 38.791260 -7.526769 38,000 23 404 -64
2020-02-15 19:26:06 GMT 38.780529 -7.532654 38,000 23 404 0
2020-02-15 19:26:03 GMT 38.773041 -7.536741 38,000 23 405 0
2020-02-15 19:26:00 GMT 38.773041 -7.536741 38,000 23 405 0
2020-02-15 19:25:56 GMT 38.767773 -7.539612 38,000 23 406 0
2020-02-15 19:25:52 GMT 38.760509 -7.543579 38,000 23 406 64
2020-02-15 19:25:49 GMT 38.755157 -7.546448 38,000 23 406 64
2020-02-15 19:25:46 GMT 38.750061 -7.549220 38,000 23 406 64
2020-02-15 19:25:43 GMT 38.745895 -7.551488 38,000 23 406 0
2020-02-15 19:25:40 GMT 38.741409 -7.553937 38,000 22 407 0
2020-02-15 19:25:37 GMT 38.734497 -7.557698 38,000 23 406 -64
2020-02-15 19:25:34 GMT 38.725735 -7.562439 38,000 23 406 0
2020-02-15 19:25:28 GMT 38.720524 -7.565247 38,000 23 406 0
2020-02-15 19:25:25 GMT 38.707809 -7.572148 38,000 23 406 0
2020-02-15 19:25:22 GMT 38.707809 -7.572148 38,000 23 406 -64
2020-02-15 19:25:19 GMT 38.703392 -7.574585 38,025 23 405 768
2020-02-15 19:25:15 GMT 38.696503 -7.578308 38,025 23 406 -64
2020-02-15 19:25:12 GMT 38.691986 -7.580750 38,025 23 406 -64
2020-02-15 19:25:09 GMT 38.685234 -7.584412 38,025 22 406 192
2020-02-15 19:25:03 GMT 38.674622 -7.590179 37,950 23 405 832
2020-02-15 19:24:57 GMT 38.663910 -7.595971 37,875 23 405 832
2020-02-15 19:24:52 GMT 38.657364 -7.599554 37,850 23 405 768
2020-02-15 19:24:47 GMT 38.648830 -7.604187 37,350 23 404 768
2020-02-15 19:24:44 GMT 38.643585 -7.607017 37,700 23 404 896
2020-02-15 19:24:41 GMT 38.639099 -7.609465 37,675 23 403 960
2020-02-15 19:24:38 GMT 38.631912 -7.613406 37,625 23 403 704
2020-02-15 19:24:32 GMT 38.621830 -7.618835 37,575 23 403 640
2020-02-15 19:24:27 GMT 38.607880 -7.626422 37,475 22 402 1152
2020-02-15 19:24:24 GMT 38.607880 -7.626422 37,450 22 402 704
2020-02-15 19:24:19 GMT 38.599766 -7.630798 37,400 22 401 320
2020-02-15 19:24:16 GMT 38.595482 -7.633118 37,375 22 401 1088
2020-02-15 19:24:13 GMT 38.585892 -7.638306 37,275 22 401 1472
2020-02-15 19:24:10 GMT 38.585892 -7.638306 37,225 22 401 1472
2020-02-15 19:24:07 GMT 38.580322 -7.641349 37,200 23 403 1472
2020-02-15 19:24:04 GMT 38.575279 -7.644104 37,050 23 403 1408
2020-02-15 19:24:01 GMT 38.569275 -7.647339 37,000 23 404 1472
2020-02-15 19:23:58 GMT 38.564617 -7.649841 36,925 23 404 1472
2020-02-15 19:23:55 GMT 38.557526 -7.653709 36,850 23 404 1472
2020-02-15 19:23:50 GMT 38.551025 -7.657166 36,700 23 405 1472
2020-02-15 19:23:46 GMT 38.544067 -7.660993 36,625 23 406 1408
2020-02-15 19:23:43 GMT 38.537521 -7.664516 36,575 23 406 1408
2020-02-15 19:23:40 GMT 38.532990 -7.666964 36,475 23 406 1408
2020-02-15 19:23:37 GMT 38.527889 -7.669678 36,375 22 407 1408
2020-02-15 19:23:34 GMT 38.522095 -7.672816 36,375 22 407 1408
2020-02-15 19:23:31 GMT 38.516739 -7.675741 36,275 23 407 1408
2020-02-15 19:23:28 GMT 38.512573 -7.678010 36,225 23 408 1408
2020-02-15 19:23:24 GMT 38.504562 -7.682309 36,175 23 408 1472
2020-02-15 19:23:20 GMT 38.496735 -7.686549 36,025 22 409 1472
2020-02-15 19:23:15 GMT 38.489044 -7.690669 35,900 23 409 1536
2020-02-15 19:23:12 GMT 38.484695 -7.693057 35,825 23 410 1600
2020-02-15 19:23:09 GMT 38.479706 -7.695740 35,775 23 410 1600
2020-02-15 19:23:05 GMT 38.469746 -7.701172 35,625 22 392 1792
2020-02-15 19:23:00 GMT 38.462063 -7.705322 35,500 23 411 1664
2020-02-15 19:22:57 GMT 38.459152 -7.706909 35,425 22 412 1664
2020-02-15 19:22:51 GMT 38.447495 -7.713196 35,275 22 413 1664
2020-02-15 19:22:47 GMT 38.441162 -7.716614 35,175 23 414 1600
2020-02-15 19:22:43 GMT 38.432053 -7.721538 34,900 22 415 1792
2020-02-15 19:22:40 GMT 38.428162 -7.723628 34,975 22 414 1728
2020-02-15 19:22:36 GMT 38.414886 -7.730733 34,800 22 415 1792
2020-02-15 19:22:30 GMT 38.411091 -7.732823 34,675 22 416 1728
2020-02-15 19:22:26 GMT 38.402985 -7.737122 34,500 22 418 1792
2020-02-15 19:22:23 GMT 38.396942 -7.740394 34,500 22 418 1792
2020-02-15 19:22:19 GMT 38.390606 -7.743809 34,275 22 419 1792
2020-02-15 19:22:13 GMT 38.377384 -7.750854 34,125 22 419 1536
2020-02-15 19:22:09 GMT 38.372219 -7.753661 34,100 22 419 1408
2020-02-15 19:22:06 GMT 38.368195 -7.755822 34,000 22 419 1216
2020-02-15 19:22:03 GMT 38.362907 -7.758617 33,950 22 419 1216
2020-02-15 19:21:59 GMT 38.355412 -7.762677 33,900 22 419 1152
2020-02-15 19:21:56 GMT 38.351028 -7.764996 33,850 22 418 1152
2020-02-15 19:21:53 GMT 38.344803 -7.768327 33,775 22 418 1088
2020-02-15 19:21:49 GMT 38.337296 -7.772360 33,675 22 417 1152
2020-02-15 19:21:46 GMT 38.333588 -7.774347 33,675 22 416 1152
2020-02-15 19:21:43 GMT 38.327808 -7.777425 33,600 22 416 1152
2020-02-15 19:21:40 GMT 38.314041 -7.784807 33,475 22 416 1088
2020-02-15 19:21:37 GMT 38.314041 -7.784807 33,450 22 415 1152
2020-02-15 19:21:34 GMT 38.311096 -7.786321 33,375 22 415 1152
2020-02-15 19:21:28 GMT 38.299667 -7.792404 33,275 22 414 1280
2020-02-15 19:21:25 GMT 38.294289 -7.795277 33,200 22 413 1280
2020-02-15 19:21:21 GMT 38.285629 -7.799935 33,100 22 413 1280
2020-02-15 19:21:18 GMT 38.282978 -7.801368 33,100 22 413 1280
2020-02-15 19:21:15 GMT 38.277531 -7.804293 33,025 22 413 1216
2020-02-15 19:21:12 GMT 38.272224 -7.807100 33,000 22 413 1216
2020-02-15 19:21:09 GMT 38.266964 -7.809966 32,900 22 412 1216
2020-02-15 19:21:06 GMT 38.260025 -7.813675 32,800 22 411 1216
2020-02-15 19:21:02 GMT 38.254814 -7.816474 32,775 22 411 1280
2020-02-15 19:20:59 GMT 38.242447 -7.823084 32,650 22 411 1216
2020-02-15 19:20:55 GMT 38.242447 -7.823084 32,575 22 410 1216
2020-02-15 19:20:52 GMT 38.235626 -7.826707 32,525 22 410 1280
2020-02-15 19:20:48 GMT 38.230980 -7.829192 32,475 22 410 1408
2020-02-15 19:20:45 GMT 38.220245 -7.834947 32,325 22 409 1344
2020-02-15 19:20:39 GMT 38.213196 -7.838685 32,300 22 409 1344
2020-02-15 19:20:35 GMT 38.203049 -7.844119 32,125 22 408 1408
2020-02-15 19:20:32 GMT 38.203049 -7.844119 32,100 22 408 1408
2020-02-15 19:20:28 GMT 38.195847 -7.847978 32,025 22 408 1344
2020-02-15 19:20:25 GMT 38.188103 -7.852120 31,900 22 407 1280
2020-02-15 19:20:22 GMT 38.179871 -7.856510 31,825 22 406 1216
2020-02-15 19:20:19 GMT 38.179871 -7.856510 31,800 23 406 1216
2020-02-15 19:20:16 GMT 38.172226 -7.860601 31,725 22 406 1280
2020-02-15 19:20:13 GMT 38.168976 -7.862412 31,650 22 405 1344
2020-02-15 19:20:10 GMT 38.164444 -7.864808 31,625 22 405 1408
2020-02-15 19:20:07 GMT 38.159893 -7.867226 31,550 22 405 1408
2020-02-15 19:20:04 GMT 38.153332 -7.870749 31,475 22 404 1408
2020-02-15 19:20:01 GMT 38.149109 -7.873048 31,425 22 401 1408
2020-02-15 19:19:57 GMT 38.142811 -7.876421 31,325 23 391 1984
2020-02-15 19:19:54 GMT 38.135376 -7.880411 31,225 22 402 1408
2020-02-15 19:19:51 GMT 38.126266 -7.885262 31,175 22 401 1408
2020-02-15 19:19:48 GMT 38.126266 -7.885262 31,075 22 401 1408
2020-02-15 19:19:45 GMT 38.120956 -7.888125 31,050 22 401 1280
2020-02-15 19:19:41 GMT 38.114777 -7.891398 30,950 22 400 1216
2020-02-15 19:19:38 GMT 38.103195 -7.897592 30,875 22 399 1472
2020-02-15 19:19:35 GMT 38.097000 -7.900901 30,775 22 399 1536
2020-02-15 19:19:31 GMT 38.097000 -7.900901 30,700 22 399 1536
2020-02-15 19:19:27 GMT 38.089920 -7.904722 30,600 22 398 1344
2020-02-15 19:19:24 GMT 38.086246 -7.906633 30,500 22 397 1472
2020-02-15 19:19:20 GMT 38.079575 -7.910215 30,500 22 397 1472
2020-02-15 19:19:16 GMT 38.070187 -7.915231 30,325 22 396 1536
2020-02-15 19:19:13 GMT 38.065113 -7.917978 30,250 22 396 1472
2020-02-15 19:19:07 GMT 38.055908 -7.922896 30,125 22 395 1344
2020-02-15 19:19:04 GMT 38.051697 -7.925116 30,075 22 395 1408
2020-02-15 19:19:00 GMT 38.044865 -7.928785 30,000 22 393 1472
2020-02-15 19:18:56 GMT 38.037506 -7.932726 29,850 22 393 1600
2020-02-15 19:18:53 GMT 38.032619 -7.935293 29,750 22 393 1600
2020-02-15 19:18:50 GMT 38.028351 -7.937564 29,725 22 393 1600
2020-02-15 19:18:45 GMT 38.015068 -7.944668 29,525 22 392 1856
2020-02-15 19:18:39 GMT 38.004639 -7.950303 29,325 22 392 1792
2020-02-15 19:18:36 GMT 38.004639 -7.950303 29,275 23 391 1856
2020-02-15 19:18:33 GMT 37.998684 -7.953445 27,750 23 391 2048
2020-02-15 19:18:29 GMT 37.993607 -7.956205 28,975 23 391 1856
2020-02-15 19:18:26 GMT 37.987427 -7.959536 28,950 23 391 1856
2020-02-15 19:18:22 GMT 37.981365 -7.962819 28,875 23 391 1856
2020-02-15 19:18:19 GMT 37.977127 -7.965146 28,750 23 391 2048
2020-02-15 19:18:15 GMT 37.967651 -7.970289 28,675 22 392 2176
2020-02-15 19:18:12 GMT 37.955978 -7.976016 28,375 20 393 2240
2020-02-15 19:18:07 GMT 37.950920 -7.978224 28,175 18 395 2304
2020-02-15 19:18:01 GMT 37.944580 -7.980749 28,050 15 396 2048
2020-02-15 19:17:55 GMT 37.935287 -7.984080 27,875 14 395 2240
2020-02-15 19:17:52 GMT 37.928062 -7.986284 27,725 12 396 2176
2020-02-15 19:17:48 GMT 37.923409 -7.987479 27,675 10 397 2176
2020-02-15 19:17:45 GMT 37.914749 -7.989389 27,450 7 398 1984
2020-02-15 19:17:41 GMT 37.910374 -7.990106 27,300 4 396 2112
2020-02-15 19:17:37 GMT 37.903885 -7.990976 27,250 4 397 2112
2020-02-15 19:17:34 GMT 37.895386 -7.991837 27,100 4 396 2048
2020-02-15 19:17:31 GMT 37.891754 -7.992195 27,025 4 396 2112
2020-02-15 19:17:28 GMT 37.886818 -7.992673 26,975 4 396 2112
2020-02-15 19:17:23 GMT 37.877197 -7.993606 26,650 4 396 2048
2020-02-15 19:17:19 GMT 37.862961 -7.994950 26,550 4 396 1920
2020-02-15 19:17:16 GMT 37.862961 -7.994950 26,450 4 395 2240
2020-02-15 19:17:13 GMT 37.858383 -7.995359 26,375 3 395 2432
2020-02-15 19:17:10 GMT 37.851471 -7.995943 26,175 3 396 3200
2020-02-15 19:17:07 GMT 37.849342 -7.996136 26,125 3 397 3584
2020-02-15 19:17:04 GMT 37.842964 -7.996674 25,900 3 398 4032
2020-02-15 19:17:01 GMT 37.836594 -7.997170 25,650 3 401 4160
2020-02-15 19:16:57 GMT 37.829979 -7.997748 25,450 3 404 4096
2020-02-15 19:16:54 GMT 37.816849 -7.998823 25,000 3 407 4096
2020-02-15 19:16:50 GMT 37.816849 -7.998823 23,975 4 412 4032
2020-02-15 19:16:47 GMT 37.799835 -8.000326 24,525 4 414 3776
2020-02-15 19:16:43 GMT 37.799835 -8.000326 24,350 4 416 2880
2020-02-15 19:16:40 GMT 37.797810 -8.000555 24,150 4 416 2112
2020-02-15 19:16:37 GMT 37.791779 -8.001144 24,175 4 416 2304
2020-02-15 19:16:34 GMT 37.785645 -8.001670 24,075 4 415 1536
2020-02-15 19:16:30 GMT 37.777405 -8.002488 24,025 4 411 320
2020-02-15 19:16:26 GMT 37.771603 -8.003003 24,025 4 409 0
2020-02-15 19:16:22 GMT 37.756752 -8.004436 24,000 4 401 256
2020-02-15 19:16:16 GMT 37.752411 -8.004826 24,000 4 398 576
2020-02-15 19:16:12 GMT 37.743717 -8.005630 23,950 4 395 1088
2020-02-15 19:16:09 GMT 37.737339 -8.006287 23,875 4 392 1024
2020-02-15 19:16:06 GMT 37.733597 -8.006637 23,825 4 390 1024
2020-02-15 19:16:02 GMT 37.726166 -8.007361 23,750 4 386 960
2020-02-15 19:15:59 GMT 37.721054 -8.007806 23,650 4 382 960
2020-02-15 19:15:56 GMT 37.715927 -8.008332 23,575 4 377 1088
2020-02-15 19:15:52 GMT 37.708511 -8.009033 23,600 4 379 960
2020-02-15 19:15:49 GMT 37.703247 -8.009501 23,500 4 375 1280
2020-02-15 19:15:45 GMT 37.697445 -8.010048 23,450 4 374 1408
2020-02-15 19:15:41 GMT 37.686996 -8.011079 23,275 4 372 1856
2020-02-15 19:15:37 GMT 37.683563 -8.011371 23,250 4 371 1856
2020-02-15 19:15:32 GMT 37.672989 -8.012364 23,025 4 368 1984
2020-02-15 19:15:28 GMT 37.666992 -8.012949 22,825 4 366 2048
2020-02-15 19:15:21 GMT 37.655594 -8.013989 22,700 4 365 2176
2020-02-15 19:15:18 GMT 37.649094 -8.014585 22,525 4 364 2304
2020-02-15 19:15:15 GMT 37.645630 -8.014885 22,300 4 364 2304
2020-02-15 19:15:11 GMT 37.636925 -8.015721 22,150 4 363 2432
2020-02-15 19:15:08 GMT 37.633389 -8.016019 22,100 4 363 2432
2020-02-15 19:15:05 GMT 37.628361 -8.016497 22,025 4 362 2432
2020-02-15 19:15:00 GMT 37.620167 -8.017273 21,875 4 361 2496
2020-02-15 19:14:57 GMT 37.615002 -8.017751 21,675 4 361 2688
2020-02-15 19:14:51 GMT 37.603359 -8.018825 21,350 4 360 3008
2020-02-15 19:14:47 GMT 37.598381 -8.019303 21,275 4 360 2880
2020-02-15 19:14:44 GMT 37.594376 -8.019661 20,975 4 359 2688
2020-02-15 19:14:40 GMT 37.587616 -8.020253 20,800 4 359 2688
2020-02-15 19:14:37 GMT 37.581902 -8.020796 20,750 4 358 2688
2020-02-15 19:14:34 GMT 37.576996 -8.021247 20,625 4 358 2688
2020-02-15 19:14:30 GMT 37.570175 -8.021831 20,425 4 357 2560
2020-02-15 19:14:27 GMT 37.560207 -8.022766 20,200 4 355 2304
2020-02-15 19:14:24 GMT 37.552734 -8.023409 19,975 4 354 2240
2020-02-15 19:14:19 GMT 37.552734 -8.023409 19,950 4 324 832
2020-02-15 19:14:16 GMT 37.547653 -8.023876 19,900 4 352 2368
2020-02-15 19:14:13 GMT 37.543396 -8.024285 19,800 4 351 2496
2020-02-15 19:14:10 GMT 37.535812 -8.024975 19,600 4 350 2560
2020-02-15 19:14:06 GMT 37.530788 -8.025453 19,475 4 350 2496
2020-02-15 19:14:03 GMT 37.526505 -8.025805 19,375 4 349 2496
2020-02-15 19:13:59 GMT 37.520233 -8.026448 18,600 4 344 2880
2020-02-15 19:13:56 GMT 37.510117 -8.027383 18,750 4 346 2496
2020-02-15 19:13:49 GMT 37.503925 -8.027961 18,750 4 344 2688
2020-02-15 19:13:46 GMT 37.498444 -8.028493 18,575 4 344 2944
2020-02-15 19:13:43 GMT 37.494244 -8.028916 18,475 4 343 3008
2020-02-15 19:13:40 GMT 37.488098 -8.029486 18,175 4 343 3008
2020-02-15 19:13:35 GMT 37.473713 -8.030886 17,925 4 343 3008
2020-02-15 19:13:30 GMT 37.473713 -8.030886 17,650 4 342 3008
2020-02-15 19:13:27 GMT 37.466217 -8.031590 17,575 4 342 3072
2020-02-15 19:13:23 GMT 37.460678 -8.032116 17,400 4 342 3072
2020-02-15 19:13:18 GMT 37.453465 -8.032797 17,175 4 341 3008
2020-02-15 19:13:15 GMT 37.449280 -8.033168 17,025 4 341 2944
2020-02-15 19:13:11 GMT 37.444290 -8.033633 16,875 4 340 3072
2020-02-15 19:13:08 GMT 37.439266 -8.034051 16,450 4 339 3392
2020-02-15 19:13:05 GMT 37.428680 -8.035038 16,475 4 339 3392
2020-02-15 19:13:02 GMT 37.428680 -8.035038 16,350 4 339 3264
2020-02-15 19:12:58 GMT 37.422226 -8.035622 16,125 4 339 3264
2020-02-15 19:12:55 GMT 37.418224 -8.035962 15,925 4 339 3328
2020-02-15 19:12:52 GMT 37.412018 -8.036557 15,750 4 339 3520
2020-02-15 19:12:47 GMT 37.406586 -8.037036 15,550 4 339 3648
2020-02-15 19:12:44 GMT 37.400391 -8.037609 15,325 4 339 3136
2020-02-15 19:12:41 GMT 37.396389 -8.037932 15,225 4 338 2688
2020-02-15 19:12:37 GMT 37.390759 -8.038469 15,000 4 335 2432
2020-02-15 19:12:34 GMT 37.384705 -8.039007 14,900 4 333 2368
2020-02-15 19:12:30 GMT 37.374161 -8.040005 14,675 4 327 1408
2020-02-15 19:12:23 GMT 37.368599 -8.040499 14,625 4 323 768
2020-02-15 19:12:20 GMT 37.364639 -8.040823 14,575 4 319 1152
2020-02-15 19:12:17 GMT 37.359924 -8.041291 14,500 4 315 1792
2020-02-15 19:12:14 GMT 37.355255 -8.041700 14,325 4 312 2816
2020-02-15 19:12:11 GMT 37.350037 -8.042226 14,200 4 311 3072
2020-02-15 19:12:07 GMT 37.344902 -8.042709 14,025 4 311 3072
2020-02-15 19:12:02 GMT 37.329941 -8.044038 13,650 4 308 2880
2020-02-15 19:11:57 GMT 37.329941 -8.044038 13,425 4 307 3072
2020-02-15 19:11:52 GMT 37.323444 -8.044619 13,275 4 307 3200
2020-02-15 19:11:49 GMT 37.319824 -8.044973 12,500 4 304 2752
2020-02-15 19:11:46 GMT 37.309891 -8.045908 12,825 4 306 3008
2020-02-15 19:11:42 GMT 37.309891 -8.045908 12,750 4 306 3008
2020-02-15 19:11:38 GMT 37.304352 -8.046433 12,625 4 304 2816
2020-02-15 19:11:35 GMT 37.299133 -8.046959 12,450 4 302 2752
2020-02-15 19:11:32 GMT 37.294998 -8.047306 12,275 4 302 2752
2020-02-15 19:11:28 GMT 37.289612 -8.047836 12,050 4 300 2816
2020-02-15 19:11:25 GMT 37.285309 -8.048245 11,950 4 299 2816
2020-02-15 19:11:22 GMT 37.281143 -8.048654 11,800 4 298 2816
2020-02-15 19:11:19 GMT 37.277775 -8.048978 10,525 4 292 2752
2020-02-15 19:11:15 GMT 37.270569 -8.049648 11,425 4 296 2944
2020-02-15 19:11:12 GMT 37.266998 -8.049940 11,300 4 295 3008
2020-02-15 19:11:06 GMT 37.259945 -8.050650 11,150 4 295 3072
2020-02-15 19:11:01 GMT 37.252762 -8.051284 10,850 4 294 2944
2020-02-15 19:10:56 GMT 37.245850 -8.051927 10,550 4 292 2752
2020-02-15 19:10:52 GMT 37.238708 -8.052569 10,275 4 290 2816
2020-02-15 19:10:48 GMT 37.234619 -8.052979 10,150 4 289 2816
2020-02-15 19:10:43 GMT 37.227310 -8.053621 9,900 4 288 2944
2020-02-15 19:10:39 GMT 37.223328 -8.053972 9,750 4 287 3072
2020-02-15 19:10:36 GMT 37.219398 -8.054352 9,575 3 287 3200
2020-02-15 19:10:33 GMT 37.215256 -8.054710 9,425 3 287 3136
2020-02-15 19:10:30 GMT 37.207352 -8.055374 8,925 3 284 2816
2020-02-15 19:10:27 GMT 37.204128 -8.055665 8,925 3 284 2816
2020-02-15 19:10:24 GMT 37.197006 -8.056262 8,975 3 284 2816
2020-02-15 19:10:21 GMT 37.197006 -8.056262 8,700 3 283 3072
2020-02-15 19:10:15 GMT 37.191605 -8.056719 8,525 3 282 3200
2020-02-15 19:10:09 GMT 37.183868 -8.057361 8,200 3 282 3520
2020-02-15 19:10:05 GMT 37.178341 -8.057815 7,950 3 282 3456
2020-02-15 19:10:00 GMT 37.171051 -8.058413 7,625 3 283 3456
2020-02-15 19:09:54 GMT 37.164608 -8.058949 7,375 3 282 3200
2020-02-15 19:09:44 GMT 37.151505 -8.059991 6,900 3 278 3136
2020-02-15 19:09:34 GMT 37.137886 -8.061159 6,250 4 279 3392
2020-02-15 19:09:24 GMT 37.124897 -8.062412 5,725 4 275 3136
2020-02-15 19:09:13 GMT 37.111633 -8.063906 5,250 5 270 2304
2020-02-15 19:09:03 GMT 37.099014 -8.065517 4,750 6 265 3328
2020-02-15 19:08:53 GMT 37.086960 -8.067189 4,325 6 257 2176
2020-02-15 19:08:42 GMT 37.074619 -8.068921 4,000 5 244 1152
2020-02-15 19:08:32 GMT 37.063587 -8.069876 3,775 1 229 1856
2020-02-15 19:08:22 GMT 37.052673 -8.069926 3,275 0 224 3584
2020-02-15 19:08:12 GMT 37.042500 -8.068742 2,725 340 224 3008
2020-02-15 19:08:01 GMT 37.032623 -8.061861 2,225 311 218 1984
2020-02-15 19:07:51 GMT 37.027451 -8.051693 2,025 287 204 896
2020-02-15 19:07:41 GMT 37.025208 -8.040064 1,875 281 187 1216
2020-02-15 19:07:31 GMT 37.023602 -8.029692 1,725 281 168 960
2020-02-15 19:07:21 GMT 37.022232 -8.020429 1,450 281 159 2368
2020-02-15 19:07:10 GMT 37.020905 -8.011020 1,000 281 159 2624

Making use of Plane Finder data

You are free to use the raw flight data, aircraft information and images provided in this report for your own purposes provided the data is correctly attributed to Plane Finder. We ask that you please credit Plane Finder and link to planefinder.net in close proximity to the content.

Optionally one of the following logos (no smaller then 150x24px) can be used and must link to planefinder.net

Embedding the Plane Finder map

You are welcome to embed the Plane Finder playback map on your website to offer visitors a more interactive experience. We suggest using the following HTML code:

<iframe src="//planefinder.net/data/report/HV6608-F-HTVB-7700-squawk-2020-02-15/map" width="800" height="600" seamless="seamless"></iframe>

Where our data comes from

Plane Finder has a global network of data feeds and antenna radars that receive data broadcast directly from aircraft. The primary technologies used are ADS-B and MLAT. We also show feeds from the FAA and a FLARM glider feed.

Click here to find out more about the Plane Finder network.

How we collect our data